Darstellungsparameter: Aktuell verwendete Einstellungen:
Skalierung der Graphiken ... ?
xyx+y,   Skalierungsfaktor:      Skalierung: Modus: x, Faktor: 1
Darstellungszeitraum ... ?
Vom - - bis: - -   Zeitraum: 06.09.2008 - 05.03.2009
Min/Max/Avg-Anzeige ... ?
Zeige MMA aktuell
Zeige MMA Monat
Zeige MMA alles
Zeige --A aktuell
Zeige --A Monat
Zeige --A alles
Keine MMA-Anzeige
MMA:
Keine MMA-Graphiken
MMA-Basis: 06.09.2008 - 05.03.2009
Quicknavigation für Darstellung... ?
Tage:      1T, 2T, 3T, 5T -1T -2T -3T -5T +1T +2T +3T +5T
Wochen: 1W, 2W, 3W -1W -2W -3W +1W +2W +3W
Monate: 1M, 3M, 6M -1M -3M -6M +1M +3M +6M
Jahre:    1J, 3J, 5J, 10J -1J -3J -5J -10J +1J +3J +5J +10J
Nutze für die Darstellung ... ?
Originaldaten oder Mittelwerte auf ...
Stundenbasis Tagesbasis Wochenbasis
Monatsbasis Jahresbasis      Datenbasis: Original-Daten
Darstellen als:
Statistik (Auto) Statistik J:M      Darstellung:
Zur Graphik,    zurück zur Übersicht aller Sensoren.
 
Tabellarische Datenbersicht: ?
 
Sensor: Nr:Datum:Temp:Feuchte:Taupunkt:
Aussen-T/F 1 06-09-2008 00:07:03 16.5 C 94 % 15.53 C
2 06-09-2008 00:19:03 16.4 C 94 % 15.43 C
3 06-09-2008 00:31:03 16.4 C 94 % 15.43 C
4 06-09-2008 00:43:03 16.4 C 94 % 15.43 C
5 06-09-2008 00:55:03 16.4 C 95 % 15.6 C
6 06-09-2008 01:07:03 16.1 C 94 % 15.13 C
7 06-09-2008 01:19:03 16 C 94 % 15.03 C
8 06-09-2008 01:31:03 15.9 C 95 % 15.1 C
9 06-09-2008 01:43:03 15.7 C 95 % 14.9 C
10 06-09-2008 01:55:03 15.6 C 95 % 14.8 C
11 06-09-2008 02:07:03 15.6 C 95 % 14.8 C
12 06-09-2008 02:19:03 15.7 C 95 % 14.9 C
13 06-09-2008 02:31:03 15.7 C 95 % 14.9 C
14 06-09-2008 02:43:03 15.7 C 95 % 14.9 C
15 06-09-2008 02:55:03 15.7 C 95 % 14.9 C
16 06-09-2008 03:07:03 15.6 C 94 % 14.64 C
17 06-09-2008 03:19:03 15.6 C 94 % 14.64 C
18 06-09-2008 03:31:04 15.6 C 94 % 14.64 C
19 06-09-2008 03:43:04 15.6 C 94 % 14.64 C
20 06-09-2008 03:55:04 15.5 C 95 % 14.7 C
21 06-09-2008 04:07:04 15.5 C 95 % 14.7 C
22 06-09-2008 04:19:04 15.5 C 95 % 14.7 C
23 06-09-2008 04:31:04 15.4 C 95 % 14.6 C
24 06-09-2008 04:43:04 15.4 C 95 % 14.6 C
25 06-09-2008 04:55:04 15.2 C 95 % 14.4 C
Sensor: Nr:Datum:Temp:Feuchte:Taupunkt:
Aussen-T/F 26 06-09-2008 05:07:04 15.2 C 95 % 14.4 C
27 06-09-2008 05:19:04 15.2 C 95 % 14.4 C
28 06-09-2008 05:31:04 15.3 C 95 % 14.5 C
29 06-09-2008 05:43:04 15.3 C 95 % 14.5 C
30 06-09-2008 05:55:04 15.4 C 95 % 14.6 C
31 06-09-2008 06:07:04 15.6 C 95 % 14.8 C
32 06-09-2008 06:19:04 15.7 C 95 % 14.9 C
33 06-09-2008 06:31:04 15.8 C 95 % 15 C
34 06-09-2008 06:43:04 15.8 C 95 % 15 C
35 06-09-2008 06:55:04 15.7 C 95 % 14.9 C
36 06-09-2008 07:07:04 15.8 C 95 % 15 C
37 06-09-2008 07:19:05 15.7 C 95 % 14.9 C
38 06-09-2008 07:31:05 16 C 94 % 15.03 C
39 06-09-2008 07:43:05 16.2 C 93 % 15.07 C
40 06-09-2008 07:55:05 16.3 C 91 % 14.83 C
41 06-09-2008 08:07:02 16.3 C 89 % 14.48 C
42 06-09-2008 08:19:02 16.3 C 89 % 14.48 C
43 06-09-2008 08:31:02 16.6 C 89 % 14.78 C
44 06-09-2008 08:43:02 17 C 86 % 14.64 C
45 06-09-2008 08:55:02 17.1 C 84 % 14.38 C
46 06-09-2008 09:07:03 17.4 C 84 % 14.67 C
47 06-09-2008 09:19:02 18 C 79 % 14.31 C
48 06-09-2008 09:31:02 18.5 C 76 % 14.19 C
49 06-09-2008 09:43:02 18.5 C 74 % 13.78 C
50 06-09-2008 09:55:02 19.1 C 70 % 13.5 C
Sensor: Nr:Datum:Temp:Feuchte:Taupunkt:
Aussen-T/F 51 06-09-2008 10:07:02 19.5 C 67 % 13.21 C
52 06-09-2008 10:19:02 19.6 C 65 % 12.84 C
53 06-09-2008 10:31:02 20.2 C 62 % 12.69 C
54 06-09-2008 10:43:02 20 C 61 % 12.26 C
55 06-09-2008 10:55:02 20.3 C 61 % 12.54 C
56 06-09-2008 11:07:01 20.4 C 60 % 12.38 C
57 06-09-2008 11:19:01 20.9 C 58 % 12.33 C
58 06-09-2008 11:31:02 20.9 C 57 % 12.07 C
59 06-09-2008 11:43:02 21.3 C 55 % 11.9 C
60 06-09-2008 11:55:02 21.7 C 54 % 11.99 C
61 06-09-2008 12:07:02 21.2 C 54 % 11.53 C
62 06-09-2008 12:19:02 21.3 C 55 % 11.9 C
63 06-09-2008 12:31:02 21 C 54 % 11.34 C
64 06-09-2008 12:43:02 20.8 C 56 % 11.71 C
65 06-09-2008 12:55:02 20.8 C 57 % 11.97 C
66 06-09-2008 13:07:02 20.8 C 57 % 11.97 C
67 06-09-2008 13:19:02 20.8 C 53 % 10.88 C
68 06-09-2008 13:31:02 20.9 C 52 % 10.68 C
69 06-09-2008 13:43:02 20.8 C 53 % 10.88 C
70 06-09-2008 13:55:01 20.6 C 54 % 10.97 C
71 06-09-2008 14:07:02 20.3 C 54 % 10.69 C
72 06-09-2008 14:19:02 20.4 C 53 % 10.51 C
73 06-09-2008 14:31:02 20.2 C 56 % 11.15 C
74 06-09-2008 14:43:02 20 C 57 % 11.23 C
75 06-09-2008 14:55:02 19.8 C 56 % 10.78 C
Sensor: Nr:Datum:Temp:Feuchte:Taupunkt:
Aussen-T/F 76 06-09-2008 15:07:02 19.8 C 51 % 9.38 C
77 06-09-2008 15:19:02 19.7 C 49 % 8.7 C
78 06-09-2008 15:31:02 19.8 C 47 % 8.17 C
79 06-09-2008 15:43:03 19.8 C 47 % 8.17 C
80 06-09-2008 15:55:01 19.5 C 48 % 8.21 C
81 06-09-2008 16:07:02 19.4 C 49 % 8.42 C
82 06-09-2008 16:19:01 19.3 C 53 % 9.49 C
83 06-09-2008 16:31:02 19.3 C 53 % 9.49 C
84 06-09-2008 16:43:02 19.2 C 56 % 10.22 C
85 06-09-2008 16:55:02 19.2 C 58 % 10.74 C
86 06-09-2008 17:07:02 19 C 59 % 10.81 C
87 06-09-2008 17:19:02 18.1 C 69 % 12.33 C
88 06-09-2008 17:31:02 17.9 C 74 % 13.2 C
89 06-09-2008 17:43:02 18 C 71 % 12.67 C
90 06-09-2008 17:55:02 18.1 C 72 % 12.98 C
91 06-09-2008 18:07:01 18.3 C 70 % 12.74 C
92 06-09-2008 18:19:02 18.5 C 68 % 12.49 C
93 06-09-2008 18:31:01 18.5 C 68 % 12.49 C
94 06-09-2008 18:43:01 18.4 C 69 % 12.61 C
95 06-09-2008 18:55:03 18 C 70 % 12.45 C
96 06-09-2008 19:07:02 17.9 C 72 % 12.78 C
97 06-09-2008 19:19:02 17.7 C 73 % 12.8 C
98 06-09-2008 19:31:02 17.5 C 74 % 12.82 C
99 06-09-2008 19:43:02 17.4 C 73 % 12.51 C
100 06-09-2008 19:55:02 17.5 C 73 % 12.61 C
Sensor: Nr:Datum:Temp:Feuchte:Taupunkt:
Aussen-T/F 101 06-09-2008 20:07:02 17.2 C 75 % 12.73 C
102 06-09-2008 20:19:02 17.1 C 75 % 12.64 C
103 06-09-2008 20:31:02 16.9 C 76 % 12.65 C
104 06-09-2008 20:43:02 16.8 C 76 % 12.55 C
105 06-09-2008 20:55:02 16.8 C 74 % 12.14 C
106 06-09-2008 21:07:02 16.7 C 72 % 11.63 C
107 06-09-2008 21:19:02 16.6 C 73 % 11.74 C
108 06-09-2008 21:31:02 16.4 C 74 % 11.76 C
109 06-09-2008 21:43:02 16.2 C 75 % 11.77 C
110 06-09-2008 21:55:01 16 C 77 % 11.97 C
111 06-09-2008 22:07:01 15.9 C 78 % 12.07 C
112 06-09-2008 22:20:02 15.9 C 78 % 12.07 C
113 06-09-2008 22:32:02 15.7 C 79 % 12.07 C
114 06-09-2008 22:44:02 15.6 C 79 % 11.97 C
115 06-09-2008 22:56:02 15.5 C 79 % 11.88 C
116 06-09-2008 23:08:02 15.4 C 79 % 11.78 C
117 06-09-2008 23:20:02 15.4 C 80 % 11.97 C
118 06-09-2008 23:32:02 15.4 C 79 % 11.78 C
119 06-09-2008 23:44:02 15.6 C 79 % 11.97 C
120 06-09-2008 23:56:02 15.6 C 79 % 11.97 C
121 07-09-2008 00:08:02 15.3 C 78 % 11.49 C
122 07-09-2008 00:20:02 15.2 C 79 % 11.59 C
123 07-09-2008 00:32:02 15.2 C 79 % 11.59 C
124 07-09-2008 00:44:02 15.3 C 79 % 11.68 C
125 07-09-2008 00:56:02 15.3 C 79 % 11.68 C
Sensor: Nr:Datum:Temp:Feuchte:Taupunkt:
Aussen-T/F 126 07-09-2008 01:08:02 15.3 C 79 % 11.68 C
127 07-09-2008 01:20:02 15.2 C 79 % 11.59 C
128 07-09-2008 01:32:03 15.3 C 78 % 11.49 C
129 07-09-2008 01:44:03 15.3 C 77 % 11.3 C
130 07-09-2008 01:56:03 15.2 C 77 % 11.2 C
131 07-09-2008 02:08:03 15.3 C 77 % 11.3 C
132 07-09-2008 02:20:03 15.3 C 76 % 11.1 C
133 07-09-2008 02:32:03 15.1 C 76 % 10.9 C
134 07-09-2008 02:44:03 15 C 77 % 11 C
135 07-09-2008 02:56:03 14.7 C 78 % 10.91 C
136 07-09-2008 03:08:03 14.4 C 78 % 10.62 C
137 07-09-2008 03:20:03 14.3 C 79 % 10.71 C
138 07-09-2008 03:32:03 14.4 C 79 % 10.81 C
139 07-09-2008 03:44:03 14.3 C 78 % 10.52 C
140 07-09-2008 03:56:03 14.1 C 78 % 10.33 C
141 07-09-2008 04:08:03 14.1 C 79 % 10.52 C
142 07-09-2008 04:20:03 14.1 C 78 % 10.33 C
143 07-09-2008 04:32:03 13.8 C 80 % 10.41 C
144 07-09-2008 04:44:03 14.1 C 79 % 10.52 C
145 07-09-2008 04:56:03 14.2 C 79 % 10.61 C
146 07-09-2008 05:08:03 13.9 C 79 % 10.32 C
147 07-09-2008 05:20:04 13.7 C 80 % 10.32 C
148 07-09-2008 05:32:04 13.5 C 81 % 10.31 C
149 07-09-2008 05:44:04 13.2 C 82 % 10.2 C
150 07-09-2008 05:56:04 13.1 C 83 % 10.28 C
Sensor: Nr:Datum:Temp:Feuchte:Taupunkt:
Aussen-T/F 151 07-09-2008 06:08:04 13.1 C 83 % 10.28 C
152 07-09-2008 06:20:04 13.1 C 83 % 10.28 C
153 07-09-2008 06:32:04 13.2 C 82 % 10.2 C
154 07-09-2008 06:44:04 13.5 C 82 % 10.49 C
155 07-09-2008 06:56:04 13.7 C 80 % 10.32 C
156 07-09-2008 07:08:04 13.8 C 78 % 10.03 C
157 07-09-2008 07:20:04 13.8 C 77 % 9.84 C
158 07-09-2008 07:32:04 13.8 C 77 % 9.84 C
159 07-09-2008 07:44:04 14.1 C 75 % 9.74 C
160 07-09-2008 07:56:04 14.3 C 73 % 9.53 C
161 07-09-2008 08:08:04 14.3 C 74 % 9.73 C
162 07-09-2008 08:20:04 14.5 C 74 % 9.93 C
163 07-09-2008 08:32:04 14.6 C 74 % 10.02 C
164 07-09-2008 08:44:04 14.7 C 72 % 9.71 C
165 07-09-2008 08:56:04 15.3 C 71 % 10.08 C
166 07-09-2008 09:08:01 15.8 C 70 % 10.34 C
167 07-09-2008 09:20:02 16.1 C 62 % 8.82 C
168 07-09-2008 09:32:02 16.1 C 62 % 8.82 C
169 07-09-2008 09:44:02 15.9 C 62 % 8.64 C
170 07-09-2008 09:56:03 16.3 C 61 % 8.77 C
171 07-09-2008 10:08:02 17.3 C 57 % 8.71 C
172 07-09-2008 10:20:03 18.2 C 54 % 8.75 C
173 07-09-2008 10:32:02 18.2 C 53 % 8.47 C
174 07-09-2008 10:44:02 17.9 C 55 % 8.74 C
175 07-09-2008 10:56:03 17.6 C 56 % 8.73 C
Sensor: Nr:Datum:Temp:Feuchte:Taupunkt:
Aussen-T/F 176 07-09-2008 11:08:02 17.1 C 60 % 9.28 C
177 07-09-2008 11:20:03 16.9 C 60 % 9.09 C
178 07-09-2008 11:32:02 17.6 C 56 % 8.73 C
179 07-09-2008 11:44:02 17.9 C 54 % 8.47 C
180 07-09-2008 11:56:01 18.2 C 52 % 8.19 C
181 07-09-2008 12:08:02 18.3 C 50 % 7.71 C
182 07-09-2008 12:20:01 18.6 C 51 % 8.27 C
183 07-09-2008 12:32:01 18.7 C 52 % 8.65 C
184 07-09-2008 12:44:01 19.1 C 49 % 8.15 C
185 07-09-2008 12:56:01 19.4 C 50 % 8.72 C
186 07-09-2008 13:08:02 19 C 50 % 8.35 C
187 07-09-2008 13:20:01 19.1 C 51 % 8.73 C
188 07-09-2008 13:32:02 19.3 C 50 % 8.63 C
189 07-09-2008 13:44:02 20 C 48 % 8.67 C
190 07-09-2008 13:56:02 20.7 C 47 % 8.99 C
191 07-09-2008 14:08:02 20 C 47 % 8.35 C
192 07-09-2008 14:20:02 20.4 C 47 % 8.72 C
193 07-09-2008 14:32:02 20.6 C 45 % 8.26 C
194 07-09-2008 14:44:02 20.6 C 46 % 8.58 C
195 07-09-2008 14:56:02 20 C 47 % 8.35 C
196 07-09-2008 15:08:01 19.2 C 50 % 8.53 C
197 07-09-2008 15:20:02 18.9 C 54 % 9.4 C
198 07-09-2008 15:32:02 19.3 C 54 % 9.77 C
199 07-09-2008 15:44:02 20.3 C 48 % 8.94 C
200 07-09-2008 15:56:03 20 C 49 % 8.97 C
Sensor: Nr:Datum:Temp:Feuchte:Taupunkt:
Aussen-T/F 201 07-09-2008 16:08:02 18.4 C 58 % 9.99 C
202 07-09-2008 16:20:02 16.7 C 78 % 12.85 C
203 07-09-2008 16:32:02 17.8 C 79 % 14.11 C
204 07-09-2008 16:44:02 18.7 C 72 % 13.55 C
205 07-09-2008 16:56:03 19.5 C 64 % 12.51 C
206 07-09-2008 17:08:02 19.3 C 59 % 11.09 C
207 07-09-2008 17:20:02 19 C 59 % 10.81 C
208 07-09-2008 17:32:02 19.6 C 55 % 10.32 C
209 07-09-2008 17:44:02 20.8 C 50 % 10 C
210 07-09-2008 17:56:02 21 C 46 % 8.95 C
211 07-09-2008 18:08:02 21.3 C 46 % 9.22 C
212 07-09-2008 18:20:02 21.4 C 46 % 9.31 C
213 07-09-2008 18:32:01 21.7 C 47 % 9.9 C
214 07-09-2008 18:44:01 20.6 C 46 % 8.58 C
215 07-09-2008 18:56:02 20.7 C 46 % 8.67 C
216 07-09-2008 19:08:02 20.1 C 46 % 8.13 C
217 07-09-2008 19:20:02 19.4 C 49 % 8.42 C
218 07-09-2008 19:32:02 19 C 56 % 10.03 C
219 07-09-2008 19:44:02 18.7 C 57 % 10.02 C
220 07-09-2008 19:56:02 18.4 C 60 % 10.5 C
221 07-09-2008 20:08:01 18.2 C 59 % 10.06 C
222 07-09-2008 20:20:01 18 C 60 % 10.13 C
223 07-09-2008 20:32:02 17.8 C 61 % 10.18 C
224 07-09-2008 20:44:02 17.6 C 60 % 9.75 C
225 07-09-2008 20:56:02 17.4 C 61 % 9.81 C
Sensor: Nr:Datum:Temp:Feuchte:Taupunkt:
Aussen-T/F 226 07-09-2008 21:08:02 17.2 C 61 % 9.62 C
227 07-09-2008 21:20:02 16.9 C 63 % 9.82 C
228 07-09-2008 21:32:02 16.7 C 66 % 10.32 C
229 07-09-2008 21:44:02 16.7 C 66 % 10.32 C
230 07-09-2008 21:56:02 16.4 C 67 % 10.26 C
231 07-09-2008 22:09:02 16.3 C 68 % 10.39 C
232 07-09-2008 22:21:02 16.3 C 68 % 10.39 C
233 07-09-2008 22:33:02 16.1 C 69 % 10.42 C
234 07-09-2008 22:45:02 16 C 70 % 10.54 C
235 07-09-2008 22:57:02 15.9 C 71 % 10.65 C
236 07-09-2008 23:09:02 15.8 C 71 % 10.56 C
237 07-09-2008 23:21:03 15.8 C 72 % 10.77 C
238 07-09-2008 23:33:03 15.9 C 71 % 10.65 C
239 07-09-2008 23:45:03 15.8 C 71 % 10.56 C
240 07-09-2008 23:57:03 15.8 C 71 % 10.56 C
241 08-09-2008 00:09:03 15.8 C 71 % 10.56 C
242 08-09-2008 00:21:03 15.7 C 71 % 10.46 C
243 08-09-2008 00:33:03 15.5 C 71 % 10.27 C
244 08-09-2008 00:45:03 15.6 C 71 % 10.37 C
245 08-09-2008 00:57:03 15.6 C 71 % 10.37 C
246 08-09-2008 01:09:03 15.5 C 71 % 10.27 C
247 08-09-2008 01:21:03 15.6 C 71 % 10.37 C
248 08-09-2008 01:33:03 15.5 C 71 % 10.27 C
249 08-09-2008 01:45:03 15.2 C 72 % 10.19 C
250 08-09-2008 01:57:03 15.1 C 73 % 10.3 C
Sensor: Nr:Datum:Temp:Feuchte:Taupunkt:
Aussen-T/F 251 08-09-2008 02:09:03 14.9 C 75 % 10.51 C
252 08-09-2008 02:21:03 14.9 C 75 % 10.51 C
253 08-09-2008 02:33:03 15.1 C 74 % 10.5 C
254 08-09-2008 02:45:03 15 C 73 % 10.2 C
255 08-09-2008 02:57:03 14.8 C 74 % 10.22 C
256 08-09-2008 03:09:04 14.4 C 75 % 10.03 C
257 08-09-2008 03:21:04 14.3 C 76 % 10.13 C
258 08-09-2008 03:33:04 14.2 C 77 % 10.23 C
259 08-09-2008 03:45:04 14.3 C 76 % 10.13 C
260 08-09-2008 03:57:04 14.2 C 77 % 10.23 C
261 08-09-2008 04:09:04 14.1 C 78 % 10.33 C
262 08-09-2008 04:21:04 14.2 C 78 % 10.42 C
263 08-09-2008 04:33:04 14.4 C 76 % 10.23 C
264 08-09-2008 04:45:04 14.5 C 75 % 10.13 C
265 08-09-2008 04:57:04 14.5 C 75 % 10.13 C
266 08-09-2008 05:09:04 14.4 C 75 % 10.03 C
267 08-09-2008 05:21:04 14.1 C 74 % 9.54 C
268 08-09-2008 05:33:04 14.1 C 73 % 9.34 C
269 08-09-2008 05:45:04 14 C 73 % 9.24 C
270 08-09-2008 05:57:04 13.9 C 75 % 9.55 C
271 08-09-2008 06:09:04 13.5 C 76 % 9.36 C
272 08-09-2008 06:21:04 13.2 C 78 % 9.45 C
273 08-09-2008 06:33:04 13.1 C 79 % 9.54 C
274 08-09-2008 06:45:04 13 C 80 % 9.63 C
275 08-09-2008 06:57:05 12.8 C 81 % 9.62 C
Sensor: Nr:Datum:Temp:Feuchte:Taupunkt:
Aussen-T/F 276 08-09-2008 07:09:02 12.8 C 82 % 9.81 C
277 08-09-2008 07:21:02 12.8 C 83 % 9.99 C
278 08-09-2008 07:33:02 13.1 C 82 % 10.1 C
279 08-09-2008 07:45:02 13.7 C 82 % 10.69 C
280 08-09-2008 07:57:02 14.2 C 79 % 10.61 C
281 08-09-2008 08:09:02 14.4 C 77 % 10.42 C
282 08-09-2008 08:21:02 14.5 C 77 % 10.52 C
283 08-09-2008 08:33:02 14.7 C 76 % 10.52 C
284 08-09-2008 08:45:02 14.8 C 76 % 10.61 C
285 08-09-2008 08:57:02 14.9 C 75 % 10.51 C
286 08-09-2008 09:09:02 15.2 C 74 % 10.6 C
287 08-09-2008 09:21:03 15.3 C 73 % 10.49 C
288 08-09-2008 09:33:02 15.5 C 71 % 10.27 C
289 08-09-2008 09:45:02 15.8 C 69 % 10.13 C
290 08-09-2008 09:57:02 16.1 C 67 % 9.98 C
291 08-09-2008 10:09:02 16.3 C 66 % 9.94 C
292 08-09-2008 10:21:02 16.6 C 64 % 9.77 C
293 08-09-2008 10:33:02 16.9 C 63 % 9.82 C
294 08-09-2008 10:45:02 17.1 C 60 % 9.28 C
295 08-09-2008 10:57:02 17.3 C 57 % 8.71 C
296 08-09-2008 11:09:02 17.6 C 56 % 8.73 C
297 08-09-2008 11:21:02 17.6 C 57 % 8.99 C
298 08-09-2008 11:33:02 17.3 C 57 % 8.71 C
299 08-09-2008 11:45:01 18.2 C 53 % 8.47 C
300 08-09-2008 11:57:01 18.7 C 50 % 8.08 C
Sensor: Nr:Datum:Temp:Feuchte:Taupunkt:
Aussen-T/F 301 08-09-2008 12:09:02 18.9 C 49 % 7.96 C
302 08-09-2008 12:21:01 19.4 C 47 % 7.81 C
303 08-09-2008 12:33:02 19.7 C 45 % 7.44 C
304 08-09-2008 12:45:02 19.8 C 44 % 7.21 C
305 08-09-2008 12:57:02 19.6 C 44 % 7.03 C
306 08-09-2008 13:09:01 20.7 C 42 % 7.34 C
307 08-09-2008 13:21:02 20.8 C 41 % 7.08 C
308 08-09-2008 13:33:01 20.5 C 41 % 6.81 C
309 08-09-2008 13:45:02 20.7 C 41 % 6.99 C
310 08-09-2008 13:57:02 21.6 C 39 % 7.06 C
311 08-09-2008 14:09:01 22 C 35 % 5.85 C
312 08-09-2008 14:21:02 21.9 C 37 % 6.56 C
313 08-09-2008 14:33:01 22.1 C 35 % 5.94 C
314 08-09-2008 14:45:01 22.3 C 34 % 5.69 C
315 08-09-2008 14:57:01 23 C 32 % 5.43 C
316 08-09-2008 15:09:02 23.2 C 31 % 5.15 C
317 08-09-2008 15:21:01 23.7 C 31 % 5.58 C
318 08-09-2008 15:33:01 23.7 C 30 % 5.11 C
319 08-09-2008 15:49:01 23.1 C 31 % 5.06 C
320 08-09-2008 16:01:07 24 C 30 % 5.37 C
321 08-09-2008 16:13:02 24.1 C 27 % 3.95 C
322 08-09-2008 16:25:01 23.8 C 29 % 4.71 C
323 08-09-2008 16:37:02 23.7 C 30 % 5.11 C
324 08-09-2008 16:49:02 24 C 27 % 3.87 C
325 08-09-2008 17:01:02 23.3 C 30 % 4.77 C
Sensor: Nr:Datum:Temp:Feuchte:Taupunkt:
Aussen-T/F 326 08-09-2008 17:13:02 24.1 C 28 % 4.47 C
327 08-09-2008 17:20:03 24.1 C 20 % -0.24 C
328 08-09-2008 17:25:03 24.3 C 27 % 4.12 C
329 08-09-2008 17:30:03 24.2 C 27 % 4.04 C
330 08-09-2008 17:35:03 24.2 C 26 % 3.5 C
331 08-09-2008 17:40:03 23.8 C 27 % 3.7 C
332 08-09-2008 17:45:02 23.4 C 29 % 4.37 C
333 08-09-2008 17:50:02 23.2 C 30 % 4.68 C
334 08-09-2008 17:55:02 22.9 C 31 % 4.89 C
335 08-09-2008 18:00:02 23.5 C 31 % 5.41 C
336 08-09-2008 18:05:01 24.2 C 29 % 5.06 C
337 08-09-2008 18:10:01 23.7 C 30 % 5.11 C
338 08-09-2008 18:15:02 23.2 C 30 % 4.68 C
339 08-09-2008 18:20:02 22.9 C 32 % 5.35 C
340 08-09-2008 18:25:02 23.3 C 31 % 5.24 C
341 08-09-2008 18:30:02 22.9 C 31 % 4.89 C
342 08-09-2008 18:35:01 23 C 31 % 4.98 C
343 08-09-2008 18:40:01 23.2 C 31 % 5.15 C
344 08-09-2008 18:45:01 23 C 31 % 4.98 C
345 08-09-2008 18:50:01 23 C 32 % 5.43 C
346 08-09-2008 18:55:01 22.6 C 33 % 5.53 C
347 08-09-2008 19:00:01 22.5 C 35 % 6.29 C
348 08-09-2008 19:05:02 22.6 C 37 % 7.18 C
349 08-09-2008 19:10:02 22.7 C 35 % 6.46 C
350 08-09-2008 19:15:02 22.4 C 36 % 6.61 C
Sensor: Nr:Datum:Temp:Feuchte:Taupunkt:
Aussen-T/F 351 08-09-2008 19:20:02 22.3 C 36 % 6.52 C
352 08-09-2008 19:25:02 22.1 C 37 % 6.74 C
353 08-09-2008 19:30:02 21.7 C 38 % 6.77 C
354 08-09-2008 19:35:02 21.4 C 39 % 6.89 C
355 08-09-2008 19:40:02 20.7 C 41 % 6.99 C
356 08-09-2008 19:45:02 20.1 C 42 % 6.8 C
357 08-09-2008 19:50:02 19.9 C 43 % 6.96 C
358 08-09-2008 19:55:02 19.6 C 44 % 7.03 C
359 08-09-2008 20:00:02 19.1 C 45 % 6.9 C
360 08-09-2008 20:05:01 18.9 C 45 % 6.72 C
361 08-09-2008 20:10:01 18.8 C 47 % 7.26 C
362 08-09-2008 20:15:02 18.6 C 46 % 6.77 C
363 08-09-2008 20:20:02 18.5 C 48 % 7.29 C
364 08-09-2008 20:25:02 18.4 C 49 % 7.5 C
365 08-09-2008 20:30:02 18.2 C 48 % 7.02 C
366 08-09-2008 20:35:01 17.9 C 49 % 7.05 C
367 08-09-2008 20:40:01 17.8 C 50 % 7.25 C
368 08-09-2008 20:45:01 17.7 C 52 % 7.73 C
369 08-09-2008 20:50:01 17.5 C 53 % 7.82 C
370 08-09-2008 20:55:01 17.4 C 53 % 7.73 C
371 08-09-2008 21:00:01 17.4 C 53 % 7.73 C
372 08-09-2008 21:05:02 17.4 C 54 % 8.01 C
373 08-09-2008 21:10:02 17.3 C 53 % 7.64 C
374 08-09-2008 21:16:03 17.2 C 53 % 7.55 C
375 08-09-2008 21:21:03 17.4 C 54 % 8.01 C
Sensor: Nr:Datum:Temp:Feuchte:Taupunkt:
Aussen-T/F 376 08-09-2008 21:26:03 16.9 C 56 % 8.07 C
377 08-09-2008 21:31:03 16.9 C 56 % 8.07 C
378 08-09-2008 21:36:03 16.6 C 58 % 8.31 C
379 08-09-2008 21:41:03 16.5 C 57 % 7.96 C
380 08-09-2008 21:46:03 16.5 C 58 % 8.22 C
381 08-09-2008 21:51:03 16.4 C 60 % 8.62 C
382 08-09-2008 21:56:03 16.2 C 60 % 8.43 C
383 08-09-2008 22:01:03 16.1 C 60 % 8.34 C
384 08-09-2008 22:06:03 15.9 C 61 % 8.4 C
385 08-09-2008 22:11:03 15.8 C 62 % 8.54 C
386 08-09-2008 22:16:04 15.6 C 62 % 8.35 C
387 08-09-2008 22:21:04 15.5 C 62 % 8.26 C
388 08-09-2008 22:26:04 15.5 C 62 % 8.26 C
389 08-09-2008 22:31:04 15.4 C 62 % 8.16 C
390 08-09-2008 22:36:04 15.3 C 62 % 8.07 C
391 08-09-2008 22:41:04 15.4 C 63 % 8.4 C
392 08-09-2008 22:46:04 15.3 C 63 % 8.31 C
393 08-09-2008 22:51:04 15.2 C 63 % 8.21 C
394 08-09-2008 22:56:04 15.1 C 64 % 8.35 C
395 08-09-2008 23:01:04 15 C 64 % 8.25 C
396 08-09-2008 23:06:04 14.9 C 66 % 8.61 C
397 08-09-2008 23:11:04 14.8 C 66 % 8.52 C
398 08-09-2008 23:16:04 14.7 C 67 % 8.64 C
399 08-09-2008 23:21:04 14.7 C 67 % 8.64 C
400 08-09-2008 23:26:04 14.7 C 67 % 8.64 C
Sensor: Nr:Datum:Temp:Feuchte:Taupunkt:
Aussen-T/F 401 08-09-2008 23:31:04 14.7 C 67 % 8.64 C
402 08-09-2008 23:36:04 14.7 C 67 % 8.64 C
403 08-09-2008 23:41:04 14.5 C 67 % 8.45 C
404 08-09-2008 23:46:04 14.3 C 68 % 8.48 C
405 08-09-2008 23:51:04 14.2 C 68 % 8.39 C
406 08-09-2008 23:56:05 14.2 C 69 % 8.6 C
407 09-09-2008 00:01:05 14 C 69 % 8.41 C
408 09-09-2008 00:06:05 13.9 C 71 % 8.73 C
409 09-09-2008 00:11:05 13.8 C 72 % 8.85 C
410 09-09-2008 00:16:05 13.7 C 72 % 8.75 C
411 09-09-2008 00:21:05 13.6 C 73 % 8.86 C
412 09-09-2008 00:26:05 13.6 C 73 % 8.86 C
413 09-09-2008 00:31:05 13.5 C 73 % 8.76 C
414 09-09-2008 00:36:05 13.5 C 73 % 8.76 C
415 09-09-2008 00:41:05 13.4 C 74 % 8.87 C
416 09-09-2008 00:46:05 13.3 C 74 % 8.77 C
417 09-09-2008 00:51:05 13.2 C 74 % 8.67 C
418 09-09-2008 00:56:05 13.1 C 74 % 8.58 C
419 09-09-2008 01:01:05 13.1 C 74 % 8.58 C
420 09-09-2008 01:06:05 13 C 75 % 8.68 C
421 09-09-2008 01:11:05 12.9 C 76 % 8.78 C
422 09-09-2008 01:16:05 12.8 C 76 % 8.68 C
423 09-09-2008 01:21:05 12.7 C 76 % 8.58 C
424 09-09-2008 01:26:05 12.7 C 77 % 8.78 C
425 09-09-2008 01:31:06 12.7 C 77 % 8.78 C
Sensor: Nr:Datum:Temp:Feuchte:Taupunkt:
Aussen-T/F 426 09-09-2008 01:36:06 12.6 C 77 % 8.68 C
427 09-09-2008 01:41:06 12.6 C 77 % 8.68 C
428 09-09-2008 01:46:06 12.5 C 77 % 8.58 C
429 09-09-2008 01:51:06 12.5 C 77 % 8.58 C
430 09-09-2008 01:56:06 12.4 C 77 % 8.49 C
431 09-09-2008 02:01:06 12.4 C 78 % 8.68 C
432 09-09-2008 02:06:06 12.3 C 79 % 8.77 C
433 09-09-2008 02:11:06 12.3 C 79 % 8.77 C
434 09-09-2008 02:16:06 12.2 C 79 % 8.67 C
435 09-09-2008 02:21:06 12.3 C 79 % 8.77 C
436 09-09-2008 02:26:06 12.1 C 79 % 8.57 C
437 09-09-2008 02:31:06 12.4 C 79 % 8.86 C
438 09-09-2008 02:36:06 12 C 79 % 8.48 C
439 09-09-2008 02:41:06 12 C 79 % 8.48 C
440 09-09-2008 02:46:06 11.8 C 80 % 8.47 C
441 09-09-2008 02:51:06 11.8 C 80 % 8.47 C
442 09-09-2008 02:56:06 11.7 C 80 % 8.37 C
443 09-09-2008 03:01:06 11.7 C 80 % 8.37 C
444 09-09-2008 03:06:06 11.7 C 80 % 8.37 C
445 09-09-2008 03:11:07 11.7 C 80 % 8.37 C
446 09-09-2008 03:16:07 11.7 C 80 % 8.37 C
447 09-09-2008 03:21:07 11.6 C 81 % 8.45 C
448 09-09-2008 03:26:07 11.5 C 81 % 8.36 C
449 09-09-2008 03:31:07 11.4 C 82 % 8.44 C
450 09-09-2008 03:36:07 11.4 C 82 % 8.44 C
Sensor: Nr:Datum:Temp:Feuchte:Taupunkt:
Aussen-T/F 451 09-09-2008 03:41:07 11.3 C 82 % 8.34 C
452 09-09-2008 03:46:07 11.2 C 82 % 8.25 C
453 09-09-2008 03:51:07 11.2 C 82 % 8.25 C
454 09-09-2008 03:56:07 11.2 C 82 % 8.25 C
455 09-09-2008 04:01:07 11.2 C 82 % 8.25 C
456 09-09-2008 04:06:07 11.1 C 82 % 8.15 C
457 09-09-2008 04:11:07 11.1 C 82 % 8.15 C
458 09-09-2008 04:16:07 11.1 C 82 % 8.15 C
459 09-09-2008 04:21:07 11.1 C 82 % 8.15 C
460 09-09-2008 04:26:07 11.1 C 82 % 8.15 C
461 09-09-2008 04:31:07 11 C 83 % 8.23 C
462 09-09-2008 04:36:07 11 C 83 % 8.23 C
463 09-09-2008 04:41:07 10.9 C 83 % 8.13 C
464 09-09-2008 04:46:08 10.8 C 83 % 8.03 C
465 09-09-2008 04:51:08 10.8 C 83 % 8.03 C
466 09-09-2008 04:56:08 10.7 C 83 % 7.93 C
467 09-09-2008 05:01:08 10.7 C 83 % 7.93 C
468 09-09-2008 05:06:08 10.6 C 83 % 7.84 C
469 09-09-2008 05:11:08 10.6 C 83 % 7.84 C
470 09-09-2008 05:16:08 10.6 C 83 % 7.84 C
471 09-09-2008 05:21:08 10.5 C 83 % 7.74 C
472 09-09-2008 05:26:08 10.4 C 83 % 7.64 C
473 09-09-2008 05:31:08 10.4 C 83 % 7.64 C
474 09-09-2008 05:36:08 10.3 C 83 % 7.54 C
475 09-09-2008 05:41:08 10.3 C 83 % 7.54 C
Sensor: Nr:Datum:Temp:Feuchte:Taupunkt:
Aussen-T/F 476 09-09-2008 05:46:08 10.2 C 83 % 7.45 C
477 09-09-2008 05:51:08 10.2 C 83 % 7.45 C
478 09-09-2008 05:56:08 10.2 C 84 % 7.62 C
479 09-09-2008 06:01:08 10 C 84 % 7.43 C
480 09-09-2008 06:06:08 10 C 84 % 7.43 C
481 09-09-2008 06:11:08 10 C 84 % 7.43 C
482 09-09-2008 06:16:08 10 C 84 % 7.43 C
483 09-09-2008 06:21:09 10 C 84 % 7.43 C
484 09-09-2008 06:26:09 10 C 84 % 7.43 C
485 09-09-2008 06:31:09 10.1 C 85 % 7.7 C
486 09-09-2008 06:36:09 10.1 C 85 % 7.7 C
487 09-09-2008 06:41:09 10.1 C 86 % 7.87 C
488 09-09-2008 06:46:09 10.1 C 86 % 7.87 C
489 09-09-2008 06:51:09 10.1 C 86 % 7.87 C
490 09-09-2008 06:56:09 10.2 C 86 % 7.97 C
491 09-09-2008 07:01:02 10.3 C 86 % 8.06 C
492 09-09-2008 07:06:02 10.2 C 86 % 7.97 C
493 09-09-2008 07:11:02 10.1 C 86 % 7.87 C
494 09-09-2008 07:16:02 10.1 C 86 % 7.87 C
495 09-09-2008 07:21:02 10.2 C 86 % 7.97 C
496 09-09-2008 07:26:02 10.1 C 86 % 7.87 C
497 09-09-2008 07:31:02 10.1 C 86 % 7.87 C
498 09-09-2008 07:36:02 10 C 86 % 7.77 C
499 09-09-2008 07:41:02 10 C 86 % 7.77 C
500 09-09-2008 07:46:02 10.1 C 87 % 8.04 C
Sensor: Nr:Datum:Temp:Feuchte:Taupunkt:
Aussen-T/F 501 09-09-2008 07:51:02 10.2 C 87 % 8.14 C
502 09-09-2008 07:56:02 10.2 C 87 % 8.14 C
503 09-09-2008 08:01:01 10.3 C 87 % 8.23 C
504 09-09-2008 08:06:01 10.3 C 87 % 8.23 C
505 09-09-2008 08:11:01 10.3 C 87 % 8.23 C
506 09-09-2008 08:16:02 10.3 C 87 % 8.23 C
507 09-09-2008 08:21:02 10.4 C 87 % 8.33 C
508 09-09-2008 08:26:02 10.5 C 87 % 8.43 C
509 09-09-2008 08:31:02 10.6 C 87 % 8.53 C
510 09-09-2008 08:36:02 10.6 C 86 % 8.36 C
511 09-09-2008 08:41:02 10.7 C 86 % 8.46 C
512 09-09-2008 08:46:01 10.7 C 87 % 8.63 C
513 09-09-2008 08:51:01 10.8 C 86 % 8.56 C
514 09-09-2008 08:56:01 10.9 C 86 % 8.65 C
515 09-09-2008 09:01:02 11.2 C 85 % 8.77 C
516 09-09-2008 09:06:02 11.3 C 85 % 8.87 C
517 09-09-2008 09:11:02 11.4 C 84 % 8.8 C
518 09-09-2008 09:16:02 11.6 C 84 % 8.99 C
519 09-09-2008 09:21:02 11.7 C 83 % 8.91 C
520 09-09-2008 09:26:02 11.7 C 82 % 8.73 C
521 09-09-2008 09:31:02 11.9 C 82 % 8.93 C
522 09-09-2008 09:36:02 12 C 81 % 8.84 C
523 09-09-2008 09:41:02 12.3 C 81 % 9.14 C
524 09-09-2008 09:46:02 12.5 C 80 % 9.15 C
525 09-09-2008 09:51:02 12.7 C 80 % 9.34 C
Sensor: Nr:Datum:Temp:Feuchte:Taupunkt:
Aussen-T/F 526 09-09-2008 09:56:02 12.7 C 79 % 9.16 C
527 09-09-2008 10:01:02 12.5 C 79 % 8.96 C
528 09-09-2008 10:06:02 12.4 C 80 % 9.05 C
529 09-09-2008 10:11:02 12.4 C 80 % 9.05 C
530 09-09-2008 10:16:02 12.5 C 81 % 9.33 C
531 09-09-2008 10:21:02 12.7 C 82 % 9.71 C
532 09-09-2008 10:26:02 12.7 C 82 % 9.71 C
533 09-09-2008 10:31:02 12.9 C 82 % 9.9 C
534 09-09-2008 10:36:02 13 C 81 % 9.82 C
535 09-09-2008 10:41:02 13.1 C 80 % 9.73 C
536 09-09-2008 10:46:02 13.4 C 80 % 10.02 C
537 09-09-2008 10:51:02 13.8 C 80 % 10.41 C
538 09-09-2008 10:56:02 14.2 C 79 % 10.61 C
539 09-09-2008 11:01:02 14.5 C 79 % 10.91 C
540 09-09-2008 11:06:02 14.9 C 78 % 11.1 C
541 09-09-2008 11:11:02 15.2 C 77 % 11.2 C
542 09-09-2008 11:16:02 15.5 C 76 % 11.29 C
543 09-09-2008 11:21:02 15.9 C 75 % 11.48 C
544 09-09-2008 11:26:02 16.4 C 73 % 11.55 C
545 09-09-2008 11:31:02 16.6 C 72 % 11.54 C
546 09-09-2008 11:36:02 17.1 C 69 % 11.37 C
547 09-09-2008 11:41:02 17.5 C 69 % 11.75 C
548 09-09-2008 11:46:02 17.6 C 69 % 11.85 C
549 09-09-2008 11:51:02 17.8 C 69 % 12.04 C
550 09-09-2008 11:56:02 18.2 C 67 % 11.98 C
Sensor: Nr:Datum:Temp:Feuchte:Taupunkt:
Aussen-T/F 551 09-09-2008 12:01:02 18.5 C 67 % 12.26 C
552 09-09-2008 12:06:02 18.6 C 67 % 12.36 C
553 09-09-2008 12:11:02 19.1 C 64 % 12.14 C
554 09-09-2008 12:16:02 19.5 C 63 % 12.27 C
555 09-09-2008 12:21:02 19.7 C 63 % 12.46 C
556 09-09-2008 12:26:02 19.8 C 62 % 12.31 C
557 09-09-2008 12:31:02 20.4 C 56 % 11.33 C
558 09-09-2008 12:36:02 20.7 C 59 % 12.41 C
559 09-09-2008 12:41:02 21 C 57 % 12.16 C
560 09-09-2008 12:46:02 21.2 C 56 % 12.08 C
561 09-09-2008 12:51:02 21.3 C 56 % 12.17 C
562 09-09-2008 12:56:02 21.7 C 48 % 10.22 C
563 09-09-2008 13:01:02 22.3 C 46 % 10.13 C
564 09-09-2008 13:06:02 22.5 C 47 % 10.63 C
565 09-09-2008 13:11:02 22.5 C 45 % 9.98 C
566 09-09-2008 13:16:02 23 C 41 % 9.05 C
567 09-09-2008 13:21:02 23.3 C 40 % 8.95 C
568 09-09-2008 13:26:02 23.6 C 42 % 9.94 C
569 09-09-2008 13:31:02 23.7 C 40 % 9.31 C
570 09-09-2008 13:36:02 24.1 C 35 % 7.69 C
571 09-09-2008 13:41:02 24.2 C 36 % 8.2 C
572 09-09-2008 13:46:02 24.4 C 34 % 7.53 C
573 09-09-2008 13:51:02 24.6 C 35 % 8.13 C
574 09-09-2008 13:56:02 25.1 C 32 % 7.26 C
575 09-09-2008 14:01:02 25.2 C 32 % 7.34 C
Sensor: Nr:Datum:Temp:Feuchte:Taupunkt:
Aussen-T/F 576 09-09-2008 14:06:02 25.6 C 31 % 7.23 C
577 09-09-2008 14:11:02 25.6 C 29 % 6.26 C
578 09-09-2008 14:16:02 25.8 C 30 % 6.92 C
579 09-09-2008 14:21:02 26.1 C 29 % 6.69 C
580 09-09-2008 14:26:02 26.5 C 31 % 8.01 C
581 09-09-2008 14:31:02 26.6 C 29 % 7.12 C
582 09-09-2008 14:36:02 26.8 C 27 % 6.25 C
583 09-09-2008 14:41:02 27 C 25 % 5.31 C
584 09-09-2008 14:46:02 27 C 26 % 5.87 C
585 09-09-2008 14:51:02 27.1 C 26 % 5.96 C
586 09-09-2008 14:56:02 27.3 C 26 % 6.13 C
587 09-09-2008 15:01:01 27.4 C 25 % 5.65 C
588 09-09-2008 15:06:01 27.5 C 25 % 5.73 C
589 09-09-2008 15:11:01 27.8 C 25 % 5.98 C
590 09-09-2008 15:16:02 28 C 22 % 4.32 C
591 09-09-2008 15:21:02 28.2 C 22 % 4.48 C
592 09-09-2008 15:26:02 28.1 C 22 % 4.4 C
593 09-09-2008 15:31:01 27.8 C 21 % 3.49 C
594 09-09-2008 15:36:01 27.6 C 21 % 3.33 C
595 09-09-2008 15:41:01 27.9 C 22 % 4.23 C
596 09-09-2008 15:46:02 28.4 C 21 % 3.99 C
597 09-09-2008 15:51:02 28.9 C 22 % 5.06 C
598 09-09-2008 15:56:02 29.2 C 24 % 6.57 C
599 09-09-2008 16:01:02 29.2 C 21 % 4.64 C
600 09-09-2008 16:06:02 29.3 C 21 % 4.73 C
Sensor: Nr:Datum:Temp:Feuchte:Taupunkt:
Aussen-T/F 601 09-09-2008 16:11:02 29.4 C 21 % 4.81 C
602 09-09-2008 16:16:02 29.6 C 22 % 5.64 C
603 09-09-2008 16:21:02 29.5 C 23 % 6.2 C
604 09-09-2008 16:26:02 29.7 C 22 % 5.73 C
605 09-09-2008 16:31:02 29.9 C 22 % 5.89 C
606 09-09-2008 16:36:02 30 C 21 % 5.3 C
607 09-09-2008 16:41:02 30.1 C 21 % 5.39 C
608 09-09-2008 16:46:02 30.3 C 20 % 4.85 C
609 09-09-2008 16:51:02 30.1 C 20 % 4.69 C
610 09-09-2008 16:56:02 30 C 20 % 4.61 C
611 09-09-2008 17:01:01 29.5 C 20 % 4.2 C
612 09-09-2008 17:06:01 29.5 C 20 % 4.2 C
613 09-09-2008 17:11:01 30.1 C 21 % 5.39 C
614 09-09-2008 17:16:02 30 C 20 % 4.61 C
615 09-09-2008 17:21:02 30.1 C 20 % 4.69 C
616 09-09-2008 17:26:02 30 C 20 % 4.61 C
617 09-09-2008 17:31:01 30 C 20 % 4.61 C
618 09-09-2008 17:36:01 30 C 20 % 4.61 C
619 09-09-2008 17:41:02 30.1 C 20 % 4.69 C
620 09-09-2008 17:46:02 30.3 C 20 % 4.85 C
621 09-09-2008 17:51:02 30.3 C 20 % 4.85 C
622 09-09-2008 17:56:02 30.1 C 20 % 4.69 C
623 09-09-2008 18:01:02 30.2 C 22 % 6.14 C
624 09-09-2008 18:06:02 30.2 C 20 % 4.77 C
625 09-09-2008 18:11:02 30 C 20 % 4.61 C
Sensor: Nr:Datum:Temp:Feuchte:Taupunkt:
Aussen-T/F 626 09-09-2008 18:16:02 29.9 C 20 % 4.52 C
627 09-09-2008 18:21:02 29.7 C 21 % 5.06 C
628 09-09-2008 18:26:02 29.4 C 20 % 4.11 C
629 09-09-2008 18:31:01 29 C 21 % 4.48 C
630 09-09-2008 18:36:01 28.8 C 22 % 4.98 C
631 09-09-2008 18:41:01 28.5 C 24 % 5.98 C
632 09-09-2008 18:46:02 28 C 25 % 6.15 C
633 09-09-2008 18:51:02 27.4 C 25 % 5.65 C
634 09-09-2008 18:56:02 27.2 C 26 % 6.04 C
635 09-09-2008 19:01:02 27 C 26 % 5.87 C
636 09-09-2008 19:06:02 25.9 C 30 % 7.01 C
637 09-09-2008 19:11:02 25.5 C 29 % 6.17 C
638 09-09-2008 19:16:01 24.9 C 30 % 6.15 C
639 09-09-2008 19:21:01 24.6 C 30 % 5.89 C
640 09-09-2008 19:26:01 24.3 C 31 % 6.1 C
641 09-09-2008 19:31:02 23.9 C 33 % 6.66 C
642 09-09-2008 19:36:02 23.3 C 33 % 6.14 C
643 09-09-2008 19:41:03 22.9 C 35 % 6.64 C
644 09-09-2008 19:46:02 22.6 C 35 % 6.38 C
645 09-09-2008 19:51:02 22.5 C 36 % 6.7 C
646 09-09-2008 19:56:02 22.1 C 38 % 7.13 C
647 09-09-2008 20:01:03 22.1 C 38 % 7.13 C
648 09-09-2008 20:06:03 21.7 C 39 % 7.15 C
649 09-09-2008 20:11:03 21.5 C 38 % 6.6 C
650 09-09-2008 20:16:02 21.4 C 39 % 6.89 C
Sensor: Nr:Datum:Temp:Feuchte:Taupunkt:
Aussen-T/F 651 09-09-2008 20:21:02 21.1 C 38 % 6.24 C
652 09-09-2008 20:26:03 20.8 C 41 % 7.08 C
653 09-09-2008 20:31:02 20.7 C 41 % 6.99 C
654 09-09-2008 20:36:02 20.4 C 41 % 6.72 C
655 09-09-2008 20:41:02 20.4 C 41 % 6.72 C
656 09-09-2008 20:46:02 20.3 C 42 % 6.98 C
657 09-09-2008 20:51:02 20.2 C 43 % 7.23 C
658 09-09-2008 20:56:02 20.2 C 43 % 7.23 C
659 09-09-2008 21:01:02 20.1 C 44 % 7.48 C
660 09-09-2008 21:06:02 20.1 C 44 % 7.48 C
661 09-09-2008 21:11:02 20 C 44 % 7.39 C
662 09-09-2008 21:16:01 19.9 C 45 % 7.63 C
663 09-09-2008 21:21:01 19.9 C 44 % 7.3 C
664 09-09-2008 21:26:01 19.9 C 45 % 7.63 C
665 09-09-2008 21:31:02 19.7 C 46 % 7.77 C
666 09-09-2008 21:36:03 20.1 C 46 % 8.13 C
667 09-09-2008 21:41:03 19.8 C 48 % 8.48 C
668 09-09-2008 21:46:02 19.7 C 48 % 8.39 C
669 09-09-2008 21:51:02 19.8 C 48 % 8.48 C
670 09-09-2008 21:56:02 19.8 C 48 % 8.48 C
671 09-09-2008 22:01:03 20 C 47 % 8.35 C
672 09-09-2008 22:06:03 20.1 C 46 % 8.13 C
673 09-09-2008 22:11:03 20.1 C 46 % 8.13 C
674 09-09-2008 22:16:02 20.1 C 47 % 8.45 C
675 09-09-2008 22:21:02 20.1 C 48 % 8.76 C
Sensor: Nr:Datum:Temp:Feuchte:Taupunkt:
Aussen-T/F 676 09-09-2008 22:26:03 19.9 C 50 % 9.18 C
677 09-09-2008 22:32:03 19.8 C 50 % 9.09 C
678 09-09-2008 22:37:03 19.7 C 48 % 8.39 C
679 09-09-2008 22:42:03 19.9 C 50 % 9.18 C
680 09-09-2008 22:47:03 19.9 C 50 % 9.18 C
681 09-09-2008 22:52:04 19.9 C 51 % 9.47 C
682 09-09-2008 22:57:04 19.8 C 51 % 9.38 C
683 09-09-2008 23:02:04 19.8 C 52 % 9.67 C
684 09-09-2008 23:07:04 19.8 C 52 % 9.67 C
685 09-09-2008 23:12:04 19.8 C 52 % 9.67 C
686 09-09-2008 23:17:04 19.8 C 52 % 9.67 C
687 09-09-2008 23:22:04 19.8 C 54 % 10.23 C
688 09-09-2008 23:27:04 19.8 C 53 % 9.95 C
689 09-09-2008 23:32:04 19.8 C 52 % 9.67 C
690 09-09-2008 23:37:04 19.8 C 53 % 9.95 C
691 09-09-2008 23:42:04 19.7 C 53 % 9.86 C
692 09-09-2008 23:47:04 19.7 C 54 % 10.14 C
693 09-09-2008 23:52:04 19.7 C 54 % 10.14 C
694 09-09-2008 23:57:04 19.7 C 54 % 10.14 C
695 10-09-2008 00:02:04 19.5 C 54 % 9.95 C
696 10-09-2008 00:07:04 19.5 C 53 % 9.67 C
697 10-09-2008 00:12:04 19.6 C 54 % 10.05 C
698 10-09-2008 00:17:04 19.4 C 56 % 10.4 C
699 10-09-2008 00:22:04 19.2 C 57 % 10.48 C
700 10-09-2008 00:27:04 18.9 C 62 % 11.47 C
Sensor: Nr:Datum:Temp:Feuchte:Taupunkt:
Aussen-T/F 701 10-09-2008 00:32:04 18.9 C 62 % 11.47 C
702 10-09-2008 00:37:05 18.8 C 61 % 11.13 C
703 10-09-2008 00:42:05 18.8 C 60 % 10.88 C
704 10-09-2008 00:47:05 18.9 C 59 % 10.72 C
705 10-09-2008 00:52:05 18.9 C 60 % 10.97 C
706 10-09-2008 00:57:05 18.8 C 60 % 10.88 C
707 10-09-2008 01:02:05 18.7 C 59 % 10.53 C
708 10-09-2008 01:07:05 18.5 C 61 % 10.84 C
709 10-09-2008 01:12:05 18.4 C 62 % 10.99 C
710 10-09-2008 01:17:05 18.2 C 62 % 10.81 C
711 10-09-2008 01:22:05 18 C 63 % 10.86 C
712 10-09-2008 01:27:05 17.9 C 65 % 11.23 C
713 10-09-2008 01:32:05 17.8 C 65 % 11.14 C
714 10-09-2008 01:37:05 17.9 C 65 % 11.23 C
715 10-09-2008 01:42:05 18 C 64 % 11.09 C
716 10-09-2008 01:47:05 18 C 64 % 11.09 C
717 10-09-2008 01:52:05 18 C 64 % 11.09 C
718 10-09-2008 01:57:05 18.1 C 63 % 10.95 C
719 10-09-2008 02:02:05 18.1 C 63 % 10.95 C
720 10-09-2008 02:07:05 18.1 C 62 % 10.71 C
721 10-09-2008 02:12:05 17.9 C 63 % 10.76 C
722 10-09-2008 02:17:06 17.8 C 64 % 10.9 C
723 10-09-2008 02:22:06 17.7 C 64 % 10.81 C
724 10-09-2008 02:27:06 17.5 C 64 % 10.62 C
725 10-09-2008 02:32:06 17.4 C 64 % 10.53 C
Sensor: Nr:Datum:Temp:Feuchte:Taupunkt:
Aussen-T/F 726 10-09-2008 02:37:06 17.3 C 65 % 10.66 C
727 10-09-2008 02:42:06 17.2 C 66 % 10.8 C
728 10-09-2008 02:47:06 17.2 C 66 % 10.8 C
729 10-09-2008 02:52:06 17 C 66 % 10.61 C
730 10-09-2008 02:57:06 16.9 C 68 % 10.96 C
731 10-09-2008 03:02:06 16.9 C 68 % 10.96 C
732 10-09-2008 03:07:06 16.9 C 68 % 10.96 C
733 10-09-2008 03:12:06 16.7 C 69 % 10.99 C
734 10-09-2008 03:17:06 16.6 C 69 % 10.89 C
735 10-09-2008 03:22:06 16.6 C 69 % 10.89 C
736 10-09-2008 03:27:06 16.6 C 69 % 10.89 C
737 10-09-2008 03:32:06 16.4 C 70 % 10.92 C
738 10-09-2008 03:37:06 16.4 C 70 % 10.92 C
739 10-09-2008 03:42:06 16.3 C 70 % 10.82 C
740 10-09-2008 03:47:06 16.2 C 70 % 10.73 C
741 10-09-2008 03:52:06 16.2 C 71 % 10.94 C
742 10-09-2008 03:57:06 16.2 C 71 % 10.94 C
743 10-09-2008 04:02:07 16 C 72 % 10.96 C
744 10-09-2008 04:07:07 15.9 C 74 % 11.28 C
745 10-09-2008 04:12:07 15.9 C 74 % 11.28 C
746 10-09-2008 04:17:07 15.9 C 74 % 11.28 C
747 10-09-2008 04:22:07 15.8 C 74 % 11.18 C
748 10-09-2008 04:27:07 15.8 C 74 % 11.18 C
749 10-09-2008 04:32:07 15.8 C 74 % 11.18 C
750 10-09-2008 04:37:07 15.8 C 74 % 11.18 C
Sensor: Nr:Datum:Temp:Feuchte:Taupunkt:
Aussen-T/F 751 10-09-2008 04:42:07 15.8 C 75 % 11.38 C
752 10-09-2008 04:47:07 15.8 C 75 % 11.38 C
753 10-09-2008 04:52:07 15.7 C 76 % 11.48 C
754 10-09-2008 04:57:07 15.7 C 76 % 11.48 C
755 10-09-2008 05:02:07 15.6 C 76 % 11.39 C
756 10-09-2008 05:07:07 15.6 C 76 % 11.39 C
757 10-09-2008 05:12:07 15.6 C 77 % 11.59 C
758 10-09-2008 05:17:07 15.5 C 78 % 11.68 C
759 10-09-2008 05:22:07 15.5 C 78 % 11.68 C
760 10-09-2008 05:27:07 15.5 C 78 % 11.68 C
761 10-09-2008 05:32:07 15.5 C 80 % 12.07 C
762 10-09-2008 05:37:07 15.6 C 81 % 12.35 C
763 10-09-2008 05:42:07 15.8 C 82 % 12.74 C
764 10-09-2008 05:47:08 15.8 C 82 % 12.74 C
765 10-09-2008 05:52:08 16 C 81 % 12.74 C
766 10-09-2008 05:57:08 16 C 80 % 12.55 C
767 10-09-2008 06:02:08 15.9 C 80 % 12.46 C
768 10-09-2008 06:07:08 16 C 79 % 12.36 C
769 10-09-2008 06:12:08 16.1 C 79 % 12.46 C
770 10-09-2008 06:17:08 16.1 C 78 % 12.27 C
771 10-09-2008 06:22:08 16.1 C 78 % 12.27 C
772 10-09-2008 06:27:08 15.9 C 78 % 12.07 C
773 10-09-2008 06:32:08 15.7 C 79 % 12.07 C
774 10-09-2008 06:37:08 15.7 C 79 % 12.07 C
775 10-09-2008 06:42:08 15.6 C 79 % 11.97 C
Sensor: Nr:Datum:Temp:Feuchte:Taupunkt:
Aussen-T/F 776 10-09-2008 06:47:02 15.6 C 80 % 12.16 C
777 10-09-2008 06:52:02 15.6 C 80 % 12.16 C
778 10-09-2008 06:57:02 15.8 C 81 % 12.55 C
779 10-09-2008 07:02:02 15.8 C 81 % 12.55 C
780 10-09-2008 07:07:02 15.7 C 81 % 12.45 C
781 10-09-2008 07:12:02 15.7 C 81 % 12.45 C
782 10-09-2008 07:17:02 15.8 C 81 % 12.55 C
783 10-09-2008 07:22:02 15.8 C 81 % 12.55 C
784 10-09-2008 07:27:02 15.8 C 81 % 12.55 C
785 10-09-2008 07:32:02 16.2 C 80 % 12.75 C
786 10-09-2008 07:37:02 16.2 C 79 % 12.56 C
787 10-09-2008 07:42:02 16.2 C 79 % 12.56 C
788 10-09-2008 07:47:01 16.5 C 79 % 12.85 C
789 10-09-2008 07:52:01 16.5 C 79 % 12.85 C
790 10-09-2008 07:57:01 16.8 C 77 % 12.75 C
791 10-09-2008 08:02:02 17 C 75 % 12.54 C
792 10-09-2008 08:07:02 17.1 C 74 % 12.43 C
793 10-09-2008 08:12:02 17.2 C 74 % 12.53 C
794 10-09-2008 08:17:01 17.1 C 74 % 12.43 C
795 10-09-2008 08:22:01 17.9 C 74 % 13.2 C
796 10-09-2008 08:27:01 17.2 C 74 % 12.53 C
797 10-09-2008 08:32:02 17.4 C 73 % 12.51 C
798 10-09-2008 08:37:02 17.5 C 73 % 12.61 C
799 10-09-2008 08:42:02 17.5 C 73 % 12.61 C
800 10-09-2008 08:47:02 17.5 C 73 % 12.61 C
Sensor: Nr:Datum:Temp:Feuchte:Taupunkt:
Aussen-T/F 801 10-09-2008 08:52:02 17.5 C 73 % 12.61 C
802 10-09-2008 08:57:02 17.6 C 73 % 12.71 C
803 10-09-2008 09:02:01 17.8 C 73 % 12.9 C
804 10-09-2008 09:07:01 17.9 C 72 % 12.78 C
805 10-09-2008 09:12:01 18 C 72 % 12.88 C
806 10-09-2008 09:17:02 18.1 C 72 % 12.98 C
807 10-09-2008 09:22:02 18.3 C 71 % 12.95 C
808 10-09-2008 09:27:02 18.4 C 71 % 13.05 C
809 10-09-2008 09:32:01 18.5 C 70 % 12.93 C
810 10-09-2008 09:37:01 18.8 C 70 % 13.22 C
811 10-09-2008 09:42:02 19 C 67 % 12.74 C
812 10-09-2008 09:47:02 19 C 67 % 12.74 C
813 10-09-2008 09:52:02 19.4 C 67 % 13.12 C
814 10-09-2008 09:57:02 20 C 65 % 13.22 C
815 10-09-2008 10:02:02 20.1 C 64 % 13.08 C
816 10-09-2008 10:07:02 20.5 C 62 % 12.97 C
817 10-09-2008 10:12:02 20.8 C 62 % 13.26 C
818 10-09-2008 10:17:01 21 C 60 % 12.94 C
819 10-09-2008 10:22:01 21.3 C 60 % 13.22 C
820 10-09-2008 10:27:01 21.4 C 60 % 13.32 C
821 10-09-2008 10:32:02 21.5 C 60 % 13.41 C
822 10-09-2008 10:37:02 21.6 C 59 % 13.25 C
823 10-09-2008 10:42:02 21.5 C 59 % 13.15 C
824 10-09-2008 10:47:02 21.5 C 59 % 13.15 C
825 10-09-2008 10:52:02 21.5 C 59 % 13.15 C
Sensor: Nr:Datum:Temp:Feuchte:Taupunkt:
Aussen-T/F 826 10-09-2008 10:57:03 21.4 C 59 % 13.06 C
827 10-09-2008 11:02:02 21.4 C 60 % 13.32 C
828 10-09-2008 11:07:02 21.6 C 59 % 13.25 C
829 10-09-2008 11:12:02 21.9 C 58 % 13.27 C
830 10-09-2008 11:17:02 22.1 C 56 % 12.92 C
831 10-09-2008 11:22:02 22.2 C 56 % 13.01 C
832 10-09-2008 11:27:02 22.5 C 55 % 13.01 C
833 10-09-2008 11:32:02 22.6 C 55 % 13.11 C
834 10-09-2008 11:37:02 22.7 C 56 % 13.47 C
835 10-09-2008 11:42:02 22.7 C 55 % 13.2 C
836 10-09-2008 11:47:02 22.6 C 56 % 13.38 C
837 10-09-2008 11:52:02 22.6 C 56 % 13.38 C
838 10-09-2008 11:57:02 22.7 C 56 % 13.47 C
839 10-09-2008 12:02:02 23 C 54 % 13.2 C
840 10-09-2008 12:07:03 23.2 C 53 % 13.09 C
841 10-09-2008 12:12:03 23.2 C 53 % 13.09 C
842 10-09-2008 12:17:02 23.5 C 53 % 13.37 C
843 10-09-2008 12:22:02 23.4 C 53 % 13.28 C
844 10-09-2008 12:27:02 23.2 C 54 % 13.38 C
845 10-09-2008 12:32:02 23.2 C 54 % 13.38 C
846 10-09-2008 12:37:02 23.5 C 54 % 13.66 C
847 10-09-2008 12:42:02 24 C 51 % 13.24 C
848 10-09-2008 12:47:02 24 C 50 % 12.94 C
849 10-09-2008 12:52:02 24.2 C 50 % 13.12 C
850 10-09-2008 12:57:03 24.4 C 49 % 13 C
Sensor: Nr:Datum:Temp:Feuchte:Taupunkt:
Aussen-T/F 851 10-09-2008 13:02:01 24.5 C 49 % 13.09 C
852 10-09-2008 13:07:01 24.9 C 47 % 12.82 C
853 10-09-2008 13:12:01 25 C 46 % 12.58 C
854 10-09-2008 13:17:02 24.9 C 46 % 12.49 C
855 10-09-2008 13:22:02 24.8 C 47 % 12.73 C
856 10-09-2008 13:27:02 24.7 C 46 % 12.31 C
857 10-09-2008 13:32:02 24.9 C 48 % 13.14 C
858 10-09-2008 13:37:02 24.9 C 47 % 12.82 C
859 10-09-2008 13:42:02 24.6 C 47 % 12.54 C
860 10-09-2008 13:47:01 24.4 C 47 % 12.36 C
861 10-09-2008 13:52:01 24.4 C 47 % 12.36 C
862 10-09-2008 13:57:01 24.6 C 48 % 12.87 C
863 10-09-2008 14:02:02 25.4 C 46 % 12.94 C
864 10-09-2008 14:07:02 25.7 C 43 % 12.19 C
865 10-09-2008 14:12:02 26 C 42 % 12.1 C
866 10-09-2008 14:17:02 26.1 C 40 % 11.45 C
867 10-09-2008 14:22:02 25.9 C 41 % 11.64 C
868 10-09-2008 14:27:02 25.9 C 41 % 11.64 C
869 10-09-2008 14:32:02 25.8 C 41 % 11.56 C
870 10-09-2008 14:37:02 25.5 C 41 % 11.29 C
871 10-09-2008 14:42:02 25.6 C 41 % 11.38 C
872 10-09-2008 14:47:02 25.6 C 42 % 11.74 C
873 10-09-2008 14:52:03 25.7 C 41 % 11.47 C
874 10-09-2008 14:57:03 25.9 C 40 % 11.27 C
875 10-09-2008 15:02:01 26.5 C 38 % 11.03 C
Sensor: Nr:Datum:Temp:Feuchte:Taupunkt:
Aussen-T/F 876 10-09-2008 15:07:01 26.6 C 38 % 11.12 C
877 10-09-2008 15:12:01 26.8 C 38 % 11.3 C
878 10-09-2008 15:17:02 26.9 C 37 % 10.99 C
879 10-09-2008 15:22:02 27.3 C 36 % 10.93 C
880 10-09-2008 15:27:02 27.3 C 35 % 10.5 C
881 10-09-2008 15:32:01 27.2 C 35 % 10.42 C
882 10-09-2008 15:37:01 27.3 C 36 % 10.93 C
883 10-09-2008 15:42:01 27.1 C 36 % 10.75 C
884 10-09-2008 15:47:01 26.9 C 36 % 10.57 C
885 10-09-2008 15:52:01 27 C 36 % 10.66 C
886 10-09-2008 15:57:01 26.7 C 37 % 10.81 C
887 10-09-2008 16:02:02 26.9 C 38 % 11.39 C
888 10-09-2008 16:07:02 26.8 C 37 % 10.9 C
889 10-09-2008 16:12:02 27 C 35 % 10.24 C
890 10-09-2008 16:17:01 27 C 35 % 10.24 C
891 10-09-2008 16:22:01 27.4 C 35 % 10.59 C
892 10-09-2008 16:27:01 27.7 C 35 % 10.85 C
893 10-09-2008 16:32:02 27.7 C 34 % 10.42 C
894 10-09-2008 16:37:02 27.5 C 33 % 9.8 C
895 10-09-2008 16:42:02 27.8 C 34 % 10.51 C
896 10-09-2008 16:47:02 27.9 C 33 % 10.15 C
897 10-09-2008 16:52:03 27.8 C 33 % 10.06 C
898 10-09-2008 16:57:03 27.8 C 33 % 10.06 C
899 10-09-2008 17:02:02 27.6 C 33 % 9.89 C
900 10-09-2008 17:07:02 27.6 C 34 % 10.33 C
Sensor: Nr:Datum:Temp:Feuchte:Taupunkt:
Aussen-T/F 901 10-09-2008 17:12:02 27.3 C 34 % 10.07 C
902 10-09-2008 17:17:02 27.7 C 34 % 10.42 C
903 10-09-2008 17:22:02 27.8 C 33 % 10.06 C
904 10-09-2008 17:27:02 27.8 C 33 % 10.06 C
905 10-09-2008 17:32:02 28 C 32 % 9.77 C
906 10-09-2008 17:37:02 28.3 C 31 % 9.56 C
907 10-09-2008 17:42:02 28 C 31 % 9.3 C
908 10-09-2008 17:47:02 28.2 C 31 % 9.48 C
909 10-09-2008 17:52:02 27.7 C 33 % 9.97 C
910 10-09-2008 17:57:02 27.6 C 33 % 9.89 C
911 10-09-2008 18:02:02 27.5 C 34 % 10.24 C
912 10-09-2008 18:07:02 27.5 C 34 % 10.24 C
913 10-09-2008 18:12:02 27.7 C 33 % 9.97 C
914 10-09-2008 18:17:02 27.9 C 33 % 10.15 C
915 10-09-2008 18:22:02 27.3 C 33 % 9.62 C
916 10-09-2008 18:27:02 27.4 C 34 % 10.16 C
917 10-09-2008 18:32:02 27.2 C 35 % 10.42 C
918 10-09-2008 18:37:02 27.5 C 35 % 10.68 C
919 10-09-2008 18:42:02 27.7 C 35 % 10.85 C
920 10-09-2008 18:47:02 27.5 C 34 % 10.24 C
921 10-09-2008 18:52:02 27.4 C 34 % 10.16 C
922 10-09-2008 18:57:02 27.2 C 34 % 9.98 C
923 10-09-2008 19:02:01 26.6 C 35 % 9.89 C
924 10-09-2008 19:07:01 26.5 C 36 % 10.22 C
925 10-09-2008 19:12:01 26.4 C 38 % 10.94 C
Sensor: Nr:Datum:Temp:Feuchte:Taupunkt:
Aussen-T/F 926 10-09-2008 19:17:02 26.3 C 38 % 10.86 C
927 10-09-2008 19:22:02 26 C 38 % 10.59 C
928 10-09-2008 19:27:02 25.8 C 40 % 11.18 C
929 10-09-2008 19:32:01 25.3 C 41 % 11.11 C
930 10-09-2008 19:37:01 24.7 C 42 % 10.93 C
931 10-09-2008 19:42:01 24.4 C 44 % 11.36 C
932 10-09-2008 19:47:01 23.9 C 46 % 11.58 C
933 10-09-2008 19:52:01 23.7 C 46 % 11.4 C
934 10-09-2008 19:57:01 23.6 C 47 % 11.63 C
935 10-09-2008 20:02:02 23.3 C 48 % 11.68 C
936 10-09-2008 20:07:02 23.1 C 49 % 11.81 C
937 10-09-2008 20:12:02 22.9 C 51 % 12.23 C
938 10-09-2008 20:17:01 22.7 C 52 % 12.34 C
939 10-09-2008 20:22:01 22.5 C 52 % 12.16 C
940 10-09-2008 20:27:01 22.5 C 53 % 12.45 C
941 10-09-2008 20:32:02 22.3 C 54 % 12.55 C
942 10-09-2008 20:37:02 22.2 C 54 % 12.45 C
943 10-09-2008 20:42:02 22.1 C 55 % 12.64 C
944 10-09-2008 20:47:02 21.9 C 57 % 13 C
945 10-09-2008 20:52:02 21.7 C 57 % 12.81 C
946 10-09-2008 20:57:02 21.7 C 58 % 13.08 C
947 10-09-2008 21:02:02 21.6 C 58 % 12.99 C
948 10-09-2008 21:07:02 21.4 C 59 % 13.06 C
949 10-09-2008 21:12:02 21.4 C 59 % 13.06 C
950 10-09-2008 21:18:02 21.2 C 59 % 12.87 C
Sensor: Nr:Datum:Temp:Feuchte:Taupunkt:
Aussen-T/F 951 10-09-2008 21:23:02 21.1 C 60 % 13.04 C
952 10-09-2008 21:28:02 21 C 61 % 13.2 C
953 10-09-2008 21:33:02 20.9 C 62 % 13.35 C
954 10-09-2008 21:38:03 20.9 C 62 % 13.35 C
955 10-09-2008 21:43:03 20.8 C 62 % 13.26 C
956 10-09-2008 21:48:03 20.7 C 63 % 13.41 C
957 10-09-2008 21:53:03 20.6 C 63 % 13.31 C
958 10-09-2008 21:58:03 20.6 C 63 % 13.31 C
959 10-09-2008 22:03:03 20.6 C 63 % 13.31 C
960 10-09-2008 22:08:03 20.5 C 63 % 13.22 C
961 10-09-2008 22:13:03 20.4 C 63 % 13.12 C
962 10-09-2008 22:18:03 20.4 C 63 % 13.12 C
963 10-09-2008 22:23:03 20.4 C 63 % 13.12 C
964 10-09-2008 22:28:03 20.4 C 64 % 13.37 C
965 10-09-2008 22:33:03 20.3 C 64 % 13.27 C
966 10-09-2008 22:38:03 20.2 C 64 % 13.18 C
967 10-09-2008 22:43:03 20.1 C 64 % 13.08 C
968 10-09-2008 22:48:03 20.1 C 65 % 13.32 C
969 10-09-2008 22:53:03 20 C 65 % 13.22 C
970 10-09-2008 22:58:03 19.9 C 67 % 13.59 C
971 10-09-2008 23:03:03 19.8 C 68 % 13.73 C
972 10-09-2008 23:08:03 19.9 C 69 % 14.05 C
973 10-09-2008 23:13:03 19.9 C 69 % 14.05 C
974 10-09-2008 23:18:04 20 C 68 % 13.92 C
975 10-09-2008 23:23:04 19.7 C 69 % 13.86 C
Sensor: Nr:Datum:Temp:Feuchte:Taupunkt:
Aussen-T/F 976 10-09-2008 23:28:04 19.7 C 69 % 13.86 C
977 10-09-2008 23:33:04 19.6 C 70 % 13.98 C
978 10-09-2008 23:38:04 19.6 C 71 % 14.2 C
979 10-09-2008 23:43:04 19.5 C 71 % 14.1 C
980 10-09-2008 23:48:04 19.5 C 71 % 14.1 C
981 10-09-2008 23:53:04 19.4 C 72 % 14.22 C
982 10-09-2008 23:58:04 19.3 C 72 % 14.13 C
983 11-09-2008 00:03:04 19.2 C 73 % 14.25 C
984 11-09-2008 00:08:04 19.1 C 73 % 14.15 C
985 11-09-2008 00:13:04 19.1 C 74 % 14.36 C
986 11-09-2008 00:18:04 18.9 C 75 % 14.37 C
987 11-09-2008 00:23:04 18.7 C 76 % 14.39 C
988 11-09-2008 00:28:04 18.7 C 76 % 14.39 C
989 11-09-2008 00:33:04 18.7 C 76 % 14.39 C
990 11-09-2008 00:38:04 18.5 C 76 % 14.19 C
991 11-09-2008 00:43:04 18.4 C 76 % 14.1 C
992 11-09-2008 00:48:04 18.3 C 76 % 14 C
993 11-09-2008 00:53:05 18.2 C 76 % 13.9 C
994 11-09-2008 00:58:05 18 C 76 % 13.71 C
995 11-09-2008 01:03:05 18 C 76 % 13.71 C
996 11-09-2008 01:08:05 17.8 C 77 % 13.72 C
997 11-09-2008 01:13:05 17.6 C 78 % 13.72 C
998 11-09-2008 01:18:05 17.5 C 78 % 13.62 C
999 11-09-2008 01:23:05 17.5 C 78 % 13.62 C
1000 11-09-2008 01:28:05 17.5 C 78 % 13.62 C
Sensor: Nr:Datum:Temp:Feuchte:Taupunkt:
Aussen-T/F 1001 11-09-2008 01:33:05 17.4 C 78 % 13.53 C
1002 11-09-2008 01:38:05 17.3 C 78 % 13.43 C
1003 11-09-2008 01:43:05 17.2 C 78 % 13.33 C
1004 11-09-2008 01:48:05 17.2 C 79 % 13.53 C
1005 11-09-2008 01:53:05 17.2 C 79 % 13.53 C
1006 11-09-2008 01:58:05 17.3 C 79 % 13.63 C
1007 11-09-2008 02:03:05 17.1 C 79 % 13.43 C
1008 11-09-2008 02:08:05 17 C 79 % 13.33 C
1009 11-09-2008 02:13:05 16.9 C 81 % 13.62 C
1010 11-09-2008 02:18:05 16.7 C 81 % 13.43 C
1011 11-09-2008 02:23:05 16.6 C 81 % 13.33 C
1012 11-09-2008 02:28:06 16.6 C 81 % 13.33 C
1013 11-09-2008 02:33:06 16.5 C 82 % 13.42 C
1014 11-09-2008 02:38:06 16.4 C 82 % 13.32 C
1015 11-09-2008 02:43:06 16.4 C 81 % 13.13 C
1016 11-09-2008 02:48:06 16.3 C 81 % 13.04 C
1017 11-09-2008 02:53:06 16.3 C 81 % 13.04 C
1018 11-09-2008 02:58:06 16.2 C 81 % 12.94 C
1019 11-09-2008 03:03:06 16.2 C 81 % 12.94 C
1020 11-09-2008 03:08:06 16.1 C 81 % 12.84 C
1021 11-09-2008 03:13:06 16.1 C 81 % 12.84 C
1022 11-09-2008 03:18:06 16 C 81 % 12.74 C
1023 11-09-2008 03:23:06 16 C 81 % 12.74 C
1024 11-09-2008 03:28:06 16 C 82 % 12.93 C
1025 11-09-2008 03:33:06 15.9 C 82 % 12.83 C
Sensor: Nr:Datum:Temp:Feuchte:Taupunkt:
Aussen-T/F 1026 11-09-2008 03:38:06 15.9 C 82 % 12.83 C
1027 11-09-2008 03:43:06 15.8 C 82 % 12.74 C
1028 11-09-2008 03:48:06 15.8 C 82 % 12.74 C
1029 11-09-2008 03:53:06 15.8 C 82 % 12.74 C
1030 11-09-2008 03:58:06 15.7 C 82 % 12.64 C
1031 11-09-2008 04:03:06 15.6 C 82 % 12.54 C
1032 11-09-2008 04:08:07 15.7 C 82 % 12.64 C
1033 11-09-2008 04:13:07 15.5 C 82 % 12.44 C
1034 11-09-2008 04:18:07 15.4 C 83 % 12.53 C
1035 11-09-2008 04:23:07 15.4 C 83 % 12.53 C
1036 11-09-2008 04:28:07 15.4 C 83 % 12.53 C
1037 11-09-2008 04:33:07 15.3 C 83 % 12.43 C
1038 11-09-2008 04:38:07 15.3 C 83 % 12.43 C
1039 11-09-2008 04:43:07 15.3 C 83 % 12.43 C
1040 11-09-2008 04:48:07 15.3 C 84 % 12.61 C
1041 11-09-2008 04:53:07 15.3 C 84 % 12.61 C
1042 11-09-2008 04:58:07 15.3 C 84 % 12.61 C
1043 11-09-2008 05:03:07 15.4 C 84 % 12.71 C
1044 11-09-2008 05:08:07 15.5 C 84 % 12.81 C
1045 11-09-2008 05:13:07 15.5 C 84 % 12.81 C
1046 11-09-2008 05:18:07 15.6 C 84 % 12.91 C
1047 11-09-2008 05:23:07 15.6 C 84 % 12.91 C
1048 11-09-2008 05:28:07 15.6 C 84 % 12.91 C
1049 11-09-2008 05:33:07 15.6 C 84 % 12.91 C
1050 11-09-2008 05:38:07 15.5 C 84 % 12.81 C
Sensor: Nr:Datum:Temp:Feuchte:Taupunkt:
Aussen-T/F 1051 11-09-2008 05:43:08 15.5 C 84 % 12.81 C
1052 11-09-2008 05:48:08 15.5 C 84 % 12.81 C
1053 11-09-2008 05:53:08 15.5 C 83 % 12.63 C
1054 11-09-2008 05:58:08 15.4 C 84 % 12.71 C
1055 11-09-2008 06:03:08 15.4 C 84 % 12.71 C
1056 11-09-2008 06:08:08 15.3 C 84 % 12.61 C
1057 11-09-2008 06:13:08 15.2 C 84 % 12.52 C
1058 11-09-2008 06:18:08 15.1 C 84 % 12.42 C
1059 11-09-2008 06:23:08 15.1 C 84 % 12.42 C
1060 11-09-2008 06:28:08 15.2 C 85 % 12.7 C
1061 11-09-2008 06:33:08 15.1 C 85 % 12.6 C
1062 11-09-2008 06:38:08 15.1 C 85 % 12.6 C
1063 11-09-2008 06:43:08 15.2 C 85 % 12.7 C
1064 11-09-2008 06:48:08 15.3 C 85 % 12.79 C
1065 11-09-2008 06:53:08 15.3 C 85 % 12.79 C
1066 11-09-2008 06:58:08 15.4 C 85 % 12.89 C
1067 11-09-2008 07:03:02 15.4 C 85 % 12.89 C
1068 11-09-2008 07:08:02 15.4 C 85 % 12.89 C
1069 11-09-2008 07:13:02 15.4 C 85 % 12.89 C
1070 11-09-2008 07:18:02 15.4 C 85 % 12.89 C
1071 11-09-2008 07:23:02 15.4 C 85 % 12.89 C
1072 11-09-2008 07:28:02 15.4 C 85 % 12.89 C
1073 11-09-2008 07:33:02 15.4 C 85 % 12.89 C
1074 11-09-2008 07:38:02 15.4 C 86 % 13.07 C
1075 11-09-2008 07:43:02 15.5 C 86 % 13.17 C
Sensor: Nr:Datum:Temp:Feuchte:Taupunkt:
Aussen-T/F 1076 11-09-2008 07:48:02 15.6 C 86 % 13.27 C
1077 11-09-2008 07:53:02 15.7 C 86 % 13.37 C
1078 11-09-2008 07:58:02 15.8 C 86 % 13.46 C
1079 11-09-2008 08:03:02 15.8 C 86 % 13.46 C
1080 11-09-2008 08:08:02 15.8 C 85 % 13.28 C
1081 11-09-2008 08:13:02 15.9 C 85 % 13.38 C
1082 11-09-2008 08:18:02 16 C 84 % 13.3 C
1083 11-09-2008 08:23:02 16 C 84 % 13.3 C
1084 11-09-2008 08:28:02 16.1 C 85 % 13.58 C
1085 11-09-2008 08:33:03 16.2 C 85 % 13.68 C
1086 11-09-2008 08:38:03 16.4 C 85 % 13.87 C
1087 11-09-2008 08:43:03 16.5 C 84 % 13.79 C
1088 11-09-2008 08:48:02 16.6 C 84 % 13.89 C
1089 11-09-2008 08:53:02 16.6 C 84 % 13.89 C
1090 11-09-2008 08:58:02 16.7 C 84 % 13.98 C
1091 11-09-2008 09:03:02 16.8 C 83 % 13.9 C
1092 11-09-2008 09:08:02 16.8 C 83 % 13.9 C
1093 11-09-2008 09:13:02 17 C 83 % 14.09 C
1094 11-09-2008 09:18:02 17.2 C 83 % 14.29 C
1095 11-09-2008 09:23:02 17.3 C 82 % 14.2 C
1096 11-09-2008 09:28:02 17.5 C 82 % 14.39 C
1097 11-09-2008 09:33:03 17.6 C 81 % 14.3 C
1098 11-09-2008 09:38:03 17.6 C 80 % 14.11 C
1099 11-09-2008 09:43:03 17.7 C 80 % 14.21 C
1100 11-09-2008 09:48:02 17.8 C 79 % 14.11 C
Sensor: Nr:Datum:Temp:Feuchte:Taupunkt:
Aussen-T/F 1101 11-09-2008 09:53:02 17.9 C 79 % 14.21 C
1102 11-09-2008 09:58:02 18.2 C 78 % 14.3 C
1103 11-09-2008 10:03:03 18.4 C 77 % 14.3 C
1104 11-09-2008 10:08:03 18.7 C 77 % 14.59 C
1105 11-09-2008 10:13:03 18.8 C 76 % 14.48 C
1106 11-09-2008 10:18:02 19 C 74 % 14.26 C
1107 11-09-2008 10:23:02 19.2 C 73 % 14.25 C
1108 11-09-2008 10:28:02 19.3 C 73 % 14.34 C
1109 11-09-2008 10:33:02 19.5 C 72 % 14.32 C
1110 11-09-2008 10:38:02 19.7 C 71 % 14.3 C
1111 11-09-2008 10:43:02 19.9 C 70 % 14.27 C
1112 11-09-2008 10:48:03 20.1 C 68 % 14.01 C
1113 11-09-2008 10:53:03 20.5 C 68 % 14.39 C
1114 11-09-2008 10:58:03 20.4 C 67 % 14.07 C
1115 11-09-2008 11:03:02 20.5 C 66 % 13.93 C
1116 11-09-2008 11:08:02 20.8 C 66 % 14.22 C
1117 11-09-2008 11:13:02 20.9 C 65 % 14.08 C
1118 11-09-2008 11:18:02 21 C 64 % 13.93 C
1119 11-09-2008 11:23:02 21.1 C 64 % 14.03 C
1120 11-09-2008 11:28:02 21.2 C 63 % 13.88 C
1121 11-09-2008 11:33:02 21.1 C 63 % 13.79 C
1122 11-09-2008 11:38:02 20.9 C 64 % 13.84 C
1123 11-09-2008 11:43:03 20.8 C 66 % 14.22 C
1124 11-09-2008 11:48:01 20.9 C 66 % 14.31 C
1125 11-09-2008 11:53:01 21 C 65 % 14.17 C
Sensor: Nr:Datum:Temp:Feuchte:Taupunkt:
Aussen-T/F 1126 11-09-2008 11:58:01 21.1 C 64 % 14.03 C
1127 11-09-2008 12:03:02 21.1 C 65 % 14.27 C
1128 11-09-2008 12:08:02 21.2 C 65 % 14.36 C
1129 11-09-2008 12:13:02 21.2 C 65 % 14.36 C
1130 11-09-2008 12:18:02 21.5 C 65 % 14.65 C
1131 11-09-2008 12:23:02 21.6 C 64 % 14.5 C
1132 11-09-2008 12:28:03 21.9 C 64 % 14.78 C
1133 11-09-2008 12:33:01 22.2 C 62 % 14.58 C
1134 11-09-2008 12:38:01 22.5 C 62 % 14.86 C
1135 11-09-2008 12:43:01 22.8 C 60 % 14.63 C
1136 11-09-2008 12:48:02 23 C 59 % 14.56 C
1137 11-09-2008 12:53:02 23.1 C 59 % 14.65 C
1138 11-09-2008 12:58:02 23.3 C 58 % 14.58 C
1139 11-09-2008 13:03:01 23.7 C 57 % 14.68 C
1140 11-09-2008 13:08:01 24.1 C 55 % 14.5 C
1141 11-09-2008 13:13:01 24.3 C 55 % 14.68 C
1142 11-09-2008 13:18:01 24.7 C 54 % 14.77 C
1143 11-09-2008 13:23:01 24.9 C 53 % 14.66 C
1144 11-09-2008 13:28:01 24.9 C 52 % 14.37 C
1145 11-09-2008 13:33:02 25.4 C 50 % 14.22 C
1146 11-09-2008 13:38:02 25.7 C 49 % 14.19 C
1147 11-09-2008 13:43:02 25.9 C 49 % 14.37 C
1148 11-09-2008 13:48:02 26.1 C 49 % 14.55 C
1149 11-09-2008 13:53:02 26.4 C 47 % 14.18 C
1150 11-09-2008 13:58:02 26.5 C 47 % 14.27 C
Sensor: Nr:Datum:Temp:Feuchte:Taupunkt:
Aussen-T/F 1151 11-09-2008 14:03:01 26.9 C 46 % 14.3 C
1152 11-09-2008 14:08:01 27.2 C 44 % 13.89 C
1153 11-09-2008 14:13:01 27.5 C 43 % 13.81 C
1154 11-09-2008 14:18:02 27.7 C 43 % 13.99 C
1155 11-09-2008 14:23:02 27.8 C 42 % 13.71 C
1156 11-09-2008 14:28:02 27.9 C 41 % 13.43 C
1157 11-09-2008 14:33:02 27.8 C 41 % 13.34 C
1158 11-09-2008 14:38:02 28.2 C 41 % 13.7 C
1159 11-09-2008 14:43:02 28.3 C 40 % 13.41 C
1160 11-09-2008 14:48:01 28.3 C 41 % 13.79 C
1161 11-09-2008 14:53:01 28.7 C 40 % 13.77 C
1162 11-09-2008 14:58:01 29 C 37 % 12.84 C
1163 11-09-2008 15:03:02 29.4 C 35 % 12.34 C
1164 11-09-2008 15:08:03 29.6 C 36 % 12.95 C
1165 11-09-2008 15:13:03 29.4 C 34 % 11.9 C
1166 11-09-2008 15:18:02 29 C 37 % 12.84 C
1167 11-09-2008 15:23:02 28.8 C 37 % 12.66 C
1168 11-09-2008 15:28:02 28.7 C 36 % 12.16 C
1169 11-09-2008 15:33:02 28.8 C 37 % 12.66 C
1170 11-09-2008 15:38:02 28.9 C 38 % 13.16 C
1171 11-09-2008 15:43:02 29 C 34 % 11.55 C
1172 11-09-2008 15:48:02 29.2 C 32 % 10.81 C
1173 11-09-2008 15:53:02 29 C 31 % 10.17 C
1174 11-09-2008 15:58:02 28.6 C 32 % 10.29 C
1175 11-09-2008 16:03:01 28.3 C 35 % 11.38 C
Sensor: Nr:Datum:Temp:Feuchte:Taupunkt:
Aussen-T/F 1176 11-09-2008 16:08:01 28 C 37 % 11.96 C
1177 11-09-2008 16:13:01 27.7 C 40 % 12.88 C
1178 11-09-2008 16:18:02 27.1 C 41 % 12.72 C
1179 11-09-2008 16:23:02 26.6 C 44 % 13.35 C
1180 11-09-2008 16:28:02 26.5 C 42 % 12.55 C
1181 11-09-2008 16:33:02 26.3 C 46 % 13.76 C
1182 11-09-2008 16:38:02 26 C 46 % 13.49 C
1183 11-09-2008 16:43:02 25.9 C 48 % 14.05 C
1184 11-09-2008 16:48:02 25.8 C 48 % 13.96 C
1185 11-09-2008 16:53:02 25.6 C 46 % 13.12 C
1186 11-09-2008 16:58:02 25.4 C 47 % 13.27 C
1187 11-09-2008 17:03:02 25.1 C 48 % 13.32 C
1188 11-09-2008 17:08:02 25.3 C 46 % 12.85 C
1189 11-09-2008 17:13:02 25.2 C 47 % 13.09 C
1190 11-09-2008 17:18:02 25.1 C 47 % 13 C
1191 11-09-2008 17:23:02 25.1 C 47 % 13 C
1192 11-09-2008 17:28:02 24.8 C 50 % 13.67 C
1193 11-09-2008 17:33:02 24.7 C 51 % 13.89 C
1194 11-09-2008 17:38:02 24.6 C 52 % 14.09 C
1195 11-09-2008 17:43:02 23.2 C 63 % 15.77 C
1196 11-09-2008 17:48:02 22.7 C 68 % 16.49 C
1197 11-09-2008 17:53:02 21.6 C 75 % 16.98 C
1198 11-09-2008 17:58:02 21.1 C 79 % 17.32 C
1199 11-09-2008 18:03:01 20.9 C 81 % 17.52 C
1200 11-09-2008 18:08:01 20.8 C 82 % 17.61 C
Sensor: Nr:Datum:Temp:Feuchte:Taupunkt:
Aussen-T/F 1201 11-09-2008 18:13:01 20.9 C 83 % 17.9 C
1202 11-09-2008 18:18:02 21 C 82 % 17.81 C
1203 11-09-2008 18:23:02 21.1 C 82 % 17.91 C
1204 11-09-2008 18:28:02 21.4 C 82 % 18.2 C
1205 11-09-2008 18:33:02 21.6 C 81 % 18.2 C
1206 11-09-2008 18:38:02 21.8 C 81 % 18.39 C
1207 11-09-2008 18:43:02 22.1 C 79 % 18.29 C
1208 11-09-2008 18:48:02 22.2 C 78 % 18.18 C
1209 11-09-2008 18:53:02 22.2 C 78 % 18.18 C
1210 11-09-2008 18:58:02 22.2 C 77 % 17.98 C
1211 11-09-2008 19:03:02 22.2 C 77 % 17.98 C
1212 11-09-2008 19:08:02 22.1 C 77 % 17.88 C
1213 11-09-2008 19:13:02 22 C 77 % 17.78 C
1214 11-09-2008 19:18:02 21.8 C 79 % 18 C
1215 11-09-2008 19:23:02 21.6 C 79 % 17.8 C
1216 11-09-2008 19:28:02 21.4 C 79 % 17.61 C
1217 11-09-2008 19:33:01 21.2 C 80 % 17.61 C
1218 11-09-2008 19:38:01 21.1 C 80 % 17.51 C
1219 11-09-2008 19:43:01 21.1 C 81 % 17.71 C
1220 11-09-2008 19:48:02 20.9 C 82 % 17.71 C
1221 11-09-2008 19:53:02 20.8 C 82 % 17.61 C
1222 11-09-2008 19:58:02 20.7 C 82 % 17.52 C
1223 11-09-2008 20:03:02 20.6 C 82 % 17.42 C
1224 11-09-2008 20:08:02 20.4 C 82 % 17.22 C
1225 11-09-2008 20:13:02 20.3 C 82 % 17.13 C
Sensor: Nr:Datum:Temp:Feuchte:Taupunkt:
Aussen-T/F 1226 11-09-2008 20:18:02 20.1 C 82 % 16.93 C
1227 11-09-2008 20:23:02 20 C 82 % 16.83 C
1228 11-09-2008 20:28:02 19.9 C 83 % 16.93 C
1229 11-09-2008 20:33:02 19.9 C 83 % 16.93 C
1230 11-09-2008 20:38:02 19.9 C 83 % 16.93 C
1231 11-09-2008 20:43:02 19.9 C 83 % 16.93 C
1232 11-09-2008 20:48:01 20 C 82 % 16.83 C
1233 11-09-2008 20:53:01 19.7 C 84 % 16.92 C
1234 11-09-2008 20:58:01 19.6 C 84 % 16.82 C
1235 11-09-2008 21:03:01 19.5 C 84 % 16.72 C
1236 11-09-2008 21:08:01 19.6 C 84 % 16.82 C
1237 11-09-2008 21:13:01 19.5 C 84 % 16.72 C
1238 11-09-2008 21:18:01 19.5 C 84 % 16.72 C
1239 11-09-2008 21:23:01 19.5 C 84 % 16.72 C
1240 11-09-2008 21:28:01 19.4 C 84 % 16.63 C
1241 11-09-2008 21:33:01 19.3 C 84 % 16.53 C
1242 11-09-2008 21:38:01 19.3 C 84 % 16.53 C
1243 11-09-2008 21:43:01 19.3 C 85 % 16.72 C
1244 11-09-2008 21:49:03 19.2 C 85 % 16.62 C
1245 11-09-2008 21:54:03 19.2 C 85 % 16.62 C
1246 11-09-2008 21:59:03 19.1 C 85 % 16.52 C
1247 11-09-2008 22:04:03 19 C 85 % 16.42 C
1248 11-09-2008 22:09:03 19 C 85 % 16.42 C
1249 11-09-2008 22:14:03 19 C 85 % 16.42 C
1250 11-09-2008 22:19:03 18.9 C 86 % 16.51 C
Sensor: Nr:Datum:Temp:Feuchte:Taupunkt:
Aussen-T/F 1251 11-09-2008 22:24:03 18.9 C 86 % 16.51 C
1252 11-09-2008 22:29:03 18.8 C 86 % 16.41 C
1253 11-09-2008 22:34:03 18.8 C 86 % 16.41 C
1254 11-09-2008 22:39:03 18.7 C 87 % 16.49 C
1255 11-09-2008 22:44:03 18.7 C 87 % 16.49 C
1256 11-09-2008 22:49:03 18.7 C 86 % 16.31 C
1257 11-09-2008 22:54:03 18.6 C 86 % 16.21 C
1258 11-09-2008 22:59:03 18.6 C 87 % 16.39 C
1259 11-09-2008 23:04:04 18.6 C 87 % 16.39 C
1260 11-09-2008 23:09:04 18.5 C 87 % 16.3 C
1261 11-09-2008 23:14:04 18.5 C 87 % 16.3 C
1262 11-09-2008 23:19:04 18.5 C 87 % 16.3 C
1263 11-09-2008 23:24:04 18.4 C 87 % 16.2 C
1264 11-09-2008 23:29:04 18.3 C 87 % 16.1 C
1265 11-09-2008 23:34:04 18.2 C 87 % 16 C
1266 11-09-2008 23:39:04 18.1 C 87 % 15.9 C
1267 11-09-2008 23:44:04 18.1 C 87 % 15.9 C
1268 11-09-2008 23:49:04 18.1 C 87 % 15.9 C
1269 11-09-2008 23:54:04 18 C 87 % 15.8 C
1270 11-09-2008 23:59:04 18 C 88 % 15.98 C
1271 12-09-2008 00:04:04 18 C 88 % 15.98 C
1272 12-09-2008 00:09:04 18.1 C 88 % 16.08 C
1273 12-09-2008 00:14:04 18.1 C 88 % 16.08 C
1274 12-09-2008 00:19:04 18.1 C 88 % 16.08 C
1275 12-09-2008 00:24:04 18.1 C 88 % 16.08 C
Sensor: Nr:Datum:Temp:Feuchte:Taupunkt:
Aussen-T/F 1276 12-09-2008 00:29:04 18.1 C 88 % 16.08 C
1277 12-09-2008 00:34:04 18.1 C 88 % 16.08 C
1278 12-09-2008 00:39:05 18.1 C 88 % 16.08 C
1279 12-09-2008 00:44:05 18.1 C 88 % 16.08 C
1280 12-09-2008 00:49:05 18.1 C 88 % 16.08 C
1281 12-09-2008 00:54:05 18.1 C 88 % 16.08 C
1282 12-09-2008 00:59:05 18.1 C 88 % 16.08 C
1283 12-09-2008 01:04:05 18.1 C 88 % 16.08 C
1284 12-09-2008 01:09:05 18.1 C 88 % 16.08 C
1285 12-09-2008 01:14:05 18.1 C 88 % 16.08 C
1286 12-09-2008 01:19:05 18.2 C 88 % 16.18 C
1287 12-09-2008 01:24:05 18.2 C 88 % 16.18 C
1288 12-09-2008 01:29:05 18.2 C 88 % 16.18 C
1289 12-09-2008 01:34:05 18.2 C 87 % 16 C
1290 12-09-2008 01:39:05 18.3 C 87 % 16.1 C
1291 12-09-2008 01:44:05 18.3 C 87 % 16.1 C
1292 12-09-2008 01:49:05 18.3 C 87 % 16.1 C
1293 12-09-2008 01:54:05 18.3 C 86 % 15.92 C
1294 12-09-2008 01:59:05 18.3 C 86 % 15.92 C
1295 12-09-2008 02:04:05 18.2 C 86 % 15.82 C
1296 12-09-2008 02:09:05 18.3 C 86 % 15.92 C
1297 12-09-2008 02:14:06 18.2 C 86 % 15.82 C
1298 12-09-2008 02:19:06 18.3 C 86 % 15.92 C
1299 12-09-2008 02:24:06 18.3 C 86 % 15.92 C
1300 12-09-2008 02:29:06 18.3 C 86 % 15.92 C
Sensor: Nr:Datum:Temp:Feuchte:Taupunkt:
Aussen-T/F 1301 12-09-2008 02:34:06 18.3 C 86 % 15.92 C
1302 12-09-2008 02:39:06 18.3 C 86 % 15.92 C
1303 12-09-2008 02:44:06 18.3 C 86 % 15.92 C
1304 12-09-2008 02:49:06 18.3 C 86 % 15.92 C
1305 12-09-2008 02:54:06 18.3 C 86 % 15.92 C
1306 12-09-2008 02:59:06 18.3 C 86 % 15.92 C
1307 12-09-2008 03:04:06 18.3 C 86 % 15.92 C
1308 12-09-2008 03:09:06 18.2 C 86 % 15.82 C
1309 12-09-2008 03:14:06 18.1 C 87 % 15.9 C
1310 12-09-2008 03:19:06 18.1 C 87 % 15.9 C
1311 12-09-2008 03:24:06 18.1 C 87 % 15.9 C
1312 12-09-2008 03:29:06 18.2 C 87 % 16 C
1313 12-09-2008 03:34:06 18 C 87 % 15.8 C
1314 12-09-2008 03:39:06 17.9 C 88 % 15.88 C
1315 12-09-2008 03:44:06 17.9 C 89 % 16.06 C
1316 12-09-2008 03:49:07 17.8 C 89 % 15.96 C
1317 12-09-2008 03:54:07 17.8 C 89 % 15.96 C
1318 12-09-2008 03:59:07 17.8 C 89 % 15.96 C
1319 12-09-2008 04:04:07 17.9 C 89 % 16.06 C
1320 12-09-2008 04:09:07 17.9 C 89 % 16.06 C
1321 12-09-2008 04:14:07 17.9 C 89 % 16.06 C
1322 12-09-2008 04:19:07 17.8 C 89 % 15.96 C
1323 12-09-2008 04:24:07 17.8 C 89 % 15.96 C
1324 12-09-2008 04:29:07 17.8 C 89 % 15.96 C
1325 12-09-2008 04:34:07 17.8 C 89 % 15.96 C
Sensor: Nr:Datum:Temp:Feuchte:Taupunkt:
Aussen-T/F 1326 12-09-2008 04:39:07 17.8 C 89 % 15.96 C
1327 12-09-2008 04:44:07 17.7 C 89 % 15.86 C
1328 12-09-2008 04:49:07 17.7 C 89 % 15.86 C
1329 12-09-2008 04:54:07 17.7 C 89 % 15.86 C
1330 12-09-2008 04:59:07 17.7 C 90 % 16.04 C
1331 12-09-2008 05:04:07 17.7 C 90 % 16.04 C
1332 12-09-2008 05:09:07 17.7 C 90 % 16.04 C
1333 12-09-2008 05:14:07 17.7 C 90 % 16.04 C
1334 12-09-2008 05:19:07 17.5 C 89 % 15.67 C
1335 12-09-2008 05:24:07 17.5 C 89 % 15.67 C
1336 12-09-2008 05:29:08 17.5 C 90 % 15.84 C
1337 12-09-2008 05:34:08 17.4 C 89 % 15.57 C
1338 12-09-2008 05:39:08 17.4 C 89 % 15.57 C
1339 12-09-2008 05:44:08 17.4 C 89 % 15.57 C
1340 12-09-2008 05:49:08 17.4 C 90 % 15.74 C
1341 12-09-2008 05:54:08 17.2 C 89 % 15.37 C
1342 12-09-2008 05:59:08 17.2 C 89 % 15.37 C
1343 12-09-2008 06:04:08 17.3 C 90 % 15.64 C
1344 12-09-2008 06:09:08 17.5 C 90 % 15.84 C
1345 12-09-2008 06:14:08 17.5 C 90 % 15.84 C
1346 12-09-2008 06:19:08 17.4 C 90 % 15.74 C
1347 12-09-2008 06:24:08 17.4 C 90 % 15.74 C
1348 12-09-2008 06:29:08 17.5 C 90 % 15.84 C
1349 12-09-2008 06:34:08 17.4 C 90 % 15.74 C
1350 12-09-2008 06:39:08 17.2 C 90 % 15.55 C
Sensor: Nr:Datum:Temp:Feuchte:Taupunkt:
Aussen-T/F 1351 12-09-2008 06:44:08 17.2 C 90 % 15.55 C
1352 12-09-2008 06:49:08 17.2 C 89 % 15.37 C
1353 12-09-2008 06:54:08 17 C 89 % 15.17 C
1354 12-09-2008 06:59:08 16.9 C 90 % 15.25 C
1355 12-09-2008 07:04:02 16.9 C 90 % 15.25 C
1356 12-09-2008 07:09:02 16.9 C 90 % 15.25 C
1357 12-09-2008 07:14:02 17 C 89 % 15.17 C
1358 12-09-2008 07:19:03 17 C 89 % 15.17 C
1359 12-09-2008 07:24:03 16.9 C 90 % 15.25 C
1360 12-09-2008 07:29:03 16.9 C 90 % 15.25 C
1361 12-09-2008 07:34:02 17 C 89 % 15.17 C
1362 12-09-2008 07:39:02 16.8 C 90 % 15.15 C
1363 12-09-2008 07:44:02 16.9 C 89 % 15.08 C
1364 12-09-2008 07:49:01 16.8 C 90 % 15.15 C
1365 12-09-2008 07:54:01 16.8 C 90 % 15.15 C
1366 12-09-2008 07:59:01 16.9 C 90 % 15.25 C
1367 12-09-2008 08:04:02 16.9 C 90 % 15.25 C
1368 12-09-2008 08:09:02 16.9 C 90 % 15.25 C
1369 12-09-2008 08:14:02 17 C 89 % 15.17 C
1370 12-09-2008 08:19:01 17.1 C 89 % 15.27 C
1371 12-09-2008 08:24:01 17.1 C 89 % 15.27 C
1372 12-09-2008 08:29:01 17.1 C 88 % 15.1 C
1373 12-09-2008 08:34:02 17.2 C 88 % 15.2 C
1374 12-09-2008 08:39:02 17.3 C 88 % 15.29 C
1375 12-09-2008 08:44:02 17.5 C 88 % 15.49 C
Sensor: Nr:Datum:Temp:Feuchte:Taupunkt:
Aussen-T/F 1376 12-09-2008 08:49:02 17.4 C 87 % 15.21 C
1377 12-09-2008 08:54:02 17.5 C 87 % 15.31 C
1378 12-09-2008 08:59:02 17.4 C 87 % 15.21 C
1379 12-09-2008 09:04:02 17.2 C 87 % 15.02 C
1380 12-09-2008 09:09:02 17 C 88 % 15 C
1381 12-09-2008 09:14:02 16.9 C 89 % 15.08 C
1382 12-09-2008 09:19:02 16.9 C 89 % 15.08 C
1383 12-09-2008 09:24:02 17 C 89 % 15.17 C
1384 12-09-2008 09:29:02 17 C 89 % 15.17 C
1385 12-09-2008 09:34:02 16.9 C 90 % 15.25 C
1386 12-09-2008 09:39:02 16.8 C 90 % 15.15 C
1387 12-09-2008 09:44:02 16.9 C 91 % 15.42 C
1388 12-09-2008 09:49:02 17 C 90 % 15.35 C
1389 12-09-2008 09:54:02 17.3 C 91 % 15.82 C
1390 12-09-2008 09:59:02 17.5 C 91 % 16.01 C
1391 12-09-2008 10:04:01 17.5 C 91 % 16.01 C
1392 12-09-2008 10:09:01 17.3 C 90 % 15.64 C
1393 12-09-2008 10:14:01 17.3 C 90 % 15.64 C
1394 12-09-2008 10:19:02 17.4 C 90 % 15.74 C
1395 12-09-2008 10:24:02 17.7 C 91 % 16.21 C
1396 12-09-2008 10:29:02 17.6 C 91 % 16.11 C
1397 12-09-2008 10:34:01 17.5 C 91 % 16.01 C
1398 12-09-2008 10:39:01 17.6 C 91 % 16.11 C
1399 12-09-2008 10:44:01 17.6 C 91 % 16.11 C
1400 12-09-2008 10:49:01 17.6 C 91 % 16.11 C
Sensor: Nr:Datum:Temp:Feuchte:Taupunkt:
Aussen-T/F 1401 12-09-2008 10:54:01 17.7 C 91 % 16.21 C
1402 12-09-2008 10:59:01 17.7 C 91 % 16.21 C
1403 12-09-2008 11:04:02 17.7 C 91 % 16.21 C
1404 12-09-2008 11:09:02 17.6 C 91 % 16.11 C
1405 12-09-2008 11:14:02 17.5 C 91 % 16.01 C
1406 12-09-2008 11:19:01 17.6 C 91 % 16.11 C
1407 12-09-2008 11:24:01 17.6 C 91 % 16.11 C
1408 12-09-2008 11:29:01 17.7 C 91 % 16.21 C
1409 12-09-2008 11:34:02 17.6 C 91 % 16.11 C
1410 12-09-2008 11:39:02 17.6 C 92 % 16.28 C
1411 12-09-2008 11:44:02 17.7 C 92 % 16.38 C
1412 12-09-2008 11:49:02 17.7 C 92 % 16.38 C
1413 12-09-2008 11:54:02 17.7 C 92 % 16.38 C
1414 12-09-2008 11:59:02 17.7 C 92 % 16.38 C
1415 12-09-2008 12:04:02 17.7 C 92 % 16.38 C
1416 12-09-2008 12:09:02 17.9 C 92 % 16.58 C
1417 12-09-2008 12:14:02 17.9 C 92 % 16.58 C
1418 12-09-2008 12:19:02 17.7 C 92 % 16.38 C
1419 12-09-2008 12:24:02 17.7 C 92 % 16.38 C
1420 12-09-2008 12:29:02 17.7 C 92 % 16.38 C
1421 12-09-2008 12:34:02 17.8 C 92 % 16.48 C
1422 12-09-2008 12:39:02 17.9 C 92 % 16.58 C
1423 12-09-2008 12:44:02 17.9 C 92 % 16.58 C
1424 12-09-2008 12:49:02 18 C 91 % 16.51 C
1425 12-09-2008 12:54:02 18 C 91 % 16.51 C
Sensor: Nr:Datum:Temp:Feuchte:Taupunkt:
Aussen-T/F 1426 12-09-2008 12:59:02 18 C 91 % 16.51 C
1427 12-09-2008 13:04:02 17.9 C 92 % 16.58 C
1428 12-09-2008 13:09:02 18 C 91 % 16.51 C
1429 12-09-2008 13:14:02 18.1 C 91 % 16.61 C
1430 12-09-2008 13:19:02 18.1 C 91 % 16.61 C
1431 12-09-2008 13:24:02 18.1 C 91 % 16.61 C
1432 12-09-2008 13:29:02 18 C 91 % 16.51 C
1433 12-09-2008 13:34:02 17.9 C 92 % 16.58 C
1434 12-09-2008 13:39:02 17.9 C 92 % 16.58 C
1435 12-09-2008 13:44:02 17.9 C 92 % 16.58 C
1436 12-09-2008 13:49:02 18 C 91 % 16.51 C
1437 12-09-2008 13:54:02 18.1 C 92 % 16.78 C
1438 12-09-2008 13:59:02 18.2 C 92 % 16.88 C
1439 12-09-2008 14:04:02 18.1 C 92 % 16.78 C
1440 12-09-2008 14:09:02 18.2 C 92 % 16.88 C
1441 12-09-2008 14:14:02 18.2 C 92 % 16.88 C
1442 12-09-2008 14:19:02 18.1 C 92 % 16.78 C
1443 12-09-2008 14:24:02 17.9 C 93 % 16.75 C
1444 12-09-2008 14:29:02 17.4 C 92 % 16.09 C
1445 12-09-2008 14:34:02 17 C 91 % 15.52 C
1446 12-09-2008 14:39:03 17 C 91 % 15.52 C
1447 12-09-2008 14:44:03 16.8 C 92 % 15.49 C
1448 12-09-2008 14:49:02 16.7 C 92 % 15.39 C
1449 12-09-2008 14:54:02 16.7 C 92 % 15.39 C
1450 12-09-2008 14:59:02 16.6 C 92 % 15.3 C
Sensor: Nr:Datum:Temp:Feuchte:Taupunkt:
Aussen-T/F 1451 12-09-2008 15:04:03 16.4 C 92 % 15.1 C
1452 12-09-2008 15:09:03 16.2 C 92 % 14.9 C
1453 12-09-2008 15:14:03 16.1 C 92 % 14.8 C
1454 12-09-2008 15:19:02 15.8 C 92 % 14.5 C
1455 12-09-2008 15:24:03 15.7 C 92 % 14.4 C
1456 12-09-2008 15:29:03 15.7 C 92 % 14.4 C
1457 12-09-2008 15:34:02 15.7 C 92 % 14.4 C
1458 12-09-2008 15:39:02 15.8 C 93 % 14.67 C
1459 12-09-2008 15:44:02 15.8 C 93 % 14.67 C
1460 12-09-2008 15:49:03 15.8 C 93 % 14.67 C
1461 12-09-2008 15:54:03 15.9 C 93 % 14.77 C
1462 12-09-2008 15:59:03 15.8 C 93 % 14.67 C
1463 12-09-2008 16:04:02 15.8 C 93 % 14.67 C
1464 12-09-2008 16:09:02 15.8 C 93 % 14.67 C
1465 12-09-2008 16:14:02 15.7 C 93 % 14.57 C
1466 12-09-2008 16:19:02 15.8 C 93 % 14.67 C
1467 12-09-2008 16:24:02 15.8 C 93 % 14.67 C
1468 12-09-2008 16:29:02 15.8 C 93 % 14.67 C
1469 12-09-2008 16:34:02 15.8 C 93 % 14.67 C
1470 12-09-2008 16:39:03 15.8 C 94 % 14.84 C
1471 12-09-2008 16:44:03 15.8 C 94 % 14.84 C
1472 12-09-2008 16:49:01 15.9 C 94 % 14.94 C
1473 12-09-2008 16:54:01 15.8 C 94 % 14.84 C
1474 12-09-2008 16:59:01 15.6 C 94 % 14.64 C
1475 12-09-2008 17:04:02 15.6 C 94 % 14.64 C
Sensor: Nr:Datum:Temp:Feuchte:Taupunkt:
Aussen-T/F 1476 12-09-2008 17:09:02 15.7 C 94 % 14.74 C
1477 12-09-2008 17:14:02 15.7 C 94 % 14.74 C
1478 12-09-2008 17:19:01 15.7 C 94 % 14.74 C
1479 12-09-2008 17:24:01 15.7 C 94 % 14.74 C
1480 12-09-2008 17:29:01 15.7 C 94 % 14.74 C
1481 12-09-2008 17:34:01 15.8 C 94 % 14.84 C
1482 12-09-2008 17:39:01 15.7 C 94 % 14.74 C
1483 12-09-2008 17:44:01 15.7 C 94 % 14.74 C
1484 12-09-2008 17:49:03 15.5 C 94 % 14.54 C
1485 12-09-2008 17:54:03 15.5 C 94 % 14.54 C
1486 12-09-2008 17:59:03 15.5 C 94 % 14.54 C
1487 12-09-2008 18:04:02 15.6 C 94 % 14.64 C
1488 12-09-2008 18:09:02 15.6 C 94 % 14.64 C
1489 12-09-2008 18:14:02 15.6 C 94 % 14.64 C
1490 12-09-2008 18:19:03 15.6 C 94 % 14.64 C
1491 12-09-2008 18:24:03 15.6 C 94 % 14.64 C
1492 12-09-2008 18:29:03 15.6 C 94 % 14.64 C
1493 12-09-2008 18:34:02 15.6 C 94 % 14.64 C
1494 12-09-2008 18:39:02 15.5 C 94 % 14.54 C
1495 12-09-2008 18:44:02 15.4 C 94 % 14.44 C
1496 12-09-2008 18:49:01 15.4 C 94 % 14.44 C
1497 12-09-2008 18:54:01 15.4 C 94 % 14.44 C
1498 12-09-2008 18:59:01 15.3 C 94 % 14.34 C
1499 12-09-2008 19:04:02 15.3 C 94 % 14.34 C
1500 12-09-2008 19:09:02 15.2 C 94 % 14.24 C
Sensor: Nr:Datum:Temp:Feuchte:Taupunkt:
Aussen-T/F 1501 12-09-2008 19:14:02 15.2 C 94 % 14.24 C
1502 12-09-2008 19:19:01 15.2 C 94 % 14.24 C
1503 12-09-2008 19:24:01 15.2 C 94 % 14.24 C
1504 12-09-2008 19:29:01 15.2 C 94 % 14.24 C
1505 12-09-2008 19:34:02 15.2 C 94 % 14.24 C
1506 12-09-2008 19:39:02 15.1 C 94 % 14.14 C
1507 12-09-2008 19:44:02 15 C 94 % 14.04 C
1508 12-09-2008 19:49:03 14.9 C 95 % 14.11 C
1509 12-09-2008 19:54:03 14.9 C 95 % 14.11 C
1510 12-09-2008 19:59:03 14.9 C 95 % 14.11 C
1511 12-09-2008 20:04:02 15 C 94 % 14.04 C
1512 12-09-2008 20:09:02 14.8 C 95 % 14.01 C
1513 12-09-2008 20:14:02 14.8 C 95 % 14.01 C
1514 12-09-2008 20:19:03 15 C 94 % 14.04 C
1515 12-09-2008 20:24:03 15 C 94 % 14.04 C
1516 12-09-2008 20:29:03 15 C 94 % 14.04 C
1517 12-09-2008 20:34:02 14.8 C 94 % 13.84 C
1518 12-09-2008 20:39:02 14.8 C 94 % 13.84 C
1519 12-09-2008 20:44:02 14.8 C 94 % 13.84 C
1520 12-09-2008 20:49:01 14.8 C 94 % 13.84 C
1521 12-09-2008 20:54:01 14.8 C 94 % 13.84 C
1522 12-09-2008 20:59:01 14.7 C 94 % 13.74 C
1523 12-09-2008 21:04:02 14.6 C 93 % 13.48 C
1524 12-09-2008 21:09:02 14.7 C 93 % 13.58 C
1525 12-09-2008 21:14:02 14.6 C 93 % 13.48 C
Sensor: Nr:Datum:Temp:Feuchte:Taupunkt:
Aussen-T/F 1526 12-09-2008 21:19:01 14.6 C 93 % 13.48 C
1527 12-09-2008 21:24:01 14.6 C 93 % 13.48 C
1528 12-09-2008 21:29:01 14.6 C 93 % 13.48 C
1529 12-09-2008 21:34:02 14.6 C 93 % 13.48 C
1530 12-09-2008 21:39:02 14.5 C 93 % 13.38 C
1531 12-09-2008 21:44:02 14.5 C 93 % 13.38 C
1532 12-09-2008 21:49:02 14.5 C 93 % 13.38 C
1533 12-09-2008 21:54:02 14.5 C 93 % 13.38 C
1534 12-09-2008 21:59:02 14.4 C 93 % 13.28 C
1535 12-09-2008 22:04:02 14.4 C 93 % 13.28 C
1536 12-09-2008 22:09:02 14.4 C 93 % 13.28 C
1537 12-09-2008 22:14:02 14.4 C 93 % 13.28 C
1538 12-09-2008 22:19:02 14.4 C 93 % 13.28 C
1539 12-09-2008 22:24:02 14.4 C 93 % 13.28 C
1540 12-09-2008 22:29:02 14.4 C 93 % 13.28 C
1541 12-09-2008 22:34:02 14.4 C 93 % 13.28 C
1542 12-09-2008 22:39:02 14.3 C 92 % 13.02 C
1543 12-09-2008 22:44:02 14.3 C 93 % 13.18 C
1544 12-09-2008 22:49:02 14.2 C 92 % 12.92 C
1545 12-09-2008 22:54:02 14.2 C 92 % 12.92 C
1546 12-09-2008 22:59:02 14.2 C 92 % 12.92 C
1547 12-09-2008 23:04:02 14.2 C 92 % 12.92 C
1548 12-09-2008 23:09:02 14.2 C 92 % 12.92 C
1549 12-09-2008 23:14:02 14.2 C 92 % 12.92 C
1550 12-09-2008 23:19:02 14.2 C 92 % 12.92 C
Sensor: Nr:Datum:Temp:Feuchte:Taupunkt:
Aussen-T/F 1551 12-09-2008 23:24:02 14.2 C 92 % 12.92 C
1552 12-09-2008 23:29:02 14.2 C 92 % 12.92 C
1553 12-09-2008 23:34:02 14.2 C 92 % 12.92 C
1554 12-09-2008 23:39:02 14.1 C 92 % 12.82 C
1555 12-09-2008 23:44:02 14.1 C 92 % 12.82 C
1556 12-09-2008 23:49:02 14.2 C 92 % 12.92 C
1557 12-09-2008 23:54:02 14.2 C 92 % 12.92 C
1558 12-09-2008 23:59:03 14.2 C 92 % 12.92 C
1559 13-09-2008 00:04:01 14.1 C 91 % 12.65 C
1560 13-09-2008 00:09:01 14.1 C 91 % 12.65 C
1561 13-09-2008 00:14:01 14.1 C 91 % 12.65 C
1562 13-09-2008 00:19:02 14.2 C 91 % 12.75 C
1563 13-09-2008 00:24:02 14.1 C 91 % 12.65 C
1564 13-09-2008 00:29:02 14.1 C 91 % 12.65 C
1565 13-09-2008 00:34:02 14.1 C 91 % 12.65 C
1566 13-09-2008 00:39:02 14.1 C 91 % 12.65 C
1567 13-09-2008 00:44:02 14.1 C 91 % 12.65 C
1568 13-09-2008 00:49:02 14.1 C 91 % 12.65 C
1569 13-09-2008 00:54:02 14.1 C 91 % 12.65 C
1570 13-09-2008 00:59:02 14.1 C 91 % 12.65 C
1571 13-09-2008 01:04:01 14.1 C 91 % 12.65 C
1572 13-09-2008 01:09:01 14.1 C 91 % 12.65 C
1573 13-09-2008 01:14:01 14.1 C 91 % 12.65 C
1574 13-09-2008 01:19:02 14.1 C 91 % 12.65 C
1575 13-09-2008 01:24:02 14.1 C 91 % 12.65 C
Sensor: Nr:Datum:Temp:Feuchte:Taupunkt:
Aussen-T/F 1576 13-09-2008 01:29:02 14.2 C 91 % 12.75 C
1577 13-09-2008 01:34:01 14.2 C 91 % 12.75 C
1578 13-09-2008 01:39:01 14.2 C 91 % 12.75 C
1579 13-09-2008 01:44:01 14.1 C 91 % 12.65 C
1580 13-09-2008 01:49:01 14.1 C 91 % 12.65 C
1581 13-09-2008 01:54:01 14.1 C 90 % 12.49 C
1582 13-09-2008 01:59:01 14 C 90 % 12.39 C
1583 13-09-2008 02:04:02 13.9 C 91 % 12.46 C
1584 13-09-2008 02:09:02 13.9 C 91 % 12.46 C
1585 13-09-2008 02:14:02 13.9 C 91 % 12.46 C
1586 13-09-2008 02:19:01 13.8 C 91 % 12.36 C
1587 13-09-2008 02:24:01 13.9 C 91 % 12.46 C
1588 13-09-2008 02:29:01 13.9 C 92 % 12.62 C
1589 13-09-2008 02:34:02 13.8 C 92 % 12.52 C
1590 13-09-2008 02:39:02 13.8 C 92 % 12.52 C
1591 13-09-2008 02:44:02 13.8 C 92 % 12.52 C
1592 13-09-2008 02:50:04 13.7 C 93 % 12.59 C
1593 13-09-2008 02:55:05 13.7 C 93 % 12.59 C
1594 13-09-2008 03:00:05 13.7 C 93 % 12.59 C
1595 13-09-2008 03:05:05 13.7 C 93 % 12.59 C
1596 13-09-2008 03:10:03 13.7 C 93 % 12.59 C
1597 13-09-2008 03:15:03 13.7 C 93 % 12.59 C
1598 13-09-2008 03:20:03 13.7 C 94 % 12.75 C
1599 13-09-2008 03:25:03 13.7 C 94 % 12.75 C
1600 13-09-2008 03:30:03 13.7 C 94 % 12.75 C
Sensor: Nr:Datum:Temp:Feuchte:Taupunkt:
Aussen-T/F 1601 13-09-2008 03:35:01 13.7 C 94 % 12.75 C
1602 13-09-2008 03:40:01 13.7 C 94 % 12.75 C
1603 13-09-2008 03:45:01 13.7 C 94 % 12.75 C
1604 13-09-2008 03:50:01 13.7 C 94 % 12.75 C
1605 13-09-2008 03:55:01 13.6 C 94 % 12.65 C
1606 13-09-2008 04:00:01 13.7 C 94 % 12.75 C
1607 13-09-2008 04:05:02 13.6 C 94 % 12.65 C
1608 13-09-2008 04:10:02 13.7 C 94 % 12.75 C
1609 13-09-2008 04:15:02 13.7 C 94 % 12.75 C
1610 13-09-2008 04:20:02 13.7 C 94 % 12.75 C
1611 13-09-2008 04:25:02 13.8 C 94 % 12.85 C
1612 13-09-2008 04:30:02 13.8 C 94 % 12.85 C
1613 13-09-2008 04:35:02 13.9 C 94 % 12.95 C
1614 13-09-2008 04:40:02 13.9 C 94 % 12.95 C
1615 13-09-2008 04:45:02 13.9 C 94 % 12.95 C
1616 13-09-2008 04:50:02 14 C 94 % 13.05 C
1617 13-09-2008 04:55:02 13.9 C 94 % 12.95 C
1618 13-09-2008 05:00:02 13.9 C 94 % 12.95 C
1619 13-09-2008 05:05:01 13.9 C 94 % 12.95 C
1620 13-09-2008 05:10:01 13.8 C 94 % 12.85 C
1621 13-09-2008 05:15:02 13.8 C 94 % 12.85 C
1622 13-09-2008 05:20:02 13.9 C 94 % 12.95 C
1623 13-09-2008 05:25:02 13.7 C 94 % 12.75 C
1624 13-09-2008 05:30:02 13.7 C 94 % 12.75 C
1625 13-09-2008 05:35:01 13.6 C 94 % 12.65 C
Sensor: Nr:Datum:Temp:Feuchte:Taupunkt:
Aussen-T/F 1626 13-09-2008 05:40:01 13.6 C 94 % 12.65 C
1627 13-09-2008 05:45:02 13.6 C 93 % 12.49 C
1628 13-09-2008 05:50:02 13.6 C 93 % 12.49 C
1629 13-09-2008 05:55:02 13.6 C 93 % 12.49 C
1630 13-09-2008 06:00:02 13.6 C 93 % 12.49 C
1631 13-09-2008 06:05:01 13.5 C 93 % 12.39 C
1632 13-09-2008 06:10:01 13.5 C 93 % 12.39 C
1633 13-09-2008 06:15:01 13.5 C 93 % 12.39 C
1634 13-09-2008 06:20:01 13.5 C 93 % 12.39 C
1635 13-09-2008 06:25:01 13.6 C 93 % 12.49 C
1636 13-09-2008 06:30:01 13.5 C 93 % 12.39 C
1637 13-09-2008 06:35:01 13.5 C 94 % 12.55 C
1638 13-09-2008 06:40:02 13.6 C 94 % 12.65 C
1639 13-09-2008 06:45:02 13.5 C 94 % 12.55 C
1640 13-09-2008 06:50:02 13.6 C 94 % 12.65 C
1641 13-09-2008 06:55:02 13.5 C 94 % 12.55 C
1642 13-09-2008 07:00:02 13.6 C 94 % 12.65 C
1643 13-09-2008 07:05:01 13.5 C 94 % 12.55 C
1644 13-09-2008 07:10:01 13.5 C 94 % 12.55 C
1645 13-09-2008 07:15:02 13.5 C 94 % 12.55 C
1646 13-09-2008 07:20:02 13.5 C 95 % 12.72 C
1647 13-09-2008 07:25:02 13.5 C 95 % 12.72 C
1648 13-09-2008 07:30:03 13.5 C 95 % 12.72 C
1649 13-09-2008 07:35:01 13.6 C 95 % 12.81 C
1650 13-09-2008 07:40:01 13.6 C 95 % 12.81 C
Sensor: Nr:Datum:Temp:Feuchte:Taupunkt:
Aussen-T/F 1651 13-09-2008 07:45:02 13.6 C 95 % 12.81 C
1652 13-09-2008 07:50:02 13.7 C 95 % 12.91 C
1653 13-09-2008 07:55:02 13.7 C 95 % 12.91 C
1654 13-09-2008 08:00:02 13.7 C 95 % 12.91 C
1655 13-09-2008 08:05:01 13.7 C 95 % 12.91 C
1656 13-09-2008 08:10:01 13.7 C 95 % 12.91 C
1657 13-09-2008 08:15:01 13.7 C 95 % 12.91 C
1658 13-09-2008 08:20:01 13.8 C 95 % 13.01 C
1659 13-09-2008 08:25:01 13.8 C 95 % 13.01 C
1660 13-09-2008 08:30:01 13.7 C 95 % 12.91 C
1661 13-09-2008 08:35:01 13.6 C 95 % 12.81 C
1662 13-09-2008 08:40:01 13.5 C 95 % 12.72 C
1663 13-09-2008 08:45:01 13.4 C 95 % 12.62 C
1664 13-09-2008 08:50:01 13.4 C 95 % 12.62 C
1665 13-09-2008 08:55:01 13.4 C 95 % 12.62 C
1666 13-09-2008 09:00:01 13.4 C 95 % 12.62 C
1667 13-09-2008 09:05:02 13.4 C 95 % 12.62 C
1668 13-09-2008 09:10:02 13.4 C 95 % 12.62 C
1669 13-09-2008 09:15:01 13.3 C 95 % 12.52 C
1670 13-09-2008 09:20:01 13.3 C 95 % 12.52 C
1671 13-09-2008 09:25:01 13.1 C 95 % 12.32 C
1672 13-09-2008 09:30:01 13.1 C 95 % 12.32 C
1673 13-09-2008 09:35:01 13.1 C 95 % 12.32 C
1674 13-09-2008 09:40:01 13 C 95 % 12.22 C
1675 13-09-2008 09:45:02 13 C 95 % 12.22 C
Sensor: Nr:Datum:Temp:Feuchte:Taupunkt:
Aussen-T/F 1676 13-09-2008 09:50:02 13 C 95 % 12.22 C
1677 13-09-2008 09:55:02 13 C 95 % 12.22 C
1678 13-09-2008 10:00:02 12.9 C 95 % 12.12 C
1679 13-09-2008 10:05:02 13 C 95 % 12.22 C
1680 13-09-2008 10:10:02 13 C 95 % 12.22 C
1681 13-09-2008 10:15:02 13.1 C 95 % 12.32 C
1682 13-09-2008 10:20:02 13.1 C 95 % 12.32 C
1683 13-09-2008 10:25:02 13.1 C 95 % 12.32 C
1684 13-09-2008 10:30:02 13.1 C 95 % 12.32 C
1685 13-09-2008 10:35:02 13 C 95 % 12.22 C
1686 13-09-2008 10:40:02 12.9 C 95 % 12.12 C
1687 13-09-2008 10:45:02 12.8 C 95 % 12.02 C
1688 13-09-2008 10:50:02 12.8 C 95 % 12.02 C
1689 13-09-2008 10:55:02 12.8 C 95 % 12.02 C
1690 13-09-2008 11:00:02 12.7 C 95 % 11.92 C
1691 13-09-2008 11:05:02 12.5 C 95 % 11.72 C
1692 13-09-2008 11:10:02 12.5 C 95 % 11.72 C
1693 13-09-2008 11:15:02 12.5 C 95 % 11.72 C
1694 13-09-2008 11:20:02 12.5 C 95 % 11.72 C
1695 13-09-2008 11:25:02 12.5 C 95 % 11.72 C
1696 13-09-2008 11:30:02 12.3 C 95 % 11.52 C
1697 13-09-2008 11:35:02 12.3 C 95 % 11.52 C
1698 13-09-2008 11:40:02 12.4 C 95 % 11.62 C
1699 13-09-2008 11:45:02 12.2 C 95 % 11.42 C
1700 13-09-2008 11:50:02 12.2 C 95 % 11.42 C
Sensor: Nr:Datum:Temp:Feuchte:Taupunkt:
Aussen-T/F 1701 13-09-2008 11:55:02 12.2 C 95 % 11.42 C
1702 13-09-2008 12:00:02 12.3 C 95 % 11.52 C
1703 13-09-2008 12:05:01 12.3 C 95 % 11.52 C
1704 13-09-2008 12:10:01 12.2 C 95 % 11.42 C
1705 13-09-2008 12:15:02 12.2 C 95 % 11.42 C
1706 13-09-2008 12:20:02 12.2 C 95 % 11.42 C
1707 13-09-2008 12:25:02 12.2 C 95 % 11.42 C
1708 13-09-2008 12:30:02 12.1 C 95 % 11.32 C
1709 13-09-2008 12:35:01 12 C 95 % 11.22 C
1710 13-09-2008 12:40:01 12 C 95 % 11.22 C
1711 13-09-2008 12:45:01 11.9 C 95 % 11.13 C
1712 13-09-2008 12:50:01 11.9 C 95 % 11.13 C
1713 13-09-2008 12:55:01 11.9 C 95 % 11.13 C
1714 13-09-2008 13:00:01 12 C 95 % 11.22 C
1715 13-09-2008 13:05:02 11.9 C 95 % 11.13 C
1716 13-09-2008 13:10:02 11.9 C 95 % 11.13 C
1717 13-09-2008 13:15:01 11.9 C 95 % 11.13 C
1718 13-09-2008 13:20:01 11.9 C 95 % 11.13 C
1719 13-09-2008 13:25:01 12 C 94 % 11.07 C
1720 13-09-2008 13:30:01 12 C 94 % 11.07 C
1721 13-09-2008 13:35:02 11.7 C 95 % 10.93 C
1722 13-09-2008 13:40:02 11.7 C 95 % 10.93 C
1723 13-09-2008 13:45:02 11.7 C 95 % 10.93 C
1724 13-09-2008 13:50:02 11.7 C 95 % 10.93 C
1725 13-09-2008 13:55:03 11.6 C 94 % 10.67 C
Sensor: Nr:Datum:Temp:Feuchte:Taupunkt:
Aussen-T/F 1726 13-09-2008 14:00:03 11.6 C 94 % 10.67 C
1727 13-09-2008 14:05:02 11.8 C 94 % 10.87 C
1728 13-09-2008 14:10:02 11.9 C 94 % 10.97 C
1729 13-09-2008 14:15:02 11.9 C 94 % 10.97 C
1730 13-09-2008 14:20:02 12 C 94 % 11.07 C
1731 13-09-2008 14:25:02 12.1 C 94 % 11.16 C
1732 13-09-2008 14:30:02 12.1 C 93 % 11 C
1733 13-09-2008 14:35:02 12.1 C 93 % 11 C
1734 13-09-2008 14:40:02 12.1 C 93 % 11 C
1735 13-09-2008 14:45:01 12.2 C 93 % 11.1 C
1736 13-09-2008 14:50:01 12.3 C 93 % 11.2 C
1737 13-09-2008 14:55:01 12.5 C 93 % 11.4 C
1738 13-09-2008 15:00:01 12.8 C 92 % 11.53 C
1739 13-09-2008 15:05:02 13 C 92 % 11.73 C
1740 13-09-2008 15:10:02 13.5 C 92 % 12.23 C
1741 13-09-2008 15:15:02 13.7 C 91 % 12.26 C
1742 13-09-2008 15:20:02 13.9 C 91 % 12.46 C
1743 13-09-2008 15:25:02 14 C 90 % 12.39 C
1744 13-09-2008 15:30:02 14.3 C 90 % 12.68 C
1745 13-09-2008 15:35:02 14.4 C 90 % 12.78 C
1746 13-09-2008 15:40:02 14.4 C 89 % 12.61 C
1747 13-09-2008 15:45:02 14.4 C 89 % 12.61 C
1748 13-09-2008 15:50:02 14.5 C 89 % 12.71 C
1749 13-09-2008 15:55:02 14.5 C 89 % 12.71 C
1750 13-09-2008 16:00:03 14.8 C 88 % 12.83 C
Sensor: Nr:Datum:Temp:Feuchte:Taupunkt:
Aussen-T/F 1751 13-09-2008 16:05:02 14.9 C 87 % 12.76 C
1752 13-09-2008 16:10:02 15.1 C 85 % 12.6 C
1753 13-09-2008 16:15:02 15 C 83 % 12.14 C
1754 13-09-2008 16:20:03 14.7 C 83 % 11.85 C
1755 13-09-2008 16:25:03 15 C 82 % 11.95 C
1756 13-09-2008 16:30:03 15 C 81 % 11.77 C
1757 13-09-2008 16:35:02 15 C 81 % 11.77 C
1758 13-09-2008 16:40:02 15 C 81 % 11.77 C
1759 13-09-2008 16:45:03 14.9 C 82 % 11.86 C
1760 13-09-2008 16:50:03 14.8 C 83 % 11.94 C
1761 13-09-2008 16:55:03 14.9 C 83 % 12.04 C
1762 13-09-2008 17:00:03 14.9 C 83 % 12.04 C
1763 13-09-2008 17:05:02 14.8 C 82 % 11.76 C
1764 13-09-2008 17:10:02 14.7 C 82 % 11.66 C
1765 13-09-2008 17:15:02 14.6 C 82 % 11.56 C
1766 13-09-2008 17:20:02 14.4 C 82 % 11.37 C
1767 13-09-2008 17:25:02 14.3 C 82 % 11.27 C
1768 13-09-2008 17:30:02 14.3 C 81 % 11.09 C
1769 13-09-2008 17:35:03 14.3 C 81 % 11.09 C
1770 13-09-2008 17:40:03 14.2 C 81 % 10.99 C
1771 13-09-2008 17:45:02 14.2 C 82 % 11.17 C
1772 13-09-2008 17:50:02 14.1 C 82 % 11.08 C
1773 13-09-2008 17:55:02 14 C 82 % 10.98 C
1774 13-09-2008 18:00:03 13.9 C 83 % 11.06 C
1775 13-09-2008 18:05:01 13.8 C 82 % 10.78 C
Sensor: Nr:Datum:Temp:Feuchte:Taupunkt:
Aussen-T/F 1776 13-09-2008 18:10:01 13.7 C 82 % 10.69 C
1777 13-09-2008 18:15:02 13.5 C 82 % 10.49 C
1778 13-09-2008 18:20:03 13.4 C 83 % 10.57 C
1779 13-09-2008 18:25:03 13.4 C 83 % 10.57 C
1780 13-09-2008 18:30:03 13.2 C 84 % 10.56 C
1781 13-09-2008 18:35:02 13.1 C 84 % 10.46 C
1782 13-09-2008 18:40:02 13 C 85 % 10.54 C
1783 13-09-2008 18:45:01 12.9 C 86 % 10.62 C
1784 13-09-2008 18:50:01 12.9 C 86 % 10.62 C
1785 13-09-2008 18:55:01 12.9 C 86 % 10.62 C
1786 13-09-2008 19:00:01 12.8 C 87 % 10.69 C
1787 13-09-2008 19:05:02 12.8 C 87 % 10.69 C
1788 13-09-2008 19:10:02 12.7 C 87 % 10.59 C
1789 13-09-2008 19:15:01 12.5 C 87 % 10.4 C
1790 13-09-2008 19:20:01 12.4 C 86 % 10.13 C
1791 13-09-2008 19:25:01 12.1 C 86 % 9.83 C
1792 13-09-2008 19:30:01 12.1 C 86 % 9.83 C
1793 13-09-2008 19:35:02 11.8 C 86 % 9.54 C
1794 13-09-2008 19:40:02 11.7 C 87 % 9.61 C
1795 13-09-2008 19:45:02 11.6 C 87 % 9.51 C
1796 13-09-2008 19:50:02 11.4 C 87 % 9.32 C
1797 13-09-2008 19:55:02 11.2 C 87 % 9.12 C
1798 13-09-2008 20:00:02 11.2 C 87 % 9.12 C
1799 13-09-2008 20:05:02 11 C 87 % 8.92 C
1800 13-09-2008 20:10:02 10.8 C 88 % 8.89 C
Sensor: Nr:Datum:Temp:Feuchte:Taupunkt:
Aussen-T/F 1801 13-09-2008 20:15:02 10.7 C 88 % 8.8 C
1802 13-09-2008 20:20:02 10.6 C 88 % 8.7 C
1803 13-09-2008 20:25:03 10.4 C 88 % 8.5 C
1804 13-09-2008 20:30:03 10.2 C 88 % 8.3 C
1805 13-09-2008 20:35:02 10.1 C 88 % 8.21 C
1806 13-09-2008 20:40:02 10 C 88 % 8.11 C
1807 13-09-2008 20:45:03 9.9 C 89 % 8.17 C
1808 13-09-2008 20:50:03 9.9 C 89 % 8.17 C
1809 13-09-2008 20:55:03 9.7 C 89 % 7.98 C
1810 13-09-2008 21:00:03 9.6 C 88 % 7.71 C
1811 13-09-2008 21:05:02 9.6 C 88 % 7.71 C
1812 13-09-2008 21:10:02 9.5 C 88 % 7.61 C
1813 13-09-2008 21:15:02 9.4 C 88 % 7.52 C
1814 13-09-2008 21:20:02 9.4 C 88 % 7.52 C
1815 13-09-2008 21:25:02 9.2 C 88 % 7.32 C
1816 13-09-2008 21:30:02 9.2 C 88 % 7.32 C
1817 13-09-2008 21:35:02 9.1 C 88 % 7.22 C
1818 13-09-2008 21:40:02 9 C 88 % 7.12 C
1819 13-09-2008 21:45:02 8.9 C 89 % 7.19 C
1820 13-09-2008 21:50:02 8.8 C 89 % 7.09 C
1821 13-09-2008 21:55:02 8.8 C 89 % 7.09 C
1822 13-09-2008 22:00:02 8.7 C 89 % 6.99 C
1823 13-09-2008 22:05:01 8.6 C 89 % 6.89 C
1824 13-09-2008 22:10:01 8.6 C 89 % 6.89 C
1825 13-09-2008 22:15:02 8.5 C 89 % 6.79 C
Sensor: Nr:Datum:Temp:Feuchte:Taupunkt:
Aussen-T/F 1826 13-09-2008 22:20:02 8.5 C 88 % 6.63 C
1827 13-09-2008 22:25:03 8.5 C 88 % 6.63 C
1828 13-09-2008 22:30:03 8.5 C 88 % 6.63 C
1829 13-09-2008 22:35:01 8.5 C 87 % 6.46 C
1830 13-09-2008 22:40:01 8.4 C 87 % 6.37 C
1831 13-09-2008 22:45:02 8.4 C 86 % 6.2 C
1832 13-09-2008 22:50:02 8.5 C 85 % 6.13 C
1833 13-09-2008 22:55:02 8.4 C 84 % 5.86 C
1834 13-09-2008 23:00:02 8.4 C 84 % 5.86 C
1835 13-09-2008 23:06:01 8.4 C 83 % 5.69 C
1836 13-09-2008 23:11:01 8.4 C 82 % 5.51 C
1837 13-09-2008 23:16:01 8.3 C 82 % 5.41 C
1838 13-09-2008 23:21:01 8.2 C 82 % 5.32 C
1839 13-09-2008 23:26:01 8.1 C 82 % 5.22 C
1840 13-09-2008 23:31:01 8.1 C 82 % 5.22 C
1841 13-09-2008 23:36:01 8.1 C 82 % 5.22 C
1842 13-09-2008 23:41:01 8.1 C 82 % 5.22 C
1843 13-09-2008 23:46:01 8 C 82 % 5.12 C
1844 13-09-2008 23:51:01 8 C 82 % 5.12 C
1845 13-09-2008 23:56:02 7.9 C 83 % 5.2 C
1846 14-09-2008 00:01:02 8 C 82 % 5.12 C
1847 14-09-2008 00:06:02 8 C 81 % 4.94 C
1848 14-09-2008 00:11:02 7.9 C 82 % 5.02 C
1849 14-09-2008 00:16:02 8 C 81 % 4.94 C
1850 14-09-2008 00:21:02 8 C 80 % 4.77 C
Sensor: Nr:Datum:Temp:Feuchte:Taupunkt:
Aussen-T/F 1851 14-09-2008 00:26:02 8 C 79 % 4.59 C
1852 14-09-2008 00:31:02 8.1 C 79 % 4.68 C
1853 14-09-2008 00:36:02 8.1 C 78 % 4.5 C
1854 14-09-2008 00:41:02 8.2 C 78 % 4.6 C
1855 14-09-2008 00:46:02 8.2 C 76 % 4.23 C
1856 14-09-2008 00:51:02 8.2 C 76 % 4.23 C
1857 14-09-2008 00:56:02 8.2 C 76 % 4.23 C
1858 14-09-2008 01:01:02 8.2 C 75 % 4.04 C
1859 14-09-2008 01:06:02 8.2 C 74 % 3.85 C
1860 14-09-2008 01:11:02 8.1 C 74 % 3.75 C
1861 14-09-2008 01:16:02 8.1 C 74 % 3.75 C
1862 14-09-2008 01:21:02 8.1 C 75 % 3.94 C
1863 14-09-2008 01:26:02 8.1 C 75 % 3.94 C
1864 14-09-2008 01:31:02 8.1 C 75 % 3.94 C
1865 14-09-2008 01:36:03 8.1 C 75 % 3.94 C
1866 14-09-2008 01:41:03 8.3 C 74 % 3.95 C
1867 14-09-2008 01:46:03 8.3 C 73 % 3.75 C
1868 14-09-2008 01:51:03 8.4 C 73 % 3.85 C
1869 14-09-2008 01:56:03 8.4 C 73 % 3.85 C
1870 14-09-2008 02:01:03 8.4 C 73 % 3.85 C
1871 14-09-2008 02:06:03 8.5 C 73 % 3.95 C
1872 14-09-2008 02:11:03 8.4 C 73 % 3.85 C
1873 14-09-2008 02:16:03 8.4 C 73 % 3.85 C
1874 14-09-2008 02:21:03 8.4 C 74 % 4.04 C
1875 14-09-2008 02:26:03 8.3 C 73 % 3.75 C
Sensor: Nr:Datum:Temp:Feuchte:Taupunkt:
Aussen-T/F 1876 14-09-2008 02:31:03 8.2 C 74 % 3.85 C
1877 14-09-2008 02:36:03 8.2 C 74 % 3.85 C
1878 14-09-2008 02:41:03 8.2 C 73 % 3.66 C
1879 14-09-2008 02:46:03 8.2 C 73 % 3.66 C
1880 14-09-2008 02:51:03 8.2 C 73 % 3.66 C
1881 14-09-2008 02:56:03 8.5 C 71 % 3.55 C
1882 14-09-2008 03:01:03 8.4 C 71 % 3.46 C
1883 14-09-2008 03:06:03 8.5 C 70 % 3.35 C
1884 14-09-2008 03:11:03 8.4 C 71 % 3.46 C
1885 14-09-2008 03:16:04 8.3 C 72 % 3.56 C
1886 14-09-2008 03:21:04 8.3 C 71 % 3.36 C
1887 14-09-2008 03:26:04 8.2 C 72 % 3.46 C
1888 14-09-2008 03:31:04 8.2 C 72 % 3.46 C
1889 14-09-2008 03:36:04 8.2 C 72 % 3.46 C
1890 14-09-2008 03:41:04 8 C 73 % 3.46 C
1891 14-09-2008 03:46:04 8 C 73 % 3.46 C
1892 14-09-2008 03:51:04 8 C 73 % 3.46 C
1893 14-09-2008 03:56:04 8 C 73 % 3.46 C
1894 14-09-2008 04:01:04 7.9 C 74 % 3.56 C
1895 14-09-2008 04:06:04 7.8 C 74 % 3.46 C
1896 14-09-2008 04:11:04 7.7 C 75 % 3.56 C
1897 14-09-2008 04:16:04 7.5 C 76 % 3.55 C
1898 14-09-2008 04:21:04 7.4 C 77 % 3.64 C
1899 14-09-2008 04:26:04 7.3 C 77 % 3.54 C
1900 14-09-2008 04:31:04 7.2 C 78 % 3.63 C
Sensor: Nr:Datum:Temp:Feuchte:Taupunkt:
Aussen-T/F 1901 14-09-2008 04:36:04 7.2 C 78 % 3.63 C
1902 14-09-2008 04:41:04 7.1 C 78 % 3.53 C
1903 14-09-2008 04:46:04 7 C 79 % 3.61 C
1904 14-09-2008 04:51:05 7.1 C 79 % 3.71 C
1905 14-09-2008 04:56:05 7.1 C 79 % 3.71 C
1906 14-09-2008 05:01:05 7.3 C 78 % 3.73 C
1907 14-09-2008 05:06:05 7.3 C 78 % 3.73 C
1908 14-09-2008 05:11:05 7.7 C 78 % 4.11 C
1909 14-09-2008 05:16:05 7.3 C 77 % 3.54 C
1910 14-09-2008 05:21:05 7.1 C 77 % 3.35 C
1911 14-09-2008 05:26:05 7.1 C 78 % 3.53 C
1912 14-09-2008 05:31:05 7.1 C 77 % 3.35 C
1913 14-09-2008 05:36:05 6.9 C 78 % 3.34 C
1914 14-09-2008 05:41:05 6.9 C 79 % 3.52 C
1915 14-09-2008 05:46:05 6.8 C 80 % 3.6 C
1916 14-09-2008 05:51:05 6.8 C 80 % 3.6 C
1917 14-09-2008 05:56:05 6.8 C 80 % 3.6 C
1918 14-09-2008 06:01:05 6.8 C 81 % 3.77 C
1919 14-09-2008 06:06:05 6.8 C 80 % 3.6 C
1920 14-09-2008 06:11:05 6.8 C 81 % 3.77 C
1921 14-09-2008 06:16:05 6.7 C 81 % 3.68 C
1922 14-09-2008 06:21:05 6.7 C 81 % 3.68 C
1923 14-09-2008 06:26:06 6.8 C 80 % 3.6 C
1924 14-09-2008 06:31:06 6.8 C 79 % 3.42 C
1925 14-09-2008 06:36:06 6.8 C 78 % 3.24 C
Sensor: Nr:Datum:Temp:Feuchte:Taupunkt:
Aussen-T/F 1926 14-09-2008 06:41:06 6.7 C 78 % 3.14 C
1927 14-09-2008 06:46:06 6.6 C 79 % 3.23 C
1928 14-09-2008 06:51:06 6.5 C 80 % 3.31 C
1929 14-09-2008 06:56:06 6.4 C 80 % 3.21 C
1930 14-09-2008 07:01:02 6.4 C 80 % 3.21 C
1931 14-09-2008 07:06:02 6.2 C 81 % 3.19 C
1932 14-09-2008 07:11:02 6 C 81 % 2.99 C
1933 14-09-2008 07:16:02 5.9 C 83 % 3.24 C
1934 14-09-2008 07:21:02 5.8 C 83 % 3.14 C
1935 14-09-2008 07:26:02 5.8 C 83 % 3.14 C
1936 14-09-2008 07:31:01 5.8 C 84 % 3.31 C
1937 14-09-2008 07:36:01 5.8 C 84 % 3.31 C
1938 14-09-2008 07:41:01 5.7 C 84 % 3.21 C
1939 14-09-2008 07:46:02 5.8 C 85 % 3.48 C
1940 14-09-2008 07:51:02 5.8 C 85 % 3.48 C
1941 14-09-2008 07:56:02 5.8 C 85 % 3.48 C
1942 14-09-2008 08:01:02 5.8 C 85 % 3.48 C
1943 14-09-2008 08:06:02 5.7 C 85 % 3.38 C
1944 14-09-2008 08:11:02 5.7 C 86 % 3.55 C
1945 14-09-2008 08:16:01 5.8 C 86 % 3.64 C
1946 14-09-2008 08:21:01 5.9 C 86 % 3.74 C
1947 14-09-2008 08:26:01 5.9 C 86 % 3.74 C
1948 14-09-2008 08:31:02 5.9 C 87 % 3.91 C
1949 14-09-2008 08:36:03 5.9 C 87 % 3.91 C
1950 14-09-2008 08:41:03 5.9 C 87 % 3.91 C
Sensor: Nr:Datum:Temp:Feuchte:Taupunkt:
Aussen-T/F 1951 14-09-2008 08:46:02 6 C 86 % 3.84 C
1952 14-09-2008 08:51:02 6.2 C 87 % 4.2 C
1953 14-09-2008 08:56:02 6.2 C 87 % 4.2 C
1954 14-09-2008 09:01:02 6.3 C 87 % 4.3 C
1955 14-09-2008 09:06:02 6.4 C 87 % 4.4 C
1956 14-09-2008 09:11:02 6.6 C 88 % 4.76 C
1957 14-09-2008 09:16:02 6.7 C 88 % 4.86 C
1958 14-09-2008 09:21:02 6.8 C 87 % 4.79 C
1959 14-09-2008 09:26:03 7 C 86 % 4.82 C
1960 14-09-2008 09:31:01 7.1 C 86 % 4.92 C
1961 14-09-2008 09:36:01 7.3 C 86 % 5.12 C
1962 14-09-2008 09:41:01 7.6 C 85 % 5.24 C
1963 14-09-2008 09:46:02 7.6 C 85 % 5.24 C
1964 14-09-2008 09:51:02 7.7 C 85 % 5.34 C
1965 14-09-2008 09:56:02 8.1 C 83 % 5.39 C
1966 14-09-2008 10:01:02 8.4 C 83 % 5.69 C
1967 14-09-2008 10:06:02 8.5 C 83 % 5.78 C
1968 14-09-2008 10:11:02 8.8 C 82 % 5.9 C
1969 14-09-2008 10:16:01 9.2 C 79 % 5.75 C
1970 14-09-2008 10:21:01 9.4 C 78 % 5.76 C
1971 14-09-2008 10:26:01 9.6 C 76 % 5.58 C
1972 14-09-2008 10:31:02 9.8 C 75 % 5.59 C
1973 14-09-2008 10:36:02 10 C 73 % 5.39 C
1974 14-09-2008 10:41:03 10.3 C 70 % 5.08 C
1975 14-09-2008 10:46:02 10.7 C 66 % 4.62 C
Sensor: Nr:Datum:Temp:Feuchte:Taupunkt:
Aussen-T/F 1976 14-09-2008 10:51:02 10.9 C 66 % 4.81 C
1977 14-09-2008 10:56:02 11.1 C 62 % 4.11 C
1978 14-09-2008 11:01:03 11.4 C 60 % 3.92 C
1979 14-09-2008 11:06:03 11.8 C 58 % 3.82 C
1980 14-09-2008 11:11:03 12 C 58 % 4 C
1981 14-09-2008 11:16:02 12.2 C 51 % 2.37 C
1982 14-09-2008 11:21:02 12.5 C 50 % 2.37 C
1983 14-09-2008 11:26:03 12.6 C 49 % 2.18 C
1984 14-09-2008 11:31:02 12.8 C 50 % 2.65 C
1985 14-09-2008 11:36:02 13.1 C 47 % 2.06 C
1986 14-09-2008 11:41:02 13.2 C 47 % 2.15 C
1987 14-09-2008 11:46:02 13.6 C 46 % 2.21 C
1988 14-09-2008 11:51:02 13.7 C 43 % 1.36 C
1989 14-09-2008 11:56:02 13.7 C 43 % 1.36 C
1990 14-09-2008 12:01:02 14.1 C 40 % 0.72 C
1991 14-09-2008 12:06:02 14.3 C 39 % 0.55 C
1992 14-09-2008 12:11:02 14.4 C 38 % 0.28 C
1993 14-09-2008 12:16:02 14.5 C 37 % 0 C
1994 14-09-2008 12:21:02 14.7 C 38 % 0.55 C
1995 14-09-2008 12:26:02 14.6 C 37 % 0.09 C
1996 14-09-2008 12:31:02 14.6 C 37 % 0.09 C
1997 14-09-2008 12:36:02 14.2 C 37 % -0.26 C
1998 14-09-2008 12:41:02 14.2 C 40 % 0.81 C
1999 14-09-2008 12:46:02 14.4 C 38 % 0.28 C
2000 14-09-2008 12:51:02 14.9 C 37 % 0.36 C
Sensor: Nr:Datum:Temp:Feuchte:Taupunkt:
Aussen-T/F 2001 14-09-2008 12:56:02 15.3 C 37 % 0.71 C
2002 14-09-2008 13:01:01 15.8 C 35 % 0.39 C
2003 14-09-2008 13:06:01 16 C 35 % 0.56 C
2004 14-09-2008 13:11:01 16.4 C 36 % 1.31 C
2005 14-09-2008 13:16:02 16.1 C 35 % 0.65 C
2006 14-09-2008 13:21:02 15.9 C 35 % 0.48 C
2007 14-09-2008 13:26:02 15.5 C 36 % 0.51 C
2008 14-09-2008 13:31:01 15.2 C 36 % 0.25 C
2009 14-09-2008 13:36:01 15.1 C 36 % 0.16 C
2010 14-09-2008 13:41:01 15.8 C 38 % 1.53 C
2011 14-09-2008 13:46:01 16.3 C 35 % 0.83 C
2012 14-09-2008 13:51:01 16.5 C 36 % 1.4 C
2013 14-09-2008 13:56:01 16.9 C 33 % 0.54 C
2014 14-09-2008 14:01:02 17.4 C 32 % 0.56 C
2015 14-09-2008 14:06:03 17 C 32 % 0.21 C
2016 14-09-2008 14:11:03 16.8 C 32 % 0.03 C
2017 14-09-2008 14:16:01 17.5 C 33 % 1.07 C
2018 14-09-2008 14:21:01 18.3 C 31 % 0.9 C
2019 14-09-2008 14:26:01 18.6 C 29 % 0.24 C
2020 14-09-2008 14:31:02 18.9 C 30 % 0.97 C
2021 14-09-2008 14:36:02 19.1 C 30 % 1.14 C
2022 14-09-2008 14:41:02 19.4 C 30 % 1.4 C
2023 14-09-2008 14:46:01 19.6 C 27 % 0.11 C
2024 14-09-2008 14:51:01 19.5 C 27 % 0.03 C
2025 14-09-2008 14:56:01 19.3 C 29 % 0.84 C
Sensor: Nr:Datum:Temp:Feuchte:Taupunkt:
Aussen-T/F 2026 14-09-2008 15:01:02 19.3 C 28 % 0.36 C
2027 14-09-2008 15:06:02 19.3 C 29 % 0.84 C
2028 14-09-2008 15:11:02 19.1 C 27 % -0.31 C
2029 14-09-2008 15:16:02 19 C 29 % 0.58 C
2030 14-09-2008 15:21:02 19 C 29 % 0.58 C
2031 14-09-2008 15:26:02 18.7 C 29 % 0.32 C
2032 14-09-2008 15:31:01 18.5 C 30 % 0.62 C
2033 14-09-2008 15:36:01 18.5 C 31 % 1.07 C
2034 14-09-2008 15:41:01 18.2 C 31 % 0.81 C
2035 14-09-2008 15:46:02 18.1 C 31 % 0.73 C
2036 14-09-2008 15:51:02 17.9 C 32 % 0.99 C
2037 14-09-2008 15:56:02 17.8 C 33 % 1.33 C
2038 14-09-2008 16:01:02 18.1 C 34 % 2.01 C
2039 14-09-2008 16:06:02 18.5 C 33 % 1.94 C
2040 14-09-2008 16:11:02 19.1 C 30 % 1.14 C
2041 14-09-2008 16:16:02 18.8 C 30 % 0.88 C
2042 14-09-2008 16:21:02 18.9 C 30 % 0.97 C
2043 14-09-2008 16:26:02 18.7 C 30 % 0.79 C
2044 14-09-2008 16:31:01 18.6 C 30 % 0.71 C
2045 14-09-2008 16:36:01 18.5 C 30 % 0.62 C
2046 14-09-2008 16:41:01 19 C 30 % 1.05 C
2047 14-09-2008 16:46:02 20 C 29 % 1.44 C
2048 14-09-2008 16:51:02 20 C 28 % 0.96 C
2049 14-09-2008 16:56:02 20.3 C 27 % 0.71 C
2050 14-09-2008 17:01:02 21.3 C 25 % 0.5 C
Sensor: Nr:Datum:Temp:Feuchte:Taupunkt:
Aussen-T/F 2051 14-09-2008 17:06:02 20.6 C 25 % -0.09 C
2052 14-09-2008 17:11:02 20.4 C 26 % 0.28 C
2053 14-09-2008 17:16:02 19.7 C 28 % 0.7 C
2054 14-09-2008 17:21:02 19.2 C 30 % 1.23 C
2055 14-09-2008 17:26:02 18.7 C 30 % 0.79 C
2056 14-09-2008 17:31:02 18.4 C 34 % 2.27 C
2057 14-09-2008 17:36:02 18.2 C 35 % 2.5 C
2058 14-09-2008 17:41:02 18 C 36 % 2.72 C
2059 14-09-2008 17:46:02 17.7 C 38 % 3.22 C
2060 14-09-2008 17:51:02 17.6 C 37 % 2.75 C
2061 14-09-2008 17:56:02 17.9 C 40 % 4.12 C
2062 14-09-2008 18:01:02 17.9 C 40 % 4.12 C
2063 14-09-2008 18:06:02 17.8 C 37 % 2.93 C
2064 14-09-2008 18:11:03 17.6 C 37 % 2.75 C
2065 14-09-2008 18:16:01 17.5 C 37 % 2.67 C
2066 14-09-2008 18:21:01 17 C 38 % 2.6 C
2067 14-09-2008 18:26:01 16.9 C 41 % 3.58 C
2068 14-09-2008 18:31:02 16.8 C 40 % 3.14 C
2069 14-09-2008 18:36:02 16.6 C 41 % 3.31 C
2070 14-09-2008 18:41:02 16.1 C 39 % 2.16 C
2071 14-09-2008 18:46:02 16 C 38 % 1.71 C
2072 14-09-2008 18:51:02 15.8 C 39 % 1.89 C
2073 14-09-2008 18:56:02 15.5 C 41 % 2.32 C
2074 14-09-2008 19:01:02 15.4 C 41 % 2.23 C
2075 14-09-2008 19:06:02 15.3 C 41 % 2.14 C
Sensor: Nr:Datum:Temp:Feuchte:Taupunkt:
Aussen-T/F 2076 14-09-2008 19:11:02 15.2 C 43 % 2.72 C
2077 14-09-2008 19:16:02 15 C 41 % 1.87 C
2078 14-09-2008 19:21:02 14.9 C 43 % 2.45 C
2079 14-09-2008 19:26:02 14.8 C 44 % 2.68 C
2080 14-09-2008 19:31:02 14.7 C 45 % 2.91 C
2081 14-09-2008 19:36:02 14.4 C 47 % 3.25 C
2082 14-09-2008 19:41:02 14.3 C 46 % 2.85 C
2083 14-09-2008 19:46:02 14.1 C 44 % 2.05 C
2084 14-09-2008 19:51:02 13.8 C 46 % 2.4 C
2085 14-09-2008 19:56:03 13.7 C 46 % 2.3 C
2086 14-09-2008 20:01:01 13.5 C 46 % 2.12 C
2087 14-09-2008 20:06:01 13.2 C 46 % 1.85 C
2088 14-09-2008 20:11:01 13.1 C 46 % 1.76 C
2089 14-09-2008 20:16:02 13 C 47 % 1.97 C
2090 14-09-2008 20:21:02 12.8 C 48 % 2.08 C
2091 14-09-2008 20:26:02 12.7 C 50 % 2.56 C
2092 14-09-2008 20:31:01 12.5 C 52 % 2.92 C
2093 14-09-2008 20:36:01 12.4 C 52 % 2.83 C
2094 14-09-2008 20:41:01 12.3 C 52 % 2.74 C
2095 14-09-2008 20:46:01 12.2 C 52 % 2.65 C
2096 14-09-2008 20:51:01 12.3 C 53 % 3.01 C
2097 14-09-2008 20:56:01 12.2 C 54 % 3.18 C
2098 14-09-2008 21:01:02 12.2 C 55 % 3.44 C
2099 14-09-2008 21:06:02 12.3 C 56 % 3.79 C
2100 14-09-2008 21:11:02 12.4 C 55 % 3.62 C
Sensor: Nr:Datum:Temp:Feuchte:Taupunkt:
Aussen-T/F 2101 14-09-2008 21:16:01 12.2 C 55 % 3.44 C
2102 14-09-2008 21:21:01 12.4 C 55 % 3.62 C
2103 14-09-2008 21:26:01 12.4 C 55 % 3.62 C
2104 14-09-2008 21:31:02 12.2 C 56 % 3.69 C
2105 14-09-2008 21:36:02 12.2 C 56 % 3.69 C
2106 14-09-2008 21:41:02 12.4 C 57 % 4.13 C
2107 14-09-2008 21:46:02 12.4 C 57 % 4.13 C
2108 14-09-2008 21:51:02 12.4 C 56 % 3.88 C
2109 14-09-2008 21:56:02 12.2 C 56 % 3.69 C
2110 14-09-2008 22:02:02 12.2 C 57 % 3.94 C
2111 14-09-2008 22:07:02 12.2 C 57 % 3.94 C
2112 14-09-2008 22:12:02 12.1 C 57 % 3.85 C
2113 14-09-2008 22:17:02 12.1 C 59 % 4.34 C
2114 14-09-2008 22:22:02 12.1 C 59 % 4.34 C
2115 14-09-2008 22:27:02 12.1 C 60 % 4.58 C
2116 14-09-2008 22:32:02 12 C 60 % 4.49 C
2117 14-09-2008 22:37:02 11.8 C 60 % 4.3 C
2118 14-09-2008 22:42:02 11.7 C 62 % 4.67 C
2119 14-09-2008 22:47:02 11.5 C 62 % 4.48 C
2120 14-09-2008 22:52:02 11.3 C 62 % 4.29 C
2121 14-09-2008 22:57:03 11.2 C 62 % 4.2 C
2122 14-09-2008 23:02:03 11 C 63 % 4.24 C
2123 14-09-2008 23:07:03 10.9 C 65 % 4.59 C
2124 14-09-2008 23:12:03 10.8 C 65 % 4.49 C
2125 14-09-2008 23:17:03 10.8 C 66 % 4.71 C
Sensor: Nr:Datum:Temp:Feuchte:Taupunkt:
Aussen-T/F 2126 14-09-2008 23:22:03 10.9 C 66 % 4.81 C
2127 14-09-2008 23:27:03 10.8 C 66 % 4.71 C
2128 14-09-2008 23:32:03 10.8 C 66 % 4.71 C
2129 14-09-2008 23:37:03 10.7 C 66 % 4.62 C
2130 14-09-2008 23:42:03 10.7 C 67 % 4.83 C
2131 14-09-2008 23:47:03 10.7 C 67 % 4.83 C
2132 14-09-2008 23:52:03 10.5 C 68 % 4.85 C
2133 14-09-2008 23:57:03 10.4 C 68 % 4.76 C
2134 15-09-2008 00:02:03 10.3 C 68 % 4.66 C
2135 15-09-2008 00:07:03 10.1 C 68 % 4.47 C
2136 15-09-2008 00:12:03 9.9 C 70 % 4.69 C
2137 15-09-2008 00:17:03 9.8 C 70 % 4.6 C
2138 15-09-2008 00:22:03 9.7 C 71 % 4.7 C
2139 15-09-2008 00:27:03 9.6 C 72 % 4.81 C
2140 15-09-2008 00:32:03 9.6 C 72 % 4.81 C
2141 15-09-2008 00:37:04 9.4 C 72 % 4.62 C
2142 15-09-2008 00:42:04 9.3 C 73 % 4.72 C
2143 15-09-2008 00:47:04 9.3 C 73 % 4.72 C
2144 15-09-2008 00:52:04 9.2 C 73 % 4.62 C
2145 15-09-2008 00:57:04 9.1 C 74 % 4.72 C
2146 15-09-2008 01:02:04 9 C 74 % 4.62 C
2147 15-09-2008 01:07:04 9 C 74 % 4.62 C
2148 15-09-2008 01:12:04 9 C 75 % 4.81 C
2149 15-09-2008 01:17:04 9 C 75 % 4.81 C
2150 15-09-2008 01:22:04 9 C 74 % 4.62 C
Sensor: Nr:Datum:Temp:Feuchte:Taupunkt:
Aussen-T/F 2151 15-09-2008 01:27:04 9.1 C 73 % 4.52 C
2152 15-09-2008 01:32:04 9 C 73 % 4.43 C
2153 15-09-2008 01:37:04 9 C 73 % 4.43 C
2154 15-09-2008 01:42:04 8.9 C 74 % 4.53 C
2155 15-09-2008 01:47:04 8.9 C 75 % 4.72 C
2156 15-09-2008 01:52:04 8.9 C 74 % 4.53 C
2157 15-09-2008 01:57:04 8.8 C 74 % 4.43 C
2158 15-09-2008 02:02:04 8.7 C 74 % 4.33 C
2159 15-09-2008 02:07:04 8.7 C 75 % 4.52 C
2160 15-09-2008 02:12:05 8.7 C 75 % 4.52 C
2161 15-09-2008 02:17:05 8.8 C 75 % 4.62 C
2162 15-09-2008 02:22:05 8.8 C 75 % 4.62 C
2163 15-09-2008 02:27:05 8.8 C 74 % 4.43 C
2164 15-09-2008 02:32:05 8.8 C 74 % 4.43 C
2165 15-09-2008 02:37:05 8.7 C 73 % 4.14 C
2166 15-09-2008 02:42:05 8.7 C 73 % 4.14 C
2167 15-09-2008 02:47:05 8.7 C 73 % 4.14 C
2168 15-09-2008 02:52:05 8.6 C 73 % 4.04 C
2169 15-09-2008 02:57:05 8.6 C 73 % 4.04 C
2170 15-09-2008 03:02:05 8.5 C 73 % 3.95 C
2171 15-09-2008 03:07:05 8.4 C 74 % 4.04 C
2172 15-09-2008 03:12:05 8.2 C 75 % 4.04 C
2173 15-09-2008 03:17:05 8.2 C 76 % 4.23 C
2174 15-09-2008 03:22:05 8.2 C 76 % 4.23 C
2175 15-09-2008 03:27:05 8.3 C 77 % 4.51 C
Sensor: Nr:Datum:Temp:Feuchte:Taupunkt:
Aussen-T/F 2176 15-09-2008 03:32:05 8.2 C 77 % 4.42 C
2177 15-09-2008 03:37:05 8.2 C 77 % 4.42 C
2178 15-09-2008 03:42:05 8.2 C 78 % 4.6 C
2179 15-09-2008 03:47:06 8.2 C 78 % 4.6 C
2180 15-09-2008 03:52:06 8.2 C 78 % 4.6 C
2181 15-09-2008 03:57:06 8.1 C 78 % 4.5 C
2182 15-09-2008 04:02:06 8.1 C 79 % 4.68 C
2183 15-09-2008 04:07:06 8 C 79 % 4.59 C
2184 15-09-2008 04:12:06 7.9 C 80 % 4.67 C
2185 15-09-2008 04:17:06 7.8 C 80 % 4.57 C
2186 15-09-2008 04:22:06 7.7 C 80 % 4.47 C
2187 15-09-2008 04:27:06 7.6 C 80 % 4.38 C
2188 15-09-2008 04:32:06 7.5 C 81 % 4.46 C
2189 15-09-2008 04:37:06 7.4 C 81 % 4.36 C
2190 15-09-2008 04:42:06 7.4 C 82 % 4.53 C
2191 15-09-2008 04:47:06 7.5 C 82 % 4.63 C
2192 15-09-2008 04:52:06 7.3 C 82 % 4.44 C
2193 15-09-2008 04:57:06 7.3 C 83 % 4.61 C
2194 15-09-2008 05:02:06 7.3 C 83 % 4.61 C
2195 15-09-2008 05:07:06 7.3 C 83 % 4.61 C
2196 15-09-2008 05:12:06 7.2 C 83 % 4.51 C
2197 15-09-2008 05:17:06 7.2 C 83 % 4.51 C
2198 15-09-2008 05:22:07 7.2 C 84 % 4.68 C
2199 15-09-2008 05:27:07 7.3 C 84 % 4.78 C
2200 15-09-2008 05:32:07 7.4 C 84 % 4.88 C
Sensor: Nr:Datum:Temp:Feuchte:Taupunkt:
Aussen-T/F 2201 15-09-2008 05:37:07 7.4 C 84 % 4.88 C
2202 15-09-2008 05:42:07 7.2 C 84 % 4.68 C
2203 15-09-2008 05:47:07 7.1 C 84 % 4.58 C
2204 15-09-2008 05:52:07 7 C 84 % 4.49 C
2205 15-09-2008 05:57:07 6.9 C 86 % 4.72 C
2206 15-09-2008 06:02:07 6.9 C 86 % 4.72 C
2207 15-09-2008 06:07:07 6.9 C 86 % 4.72 C
2208 15-09-2008 06:12:07 6.9 C 86 % 4.72 C
2209 15-09-2008 06:17:07 6.8 C 86 % 4.63 C
2210 15-09-2008 06:22:07 6.8 C 86 % 4.63 C
2211 15-09-2008 06:27:07 6.8 C 86 % 4.63 C
2212 15-09-2008 06:32:07 6.7 C 87 % 4.69 C
2213 15-09-2008 06:37:07 6.6 C 87 % 4.6 C
2214 15-09-2008 06:42:07 6.6 C 87 % 4.6 C
2215 15-09-2008 06:47:07 6.5 C 87 % 4.5 C
2216 15-09-2008 06:52:07 6.4 C 87 % 4.4 C
2217 15-09-2008 06:57:08 6.4 C 87 % 4.4 C
2218 15-09-2008 07:02:02 6.3 C 88 % 4.46 C
2219 15-09-2008 07:07:02 6.3 C 88 % 4.46 C
2220 15-09-2008 07:12:02 6.2 C 88 % 4.36 C
2221 15-09-2008 07:17:02 6.2 C 88 % 4.36 C
2222 15-09-2008 07:22:02 6.2 C 88 % 4.36 C
2223 15-09-2008 07:27:02 6.2 C 88 % 4.36 C
2224 15-09-2008 07:32:02 6.2 C 89 % 4.53 C
2225 15-09-2008 07:37:02 6.1 C 88 % 4.27 C
Sensor: Nr:Datum:Temp:Feuchte:Taupunkt:
Aussen-T/F 2226 15-09-2008 07:42:02 6.1 C 89 % 4.43 C
2227 15-09-2008 07:47:02 6.1 C 89 % 4.43 C
2228 15-09-2008 07:52:02 6.1 C 89 % 4.43 C
2229 15-09-2008 07:57:02 6.1 C 89 % 4.43 C
2230 15-09-2008 08:02:02 6.1 C 89 % 4.43 C
2231 15-09-2008 08:07:02 6.2 C 89 % 4.53 C
2232 15-09-2008 08:12:02 6.2 C 89 % 4.53 C
2233 15-09-2008 08:17:02 6.2 C 89 % 4.53 C
2234 15-09-2008 08:22:02 6.3 C 89 % 4.62 C
2235 15-09-2008 08:27:02 6.3 C 89 % 4.62 C
2236 15-09-2008 08:32:02 6.4 C 89 % 4.72 C
2237 15-09-2008 08:37:02 6.5 C 89 % 4.82 C
2238 15-09-2008 08:42:02 6.6 C 89 % 4.92 C
2239 15-09-2008 08:47:02 6.8 C 89 % 5.12 C
2240 15-09-2008 08:52:03 6.9 C 89 % 5.22 C
2241 15-09-2008 08:57:03 7.1 C 88 % 5.25 C
2242 15-09-2008 09:02:01 7.3 C 88 % 5.45 C
2243 15-09-2008 09:07:01 7.3 C 88 % 5.45 C
2244 15-09-2008 09:12:01 7.4 C 87 % 5.38 C
2245 15-09-2008 09:17:02 7.6 C 86 % 5.41 C
2246 15-09-2008 09:22:02 7.6 C 86 % 5.41 C
2247 15-09-2008 09:27:02 7.6 C 86 % 5.41 C
2248 15-09-2008 09:32:01 7.7 C 85 % 5.34 C
2249 15-09-2008 09:37:01 7.8 C 85 % 5.44 C
2250 15-09-2008 09:42:01 8 C 84 % 5.47 C
Sensor: Nr:Datum:Temp:Feuchte:Taupunkt:
Aussen-T/F 2251 15-09-2008 09:47:01 8.2 C 84 % 5.66 C
2252 15-09-2008 09:52:01 8.5 C 83 % 5.78 C
2253 15-09-2008 09:57:01 8.7 C 82 % 5.8 C
2254 15-09-2008 10:02:02 9 C 80 % 5.74 C
2255 15-09-2008 10:07:02 9.2 C 79 % 5.75 C
2256 15-09-2008 10:12:02 9.4 C 78 % 5.76 C
2257 15-09-2008 10:17:01 9.7 C 76 % 5.68 C
2258 15-09-2008 10:22:01 10 C 74 % 5.59 C
2259 15-09-2008 10:27:01 10 C 73 % 5.39 C
2260 15-09-2008 10:32:02 10.2 C 72 % 5.39 C
2261 15-09-2008 10:37:02 10.4 C 70 % 5.17 C
2262 15-09-2008 10:42:02 10.7 C 70 % 5.46 C
2263 15-09-2008 10:47:02 10.8 C 70 % 5.56 C
2264 15-09-2008 10:52:03 11.3 C 69 % 5.83 C
2265 15-09-2008 10:57:03 11.8 C 67 % 5.88 C
2266 15-09-2008 11:02:02 12 C 65 % 5.63 C
2267 15-09-2008 11:07:02 12.1 C 62 % 5.05 C
2268 15-09-2008 11:12:02 12.1 C 61 % 4.82 C
2269 15-09-2008 11:17:02 12.1 C 61 % 4.82 C
2270 15-09-2008 11:22:02 12 C 60 % 4.49 C
2271 15-09-2008 11:27:02 11.8 C 62 % 4.77 C
2272 15-09-2008 11:32:02 11.8 C 62 % 4.77 C
2273 15-09-2008 11:37:02 11.9 C 62 % 4.86 C
2274 15-09-2008 11:42:02 12.2 C 60 % 4.67 C
2275 15-09-2008 11:47:02 12.5 C 58 % 4.47 C
Sensor: Nr:Datum:Temp:Feuchte:Taupunkt:
Aussen-T/F 2276 15-09-2008 11:52:02 12.6 C 56 % 4.07 C
2277 15-09-2008 11:57:02 12.8 C 55 % 4 C
2278 15-09-2008 12:02:02 13.1 C 53 % 3.75 C
2279 15-09-2008 12:07:02 13.2 C 53 % 3.84 C
2280 15-09-2008 12:12:02 13.3 C 51 % 3.39 C
2281 15-09-2008 12:17:02 13.4 C 51 % 3.48 C
2282 15-09-2008 12:22:02 13.4 C 50 % 3.2 C
2283 15-09-2008 12:27:02 13.4 C 50 % 3.2 C
2284 15-09-2008 12:32:02 13.4 C 51 % 3.48 C
2285 15-09-2008 12:37:02 13.8 C 51 % 3.85 C
2286 15-09-2008 12:42:02 14 C 50 % 3.75 C
2287 15-09-2008 12:47:02 14.2 C 47 % 3.06 C
2288 15-09-2008 12:52:03 14 C 47 % 2.88 C
2289 15-09-2008 12:57:03 14 C 47 % 2.88 C
2290 15-09-2008 13:02:01 14.2 C 47 % 3.06 C
2291 15-09-2008 13:07:01 14.1 C 48 % 3.27 C
2292 15-09-2008 13:12:01 14.2 C 48 % 3.36 C
2293 15-09-2008 13:17:02 14.5 C 47 % 3.34 C
2294 15-09-2008 13:22:02 14.8 C 46 % 3.31 C
2295 15-09-2008 13:27:02 14.7 C 46 % 3.22 C
2296 15-09-2008 13:32:01 14.4 C 47 % 3.25 C
2297 15-09-2008 13:37:01 14 C 50 % 3.75 C
2298 15-09-2008 13:42:01 13.2 C 57 % 4.88 C
2299 15-09-2008 13:47:01 12.8 C 60 % 5.24 C
2300 15-09-2008 13:52:01 12.2 C 63 % 5.37 C
Sensor: Nr:Datum:Temp:Feuchte:Taupunkt:
Aussen-T/F 2301 15-09-2008 13:57:01 12.1 C 66 % 5.95 C
2302 15-09-2008 14:02:02 12.2 C 67 % 6.26 C
2303 15-09-2008 14:07:02 12.8 C 65 % 6.39 C
2304 15-09-2008 14:12:02 13.5 C 59 % 5.65 C
2305 15-09-2008 14:17:02 13.9 C 58 % 5.78 C
2306 15-09-2008 14:22:02 14 C 54 % 4.85 C
2307 15-09-2008 14:27:02 14.1 C 53 % 4.68 C
2308 15-09-2008 14:32:02 13.8 C 54 % 4.66 C
2309 15-09-2008 14:37:02 13.7 C 55 % 4.83 C
2310 15-09-2008 14:42:02 13.2 C 58 % 5.13 C
2311 15-09-2008 14:47:02 12.2 C 65 % 5.82 C
2312 15-09-2008 14:52:02 12 C 69 % 6.5 C
2313 15-09-2008 14:57:02 11.7 C 76 % 7.62 C
2314 15-09-2008 15:02:01 11.8 C 79 % 8.28 C
2315 15-09-2008 15:07:01 11.9 C 80 % 8.56 C
2316 15-09-2008 15:12:01 12.2 C 80 % 8.86 C
2317 15-09-2008 15:17:02 12.2 C 81 % 9.04 C
2318 15-09-2008 15:22:02 12.3 C 82 % 9.32 C
2319 15-09-2008 15:27:02 12.8 C 82 % 9.81 C
2320 15-09-2008 15:32:01 13.4 C 80 % 10.02 C
2321 15-09-2008 15:37:01 14 C 76 % 9.84 C
2322 15-09-2008 15:42:01 14.2 C 76 % 10.03 C
2323 15-09-2008 15:47:01 14.2 C 74 % 9.64 C
2324 15-09-2008 15:52:01 14.4 C 75 % 10.03 C
2325 15-09-2008 15:57:01 14.4 C 74 % 9.83 C
Sensor: Nr:Datum:Temp:Feuchte:Taupunkt:
Aussen-T/F 2326 15-09-2008 16:02:02 14.5 C 73 % 9.72 C
2327 15-09-2008 16:07:02 14.6 C 71 % 9.41 C
2328 15-09-2008 16:12:02 14.5 C 70 % 9.1 C
2329 15-09-2008 16:17:01 14.4 C 69 % 8.79 C
2330 15-09-2008 16:22:01 14.5 C 71 % 9.31 C
2331 15-09-2008 16:27:01 14.5 C 72 % 9.52 C
2332 15-09-2008 16:32:02 14.5 C 74 % 9.93 C
2333 15-09-2008 16:37:02 14.3 C 74 % 9.73 C
2334 15-09-2008 16:42:02 14 C 74 % 9.44 C
2335 15-09-2008 16:47:02 13.8 C 74 % 9.25 C
2336 15-09-2008 16:52:03 13.3 C 73 % 8.57 C
2337 15-09-2008 16:57:03 13.3 C 74 % 8.77 C
2338 15-09-2008 17:02:02 13.2 C 73 % 8.47 C
2339 15-09-2008 17:07:02 13.1 C 74 % 8.58 C
2340 15-09-2008 17:12:02 13.1 C 72 % 8.17 C
2341 15-09-2008 17:17:03 13.1 C 71 % 7.97 C
2342 15-09-2008 17:22:03 12.9 C 70 % 7.57 C
2343 15-09-2008 17:27:03 12.6 C 70 % 7.28 C
2344 15-09-2008 17:32:02 12.4 C 72 % 7.5 C
2345 15-09-2008 17:37:02 12.4 C 72 % 7.5 C
2346 15-09-2008 17:42:02 12.4 C 72 % 7.5 C
2347 15-09-2008 17:47:02 12.2 C 72 % 7.31 C
2348 15-09-2008 17:52:03 12.1 C 73 % 7.41 C
2349 15-09-2008 17:57:03 12.1 C 73 % 7.41 C
2350 15-09-2008 18:02:01 12.1 C 73 % 7.41 C
Sensor: Nr:Datum:Temp:Feuchte:Taupunkt:
Aussen-T/F 2351 15-09-2008 18:07:01 12.1 C 73 % 7.41 C
2352 15-09-2008 18:12:01 12.1 C 73 % 7.41 C
2353 15-09-2008 18:17:02 12 C 72 % 7.12 C
2354 15-09-2008 18:22:02 12 C 71 % 6.91 C
2355 15-09-2008 18:27:02 11.9 C 73 % 7.22 C
2356 15-09-2008 18:32:01 11.9 C 73 % 7.22 C
2357 15-09-2008 18:37:01 11.8 C 72 % 6.92 C
2358 15-09-2008 18:42:01 11.7 C 72 % 6.83 C
2359 15-09-2008 18:47:01 11.7 C 71 % 6.62 C
2360 15-09-2008 18:52:01 11.6 C 71 % 6.53 C
2361 15-09-2008 18:57:01 11.6 C 71 % 6.53 C
2362 15-09-2008 19:02:02 11.5 C 72 % 6.63 C
2363 15-09-2008 19:07:02 11.4 C 72 % 6.54 C
2364 15-09-2008 19:12:02 11.3 C 73 % 6.64 C
2365 15-09-2008 19:17:01 11.2 C 73 % 6.55 C
2366 15-09-2008 19:22:01 11.2 C 73 % 6.55 C
2367 15-09-2008 19:27:01 11.1 C 72 % 6.25 C
2368 15-09-2008 19:32:02 11.1 C 73 % 6.45 C
2369 15-09-2008 19:37:02 11.1 C 73 % 6.45 C
2370 15-09-2008 19:42:02 11.2 C 72 % 6.35 C
2371 15-09-2008 19:47:02 11.2 C 73 % 6.55 C
2372 15-09-2008 19:52:02 11.2 C 73 % 6.55 C
2373 15-09-2008 19:57:02 11.1 C 74 % 6.65 C
2374 15-09-2008 20:02:02 11.1 C 74 % 6.65 C
2375 15-09-2008 20:07:02 11 C 75 % 6.75 C
Sensor: Nr:Datum:Temp:Feuchte:Taupunkt:
Aussen-T/F 2376 15-09-2008 20:12:02 11.1 C 74 % 6.65 C
2377 15-09-2008 20:17:02 11.1 C 74 % 6.65 C
2378 15-09-2008 20:22:02 11 C 75 % 6.75 C
2379 15-09-2008 20:27:02 11 C 75 % 6.75 C
2380 15-09-2008 20:32:02 11 C 75 % 6.75 C
2381 15-09-2008 20:37:02 10.9 C 76 % 6.84 C
2382 15-09-2008 20:42:02 10.9 C 76 % 6.84 C
2383 15-09-2008 20:47:02 10.9 C 77 % 7.03 C
2384 15-09-2008 20:52:02 10.8 C 77 % 6.94 C
2385 15-09-2008 20:57:02 10.9 C 77 % 7.03 C
2386 15-09-2008 21:02:02 10.9 C 76 % 6.84 C
2387 15-09-2008 21:07:02 10.9 C 76 % 6.84 C
2388 15-09-2008 21:12:02 10.8 C 76 % 6.75 C
2389 15-09-2008 21:17:02 10.8 C 76 % 6.75 C
2390 15-09-2008 21:22:02 10.8 C 76 % 6.75 C
2391 15-09-2008 21:27:02 10.8 C 75 % 6.55 C
2392 15-09-2008 21:32:02 10.8 C 75 % 6.55 C
2393 15-09-2008 21:37:02 10.9 C 75 % 6.65 C
2394 15-09-2008 21:42:02 10.8 C 75 % 6.55 C
2395 15-09-2008 21:47:02 10.8 C 76 % 6.75 C
2396 15-09-2008 21:52:02 10.9 C 76 % 6.84 C
2397 15-09-2008 21:57:03 10.9 C 76 % 6.84 C
2398 15-09-2008 22:02:01 10.9 C 76 % 6.84 C
2399 15-09-2008 22:07:01 10.8 C 76 % 6.75 C
2400 15-09-2008 22:12:01 10.8 C 76 % 6.75 C
Sensor: Nr:Datum:Temp:Feuchte:Taupunkt:
Aussen-T/F 2401 15-09-2008 22:17:02 10.8 C 76 % 6.75 C
2402 15-09-2008 22:22:02 10.8 C 76 % 6.75 C
2403 15-09-2008 22:27:02 10.7 C 75 % 6.46 C
2404 15-09-2008 22:33:02 10.8 C 75 % 6.55 C
2405 15-09-2008 22:38:02 10.8 C 75 % 6.55 C
2406 15-09-2008 22:43:02 10.8 C 75 % 6.55 C
2407 15-09-2008 22:48:02 10.8 C 75 % 6.55 C
2408 15-09-2008 22:53:02 10.8 C 75 % 6.55 C
2409 15-09-2008 22:58:02 10.7 C 76 % 6.65 C
2410 15-09-2008 23:03:02 10.7 C 76 % 6.65 C
2411 15-09-2008 23:08:02 10.6 C 77 % 6.74 C
2412 15-09-2008 23:13:02 10.5 C 77 % 6.64 C
2413 15-09-2008 23:18:02 10.5 C 77 % 6.64 C
2414 15-09-2008 23:23:02 10.5 C 77 % 6.64 C
2415 15-09-2008 23:28:02 10.5 C 78 % 6.83 C
2416 15-09-2008 23:33:02 10.5 C 78 % 6.83 C
2417 15-09-2008 23:38:02 10.5 C 78 % 6.83 C
2418 15-09-2008 23:43:02 10.5 C 78 % 6.83 C
2419 15-09-2008 23:48:02 10.5 C 78 % 6.83 C
2420 15-09-2008 23:53:02 10.5 C 78 % 6.83 C
2421 15-09-2008 23:58:02 10.4 C 79 % 6.92 C
2422 16-09-2008 00:03:03 10.4 C 78 % 6.74 C
2423 16-09-2008 00:08:03 10.4 C 78 % 6.74 C
2424 16-09-2008 00:13:03 10.4 C 79 % 6.92 C
2425 16-09-2008 00:18:03 10.3 C 79 % 6.82 C
Sensor: Nr:Datum:Temp:Feuchte:Taupunkt:
Aussen-T/F 2426 16-09-2008 00:23:03 10.3 C 79 % 6.82 C
2427 16-09-2008 00:28:03 10.2 C 79 % 6.73 C
2428 16-09-2008 00:33:03 10.2 C 79 % 6.73 C
2429 16-09-2008 00:38:03 10.1 C 79 % 6.63 C
2430 16-09-2008 00:43:03 10.1 C 79 % 6.63 C
2431 16-09-2008 00:48:03 10.1 C 79 % 6.63 C
2432 16-09-2008 00:53:03 10.1 C 79 % 6.63 C
2433 16-09-2008 00:58:03 10 C 80 % 6.71 C
2434 16-09-2008 01:03:03 10 C 80 % 6.71 C
2435 16-09-2008 01:08:03 10 C 80 % 6.71 C
2436 16-09-2008 01:13:03 10 C 80 % 6.71 C
2437 16-09-2008 01:18:03 10 C 80 % 6.71 C
2438 16-09-2008 01:23:03 10 C 80 % 6.71 C
2439 16-09-2008 01:28:03 10 C 81 % 6.89 C
2440 16-09-2008 01:33:03 10 C 81 % 6.89 C
2441 16-09-2008 01:38:03 9.9 C 82 % 6.98 C
2442 16-09-2008 01:43:03 9.9 C 82 % 6.98 C
2443 16-09-2008 01:48:04 9.9 C 83 % 7.15 C
2444 16-09-2008 01:53:04 9.8 C 82 % 6.88 C
2445 16-09-2008 01:58:04 9.9 C 82 % 6.98 C
2446 16-09-2008 02:03:04 9.7 C 82 % 6.78 C
2447 16-09-2008 02:08:04 9.6 C 82 % 6.68 C
2448 16-09-2008 02:13:04 9.5 C 82 % 6.59 C
2449 16-09-2008 02:18:04 9.5 C 83 % 6.76 C
2450 16-09-2008 02:23:04 9.4 C 83 % 6.66 C
Sensor: Nr:Datum:Temp:Feuchte:Taupunkt:
Aussen-T/F 2451 16-09-2008 02:28:04 9.3 C 83 % 6.57 C
2452 16-09-2008 02:33:04 9.3 C 83 % 6.57 C
2453 16-09-2008 02:38:04 9.3 C 83 % 6.57 C
2454 16-09-2008 02:43:04 9.3 C 83 % 6.57 C
2455 16-09-2008 02:48:04 9.4 C 83 % 6.66 C
2456 16-09-2008 02:53:04 9.4 C 83 % 6.66 C
2457 16-09-2008 02:58:04 9.4 C 83 % 6.66 C
2458 16-09-2008 03:03:04 9.5 C 83 % 6.76 C
2459 16-09-2008 03:08:04 9.5 C 83 % 6.76 C
2460 16-09-2008 03:13:04 9.5 C 83 % 6.76 C
2461 16-09-2008 03:18:04 9.3 C 83 % 6.57 C
2462 16-09-2008 03:23:04 9.2 C 83 % 6.47 C
2463 16-09-2008 03:28:04 9 C 83 % 6.27 C
2464 16-09-2008 03:33:05 8.9 C 84 % 6.35 C
2465 16-09-2008 03:38:05 8.6 C 84 % 6.05 C
2466 16-09-2008 03:43:05 8.4 C 84 % 5.86 C
2467 16-09-2008 03:48:05 8.3 C 84 % 5.76 C
2468 16-09-2008 03:53:05 8.2 C 84 % 5.66 C
2469 16-09-2008 03:58:05 8.1 C 84 % 5.56 C
2470 16-09-2008 04:03:05 8 C 84 % 5.47 C
2471 16-09-2008 04:08:05 7.9 C 86 % 5.71 C
2472 16-09-2008 04:13:05 7.8 C 86 % 5.61 C
2473 16-09-2008 04:18:05 7.7 C 86 % 5.51 C
2474 16-09-2008 04:23:05 7.7 C 87 % 5.68 C
2475 16-09-2008 04:28:05 7.6 C 87 % 5.58 C
Sensor: Nr:Datum:Temp:Feuchte:Taupunkt:
Aussen-T/F 2476 16-09-2008 04:33:05 7.5 C 87 % 5.48 C
2477 16-09-2008 04:38:05 7.5 C 87 % 5.48 C
2478 16-09-2008 04:43:05 7.3 C 87 % 5.28 C
2479 16-09-2008 04:48:05 7.4 C 87 % 5.38 C
2480 16-09-2008 04:53:05 7.3 C 87 % 5.28 C
2481 16-09-2008 04:58:05 7.2 C 87 % 5.19 C
2482 16-09-2008 05:03:05 7.2 C 88 % 5.35 C
2483 16-09-2008 05:08:05 7.1 C 88 % 5.25 C
2484 16-09-2008 05:13:06 7.1 C 88 % 5.25 C
2485 16-09-2008 05:18:06 7 C 88 % 5.15 C
2486 16-09-2008 05:23:06 6.9 C 89 % 5.22 C
2487 16-09-2008 05:28:06 6.9 C 89 % 5.22 C
2488 16-09-2008 05:33:06 6.9 C 89 % 5.22 C
2489 16-09-2008 05:38:06 6.9 C 89 % 5.22 C
2490 16-09-2008 05:43:06 6.9 C 89 % 5.22 C
2491 16-09-2008 05:48:06 6.8 C 89 % 5.12 C
2492 16-09-2008 05:53:06 6.8 C 90 % 5.28 C
2493 16-09-2008 05:58:06 6.8 C 90 % 5.28 C
2494 16-09-2008 06:03:06 6.7 C 90 % 5.18 C
2495 16-09-2008 06:08:06 6.5 C 90 % 4.98 C
2496 16-09-2008 06:13:06 6.4 C 90 % 4.88 C
2497 16-09-2008 06:18:06 6.4 C 90 % 4.88 C
2498 16-09-2008 06:23:06 6.5 C 90 % 4.98 C
2499 16-09-2008 06:28:06 6.7 C 91 % 5.34 C
2500 16-09-2008 06:33:06 6.7 C 91 % 5.34 C
Sensor: Nr:Datum:Temp:Feuchte:Taupunkt:
Aussen-T/F 2501 16-09-2008 06:38:06 6.7 C 91 % 5.34 C
2502 16-09-2008 06:43:06 6.7 C 91 % 5.34 C
2503 16-09-2008 06:48:06 6.7 C 92 % 5.49 C
2504 16-09-2008 06:53:06 6.8 C 92 % 5.59 C
2505 16-09-2008 06:58:07 6.9 C 92 % 5.69 C
2506 16-09-2008 07:03:03 6.9 C 92 % 5.69 C
2507 16-09-2008 07:08:03 7 C 91 % 5.63 C
2508 16-09-2008 07:13:03 7 C 92 % 5.79 C
2509 16-09-2008 07:18:02 7 C 92 % 5.79 C
2510 16-09-2008 07:23:02 7.1 C 92 % 5.89 C
2511 16-09-2008 07:28:02 7.2 C 92 % 5.99 C
2512 16-09-2008 07:33:02 7.2 C 92 % 5.99 C
2513 16-09-2008 07:38:02 7.3 C 92 % 6.09 C
2514 16-09-2008 07:43:03 7.3 C 92 % 6.09 C
2515 16-09-2008 07:48:01 7.4 C 92 % 6.19 C
2516 16-09-2008 07:53:01 7.6 C 92 % 6.39 C
2517 16-09-2008 07:58:01 7.5 C 93 % 6.44 C
2518 16-09-2008 08:03:02 7.6 C 92 % 6.39 C
2519 16-09-2008 08:08:02 7.7 C 92 % 6.48 C
2520 16-09-2008 08:13:02 7.8 C 93 % 6.74 C
2521 16-09-2008 08:18:01 7.9 C 92 % 6.68 C
2522 16-09-2008 08:23:01 8 C 91 % 6.62 C
2523 16-09-2008 08:28:01 8.1 C 91 % 6.72 C
2524 16-09-2008 08:33:01 8.2 C 91 % 6.82 C
2525 16-09-2008 08:38:01 8.3 C 91 % 6.92 C
Sensor: Nr:Datum:Temp:Feuchte:Taupunkt:
Aussen-T/F 2526 16-09-2008 08:43:01 8.4 C 91 % 7.02 C
2527 16-09-2008 08:48:03 8.5 C 90 % 6.96 C
2528 16-09-2008 08:53:03 8.6 C 90 % 7.06 C
2529 16-09-2008 08:58:03 8.7 C 90 % 7.15 C
2530 16-09-2008 09:03:02 8.9 C 90 % 7.35 C
2531 16-09-2008 09:08:02 9.1 C 88 % 7.22 C
2532 16-09-2008 09:13:02 9.1 C 88 % 7.22 C
2533 16-09-2008 09:18:02 9.2 C 87 % 7.15 C
2534 16-09-2008 09:23:02 9.3 C 86 % 7.08 C
2535 16-09-2008 09:28:02 9.4 C 85 % 7.01 C
2536 16-09-2008 09:33:02 9.6 C 85 % 7.21 C
2537 16-09-2008 09:38:02 10.1 C 83 % 7.35 C
2538 16-09-2008 09:43:03 9.9 C 83 % 7.15 C
2539 16-09-2008 09:48:01 10.1 C 81 % 6.99 C
2540 16-09-2008 09:53:01 10.2 C 81 % 7.09 C
2541 16-09-2008 09:58:01 10.3 C 81 % 7.19 C
2542 16-09-2008 10:03:02 10.2 C 79 % 6.73 C
2543 16-09-2008 10:08:02 10.3 C 78 % 6.64 C
2544 16-09-2008 10:13:02 10.5 C 78 % 6.83 C
2545 16-09-2008 10:18:02 10.8 C 78 % 7.12 C
2546 16-09-2008 10:23:02 10.9 C 78 % 7.22 C
2547 16-09-2008 10:28:02 11.1 C 77 % 7.23 C
2548 16-09-2008 10:33:01 11.3 C 75 % 7.04 C
2549 16-09-2008 10:38:01 11.4 C 74 % 6.94 C
2550 16-09-2008 10:43:01 11.4 C 72 % 6.54 C
Sensor: Nr:Datum:Temp:Feuchte:Taupunkt:
Aussen-T/F 2551 16-09-2008 10:48:02 11.5 C 71 % 6.43 C
2552 16-09-2008 10:53:02 11.6 C 71 % 6.53 C
2553 16-09-2008 10:58:02 11.9 C 71 % 6.82 C
2554 16-09-2008 11:03:01 12.1 C 70 % 6.8 C
2555 16-09-2008 11:08:01 12.3 C 69 % 6.78 C
2556 16-09-2008 11:13:01 12.5 C 69 % 6.97 C
2557 16-09-2008 11:18:02 12.5 C 67 % 6.55 C
2558 16-09-2008 11:23:02 12.7 C 67 % 6.74 C
2559 16-09-2008 11:28:02 12.7 C 66 % 6.52 C
2560 16-09-2008 11:33:01 13 C 65 % 6.58 C
2561 16-09-2008 11:38:01 13.3 C 64 % 6.64 C
2562 16-09-2008 11:43:01 13.5 C 64 % 6.83 C
2563 16-09-2008 11:48:01 13.7 C 61 % 6.32 C
2564 16-09-2008 11:53:01 13.8 C 59 % 5.94 C
2565 16-09-2008 11:58:01 13.8 C 58 % 5.69 C
2566 16-09-2008 12:03:02 14 C 57 % 5.63 C
2567 16-09-2008 12:08:02 14.3 C 57 % 5.91 C
2568 16-09-2008 12:13:02 14.4 C 57 % 6 C
2569 16-09-2008 12:18:01 14 C 55 % 5.11 C
2570 16-09-2008 12:23:01 14.4 C 53 % 4.95 C
2571 16-09-2008 12:28:01 14.6 C 53 % 5.14 C
2572 16-09-2008 12:33:01 14.8 C 53 % 5.32 C
2573 16-09-2008 12:38:01 15 C 52 % 5.24 C
2574 16-09-2008 12:43:01 14.7 C 53 % 5.23 C
2575 16-09-2008 12:48:02 14.9 C 54 % 5.69 C
Sensor: Nr:Datum:Temp:Feuchte:Taupunkt:
Aussen-T/F 2576 16-09-2008 12:53:02 14.8 C 52 % 5.05 C
2577 16-09-2008 12:58:02 14.3 C 53 % 4.86 C
2578 16-09-2008 13:03:01 14.2 C 54 % 5.04 C
2579 16-09-2008 13:08:01 14 C 56 % 5.37 C
2580 16-09-2008 13:13:01 13.7 C 57 % 5.35 C
2581 16-09-2008 13:18:01 13.5 C 59 % 5.65 C
2582 16-09-2008 13:23:01 13.4 C 60 % 5.8 C
2583 16-09-2008 13:28:01 13.5 C 61 % 6.14 C
2584 16-09-2008 13:33:01 13.7 C 61 % 6.32 C
2585 16-09-2008 13:38:01 13.8 C 61 % 6.42 C
2586 16-09-2008 13:43:02 14.2 C 57 % 5.81 C
2587 16-09-2008 13:48:02 14.7 C 56 % 6.02 C
2588 16-09-2008 13:53:02 14.9 C 55 % 5.95 C
2589 16-09-2008 13:58:02 15.4 C 51 % 5.33 C
2590 16-09-2008 14:03:02 15.7 C 50 % 5.32 C
2591 16-09-2008 14:08:02 15.7 C 50 % 5.32 C
2592 16-09-2008 14:13:02 15.5 C 49 % 4.84 C
2593 16-09-2008 14:18:02 15.2 C 50 % 4.86 C
2594 16-09-2008 14:23:02 15.4 C 50 % 5.04 C
2595 16-09-2008 14:28:03 15.4 C 50 % 5.04 C
2596 16-09-2008 14:33:01 16 C 49 % 5.3 C
2597 16-09-2008 14:38:01 16 C 49 % 5.3 C
2598 16-09-2008 14:43:01 15.8 C 50 % 5.41 C
2599 16-09-2008 14:48:02 15.6 C 51 % 5.51 C
2600 16-09-2008 14:53:02 15.2 C 52 % 5.42 C
Sensor: Nr:Datum:Temp:Feuchte:Taupunkt:
Aussen-T/F 2601 16-09-2008 14:58:02 15 C 55 % 6.04 C
2602 16-09-2008 15:03:01 14.6 C 57 % 6.19 C
2603 16-09-2008 15:08:01 14.3 C 58 % 6.16 C
2604 16-09-2008 15:13:01 14 C 60 % 6.37 C
2605 16-09-2008 15:18:01 13.8 C 62 % 6.65 C
2606 16-09-2008 15:23:01 13.7 C 63 % 6.79 C
2607 16-09-2008 15:28:01 14 C 62 % 6.84 C
2608 16-09-2008 15:33:02 14.2 C 62 % 7.03 C
2609 16-09-2008 15:38:03 14.6 C 61 % 7.17 C
2610 16-09-2008 15:43:03 15.1 C 58 % 6.91 C
2611 16-09-2008 15:48:02 15.5 C 56 % 6.77 C
2612 16-09-2008 15:53:02 16.3 C 50 % 5.87 C
2613 16-09-2008 15:58:02 17 C 46 % 5.31 C
2614 16-09-2008 16:03:01 17 C 44 % 4.67 C
2615 16-09-2008 16:08:01 16.7 C 45 % 4.72 C
2616 16-09-2008 16:13:01 16.4 C 46 % 4.76 C
2617 16-09-2008 16:18:02 16.1 C 46 % 4.49 C
2618 16-09-2008 16:23:02 16 C 48 % 5.01 C
2619 16-09-2008 16:28:03 15.9 C 52 % 6.07 C
2620 16-09-2008 16:33:01 16 C 51 % 5.88 C
2621 16-09-2008 16:38:01 16 C 50 % 5.59 C
2622 16-09-2008 16:43:01 15.9 C 45 % 4 C
2623 16-09-2008 16:48:02 15.8 C 43 % 3.26 C
2624 16-09-2008 16:53:02 15.6 C 43 % 3.08 C
2625 16-09-2008 16:58:02 15.4 C 43 % 2.9 C
Sensor: Nr:Datum:Temp:Feuchte:Taupunkt:
Aussen-T/F 2626 16-09-2008 17:03:02 15.2 C 45 % 3.36 C
2627 16-09-2008 17:08:02 15.1 C 45 % 3.27 C
2628 16-09-2008 17:13:02 15.2 C 46 % 3.67 C
2629 16-09-2008 17:18:01 15.2 C 46 % 3.67 C
2630 16-09-2008 17:23:01 15.2 C 45 % 3.36 C
2631 16-09-2008 17:28:01 15.2 C 46 % 3.67 C
2632 16-09-2008 17:33:02 15.1 C 49 % 4.48 C
2633 16-09-2008 17:38:03 14.8 C 52 % 5.05 C
2634 16-09-2008 17:43:03 14.7 C 52 % 4.96 C
2635 16-09-2008 17:48:02 14.4 C 56 % 5.74 C
2636 16-09-2008 17:53:02 14.1 C 59 % 6.22 C
2637 16-09-2008 17:58:02 14 C 59 % 6.12 C
2638 16-09-2008 18:03:02 13.8 C 62 % 6.65 C
2639 16-09-2008 18:08:02 13.6 C 62 % 6.47 C
2640 16-09-2008 18:13:02 13.6 C 63 % 6.7 C
2641 16-09-2008 18:18:02 13.5 C 63 % 6.6 C
2642 16-09-2008 18:23:02 13.5 C 62 % 6.37 C
2643 16-09-2008 18:28:03 13.5 C 59 % 5.65 C
2644 16-09-2008 18:33:01 13.6 C 56 % 5 C
2645 16-09-2008 18:38:01 13.5 C 55 % 4.65 C
2646 16-09-2008 18:43:01 13.5 C 56 % 4.91 C
2647 16-09-2008 18:48:02 13.4 C 56 % 4.81 C
2648 16-09-2008 18:53:02 13.4 C 58 % 5.32 C
2649 16-09-2008 18:58:02 13.3 C 60 % 5.71 C
2650 16-09-2008 19:03:02 13.2 C 59 % 5.37 C
Sensor: Nr:Datum:Temp:Feuchte:Taupunkt:
Aussen-T/F 2651 16-09-2008 19:08:02 13.1 C 60 % 5.52 C
2652 16-09-2008 19:13:02 13 C 61 % 5.66 C
2653 16-09-2008 19:18:01 12.8 C 61 % 5.48 C
2654 16-09-2008 19:23:01 12.8 C 61 % 5.48 C
2655 16-09-2008 19:28:01 12.7 C 60 % 5.14 C
2656 16-09-2008 19:33:02 12.7 C 58 % 4.66 C
2657 16-09-2008 19:38:03 12.7 C 57 % 4.41 C
2658 16-09-2008 19:43:03 12.6 C 57 % 4.32 C
2659 16-09-2008 19:48:02 12.6 C 57 % 4.32 C
2660 16-09-2008 19:53:02 12.5 C 55 % 3.72 C
2661 16-09-2008 19:58:02 12.6 C 54 % 3.55 C
2662 16-09-2008 20:03:03 12.5 C 55 % 3.72 C
2663 16-09-2008 20:08:03 12.4 C 56 % 3.88 C
2664 16-09-2008 20:13:03 12.4 C 57 % 4.13 C
2665 16-09-2008 20:18:02 12.3 C 59 % 4.53 C
2666 16-09-2008 20:23:02 12.2 C 57 % 3.94 C
2667 16-09-2008 20:28:03 12.3 C 57 % 4.04 C
2668 16-09-2008 20:33:02 12.1 C 56 % 3.6 C
2669 16-09-2008 20:38:02 12.1 C 56 % 3.6 C
2670 16-09-2008 20:43:02 12.1 C 55 % 3.34 C
2671 16-09-2008 20:48:02 12.1 C 54 % 3.09 C
2672 16-09-2008 20:53:02 12.1 C 54 % 3.09 C
2673 16-09-2008 20:58:02 12.1 C 54 % 3.09 C
2674 16-09-2008 21:03:02 12.1 C 55 % 3.34 C
2675 16-09-2008 21:08:02 12.1 C 55 % 3.34 C
Sensor: Nr:Datum:Temp:Feuchte:Taupunkt:
Aussen-T/F 2676 16-09-2008 21:13:02 12 C 55 % 3.25 C
2677 16-09-2008 21:18:01 12.1 C 53 % 2.82 C
2678 16-09-2008 21:23:01 12.1 C 54 % 3.09 C
2679 16-09-2008 21:28:01 12 C 56 % 3.51 C
2680 16-09-2008 21:33:02 12 C 57 % 3.76 C
2681 16-09-2008 21:38:03 11.9 C 61 % 4.63 C
2682 16-09-2008 21:43:03 11.9 C 61 % 4.63 C
2683 16-09-2008 21:48:01 11.8 C 61 % 4.53 C
2684 16-09-2008 21:53:01 11.7 C 61 % 4.44 C
2685 16-09-2008 21:58:01 11.7 C 61 % 4.44 C
2686 16-09-2008 22:04:02 11.7 C 61 % 4.44 C
2687 16-09-2008 22:09:02 11.7 C 61 % 4.44 C
2688 16-09-2008 22:14:02 11.7 C 62 % 4.67 C
2689 16-09-2008 22:19:02 11.6 C 62 % 4.58 C
2690 16-09-2008 22:24:02 11.5 C 62 % 4.48 C
2691 16-09-2008 22:29:02 11.5 C 61 % 4.25 C
2692 16-09-2008 22:34:02 11.5 C 61 % 4.25 C
2693 16-09-2008 22:39:02 11.4 C 61 % 4.16 C
2694 16-09-2008 22:44:02 11.4 C 61 % 4.16 C
2695 16-09-2008 22:49:02 11.4 C 61 % 4.16 C
2696 16-09-2008 22:54:02 11.4 C 62 % 4.39 C
2697 16-09-2008 22:59:02 11.3 C 62 % 4.29 C
2698 16-09-2008 23:04:02 11.3 C 62 % 4.29 C
2699 16-09-2008 23:09:03 11.3 C 62 % 4.29 C
2700 16-09-2008 23:14:03 11.3 C 62 % 4.29 C
Sensor: Nr:Datum:Temp:Feuchte:Taupunkt:
Aussen-T/F 2701 16-09-2008 23:19:03 11.3 C 62 % 4.29 C
2702 16-09-2008 23:24:03 11.3 C 63 % 4.52 C
2703 16-09-2008 23:29:03 11.2 C 64 % 4.65 C
2704 16-09-2008 23:34:03 11.2 C 63 % 4.43 C
2705 16-09-2008 23:39:03 11.2 C 64 % 4.65 C
2706 16-09-2008 23:44:03 11.2 C 64 % 4.65 C
2707 16-09-2008 23:49:03 11.2 C 64 % 4.65 C
2708 16-09-2008 23:54:03 11.2 C 62 % 4.2 C
2709 16-09-2008 23:59:03 11.2 C 62 % 4.2 C
2710 17-09-2008 00:04:03 11.2 C 64 % 4.65 C
2711 17-09-2008 00:09:03 11.1 C 64 % 4.56 C
2712 17-09-2008 00:14:03 11.1 C 65 % 4.78 C
2713 17-09-2008 00:19:03 11 C 65 % 4.68 C
2714 17-09-2008 00:24:03 11 C 65 % 4.68 C
2715 17-09-2008 00:29:03 10.9 C 67 % 5.02 C
2716 17-09-2008 00:34:03 10.9 C 67 % 5.02 C
2717 17-09-2008 00:39:03 10.9 C 67 % 5.02 C
2718 17-09-2008 00:44:03 10.9 C 67 % 5.02 C
2719 17-09-2008 00:49:03 10.9 C 67 % 5.02 C
2720 17-09-2008 00:54:04 10.8 C 67 % 4.93 C
2721 17-09-2008 00:59:04 10.8 C 67 % 4.93 C
2722 17-09-2008 01:04:04 10.8 C 67 % 4.93 C
2723 17-09-2008 01:09:04 10.7 C 67 % 4.83 C
2724 17-09-2008 01:14:04 10.6 C 67 % 4.74 C
2725 17-09-2008 01:19:04 10.5 C 67 % 4.64 C
Sensor: Nr:Datum:Temp:Feuchte:Taupunkt:
Aussen-T/F 2726 17-09-2008 01:24:04 10.5 C 67 % 4.64 C
2727 17-09-2008 01:29:04 10.5 C 66 % 4.43 C
2728 17-09-2008 01:34:04 10.4 C 63 % 3.67 C
2729 17-09-2008 01:39:04 10.5 C 61 % 3.31 C
2730 17-09-2008 01:44:04 10.5 C 61 % 3.31 C
2731 17-09-2008 01:49:04 10.5 C 62 % 3.54 C
2732 17-09-2008 01:54:04 10.5 C 62 % 3.54 C
2733 17-09-2008 01:59:04 10.4 C 63 % 3.67 C
2734 17-09-2008 02:04:04 10.3 C 63 % 3.58 C
2735 17-09-2008 02:09:04 10.3 C 63 % 3.58 C
2736 17-09-2008 02:14:04 10.3 C 64 % 3.8 C
2737 17-09-2008 02:19:04 10.2 C 64 % 3.7 C
2738 17-09-2008 02:24:04 10.1 C 64 % 3.61 C
2739 17-09-2008 02:29:04 10.1 C 64 % 3.61 C
2740 17-09-2008 02:34:05 10 C 64 % 3.51 C
2741 17-09-2008 02:39:05 10 C 64 % 3.51 C
2742 17-09-2008 02:44:05 9.9 C 66 % 3.86 C
2743 17-09-2008 02:49:05 9.7 C 67 % 3.88 C
2744 17-09-2008 02:54:05 9.5 C 66 % 3.47 C
2745 17-09-2008 02:59:05 9.3 C 66 % 3.28 C
2746 17-09-2008 03:04:05 9 C 66 % 3 C
2747 17-09-2008 03:09:05 8.8 C 67 % 3.02 C
2748 17-09-2008 03:14:05 8.6 C 68 % 3.04 C
2749 17-09-2008 03:19:05 8.3 C 68 % 2.75 C
2750 17-09-2008 03:24:05 8.2 C 69 % 2.86 C
Sensor: Nr:Datum:Temp:Feuchte:Taupunkt:
Aussen-T/F 2751 17-09-2008 03:29:05 8 C 69 % 2.67 C
2752 17-09-2008 03:34:05 7.9 C 71 % 2.98 C
2753 17-09-2008 03:39:05 7.8 C 71 % 2.88 C
2754 17-09-2008 03:44:05 7.7 C 72 % 2.98 C
2755 17-09-2008 03:49:05 7.6 C 72 % 2.88 C
2756 17-09-2008 03:54:05 7.6 C 73 % 3.08 C
2757 17-09-2008 03:59:05 7.5 C 73 % 2.98 C
2758 17-09-2008 04:04:05 7.4 C 73 % 2.89 C
2759 17-09-2008 04:09:05 7.3 C 74 % 2.98 C
2760 17-09-2008 04:14:05 7.2 C 74 % 2.89 C
2761 17-09-2008 04:19:06 7.2 C 74 % 2.89 C
2762 17-09-2008 04:24:06 7.1 C 74 % 2.79 C
2763 17-09-2008 04:29:06 7 C 74 % 2.69 C
2764 17-09-2008 04:34:06 6.9 C 75 % 2.78 C
2765 17-09-2008 04:39:06 6.9 C 75 % 2.78 C
2766 17-09-2008 04:44:06 6.9 C 74 % 2.6 C
2767 17-09-2008 04:49:06 6.9 C 74 % 2.6 C
2768 17-09-2008 04:54:06 6.9 C 73 % 2.4 C
2769 17-09-2008 04:59:06 6.9 C 73 % 2.4 C
2770 17-09-2008 05:04:06 6.9 C 73 % 2.4 C
2771 17-09-2008 05:09:06 6.8 C 73 % 2.31 C
2772 17-09-2008 05:14:06 6.7 C 73 % 2.21 C
2773 17-09-2008 05:19:06 6.5 C 73 % 2.02 C
2774 17-09-2008 05:24:06 6.5 C 74 % 2.21 C
2775 17-09-2008 05:29:06 6.6 C 75 % 2.49 C
Sensor: Nr:Datum:Temp:Feuchte:Taupunkt:
Aussen-T/F 2776 17-09-2008 05:34:06 6.6 C 76 % 2.68 C
2777 17-09-2008 05:39:06 6.5 C 76 % 2.58 C
2778 17-09-2008 05:44:06 6.4 C 76 % 2.49 C
2779 17-09-2008 05:49:06 6.3 C 77 % 2.57 C
2780 17-09-2008 05:54:06 6.3 C 77 % 2.57 C
2781 17-09-2008 05:59:06 6.2 C 78 % 2.66 C
2782 17-09-2008 06:04:07 6.2 C 78 % 2.66 C
2783 17-09-2008 06:09:07 6.1 C 78 % 2.56 C
2784 17-09-2008 06:14:07 6.1 C 78 % 2.56 C
2785 17-09-2008 06:19:07 6.1 C 79 % 2.74 C
2786 17-09-2008 06:24:07 6 C 79 % 2.64 C
2787 17-09-2008 06:29:07 5.9 C 80 % 2.72 C
2788 17-09-2008 06:34:07 5.7 C 80 % 2.53 C
2789 17-09-2008 06:39:07 5.7 C 79 % 2.35 C
2790 17-09-2008 06:44:07 5.7 C 80 % 2.53 C
2791 17-09-2008 06:49:07 5.7 C 80 % 2.53 C
2792 17-09-2008 06:54:07 5.7 C 80 % 2.53 C
2793 17-09-2008 06:59:07 5.7 C 80 % 2.53 C
2794 17-09-2008 07:04:01 5.6 C 80 % 2.43 C
2795 17-09-2008 07:09:01 5.6 C 80 % 2.43 C
2796 17-09-2008 07:14:01 5.6 C 81 % 2.6 C
2797 17-09-2008 07:19:01 5.6 C 81 % 2.6 C
2798 17-09-2008 07:24:01 5.5 C 81 % 2.51 C
2799 17-09-2008 07:29:01 5.5 C 81 % 2.51 C
2800 17-09-2008 07:34:02 5.6 C 81 % 2.6 C
Sensor: Nr:Datum:Temp:Feuchte:Taupunkt:
Aussen-T/F 2801 17-09-2008 07:39:02 5.6 C 81 % 2.6 C
2802 17-09-2008 07:44:02 5.7 C 82 % 2.87 C
2803 17-09-2008 07:49:03 5.7 C 82 % 2.87 C
2804 17-09-2008 07:54:03 5.8 C 82 % 2.97 C
2805 17-09-2008 07:59:03 5.8 C 83 % 3.14 C
2806 17-09-2008 08:04:02 5.8 C 83 % 3.14 C
2807 17-09-2008 08:09:02 5.9 C 83 % 3.24 C
2808 17-09-2008 08:14:02 6 C 82 % 3.17 C
2809 17-09-2008 08:19:03 6.1 C 82 % 3.26 C
2810 17-09-2008 08:24:03 6.4 C 83 % 3.73 C
2811 17-09-2008 08:29:03 6.5 C 83 % 3.83 C
2812 17-09-2008 08:34:02 6.6 C 83 % 3.92 C
2813 17-09-2008 08:39:02 6.8 C 82 % 3.95 C
2814 17-09-2008 08:44:02 6.9 C 82 % 4.05 C
2815 17-09-2008 08:49:01 6.9 C 82 % 4.05 C
2816 17-09-2008 08:54:01 7.1 C 81 % 4.07 C
2817 17-09-2008 08:59:01 7.2 C 81 % 4.16 C
2818 17-09-2008 09:04:02 7.3 C 80 % 4.09 C
2819 17-09-2008 09:09:02 7.4 C 80 % 4.18 C
2820 17-09-2008 09:14:02 7.4 C 79 % 4 C
2821 17-09-2008 09:19:01 7.5 C 79 % 4.1 C
2822 17-09-2008 09:24:01 7.7 C 79 % 4.3 C
2823 17-09-2008 09:29:01 7.9 C 78 % 4.31 C
2824 17-09-2008 09:34:02 8 C 77 % 4.22 C
2825 17-09-2008 09:39:02 8.1 C 76 % 4.13 C
Sensor: Nr:Datum:Temp:Feuchte:Taupunkt:
Aussen-T/F 2826 17-09-2008 09:44:02 8.3 C 76 % 4.33 C
2827 17-09-2008 09:49:02 8.5 C 75 % 4.33 C
2828 17-09-2008 09:54:02 8.6 C 75 % 4.43 C
2829 17-09-2008 09:59:02 8.8 C 74 % 4.43 C
2830 17-09-2008 10:04:02 9 C 73 % 4.43 C
2831 17-09-2008 10:09:02 9.3 C 72 % 4.52 C
2832 17-09-2008 10:14:02 9.4 C 72 % 4.62 C
2833 17-09-2008 10:19:03 9.7 C 71 % 4.7 C
2834 17-09-2008 10:24:03 10 C 69 % 4.58 C
2835 17-09-2008 10:29:03 10.2 C 69 % 4.78 C
2836 17-09-2008 10:34:02 10.4 C 68 % 4.76 C
2837 17-09-2008 10:39:02 10.8 C 67 % 4.93 C
2838 17-09-2008 10:44:02 11 C 66 % 4.9 C
2839 17-09-2008 10:49:01 11.2 C 65 % 4.87 C
2840 17-09-2008 10:54:01 11.5 C 60 % 4.02 C
2841 17-09-2008 10:59:01 11.7 C 55 % 2.97 C
2842 17-09-2008 11:04:02 11.8 C 55 % 3.07 C
2843 17-09-2008 11:09:02 12.1 C 54 % 3.09 C
2844 17-09-2008 11:14:02 12.3 C 51 % 2.47 C
2845 17-09-2008 11:19:01 12.4 C 51 % 2.56 C
2846 17-09-2008 11:24:01 12.7 C 50 % 2.56 C
2847 17-09-2008 11:29:01 12.9 C 49 % 2.46 C
2848 17-09-2008 11:34:02 13.1 C 47 % 2.06 C
2849 17-09-2008 11:39:02 13.2 C 46 % 1.85 C
2850 17-09-2008 11:44:02 13.4 C 44 % 1.41 C
Sensor: Nr:Datum:Temp:Feuchte:Taupunkt:
Aussen-T/F 2851 17-09-2008 11:49:02 13.5 C 43 % 1.18 C
2852 17-09-2008 11:54:02 13.7 C 42 % 1.04 C
2853 17-09-2008 11:59:02 13.9 C 41 % 0.88 C
2854 17-09-2008 12:04:02 14 C 39 % 0.28 C
2855 17-09-2008 12:09:02 14 C 40 % 0.63 C
2856 17-09-2008 12:14:02 14.2 C 40 % 0.81 C
2857 17-09-2008 12:19:02 14.3 C 40 % 0.9 C
2858 17-09-2008 12:24:02 14.3 C 39 % 0.55 C
2859 17-09-2008 12:29:02 14.3 C 39 % 0.55 C
2860 17-09-2008 12:34:02 14.4 C 40 % 0.99 C
2861 17-09-2008 12:39:02 14.7 C 41 % 1.6 C
2862 17-09-2008 12:44:02 14.9 C 40 % 1.44 C
2863 17-09-2008 12:49:02 14.9 C 38 % 0.73 C
2864 17-09-2008 12:54:02 15 C 37 % 0.45 C
2865 17-09-2008 12:59:02 15.2 C 38 % 0.99 C
2866 17-09-2008 13:04:02 15.4 C 38 % 1.17 C
2867 17-09-2008 13:09:03 15.7 C 38 % 1.44 C
2868 17-09-2008 13:14:03 15.9 C 38 % 1.62 C
2869 17-09-2008 13:19:02 16.3 C 36 % 1.22 C
2870 17-09-2008 13:24:02 16.6 C 35 % 1.09 C
2871 17-09-2008 13:29:02 16.5 C 35 % 1.01 C
2872 17-09-2008 13:34:02 16.7 C 35 % 1.18 C
2873 17-09-2008 13:39:02 16.8 C 34 % 0.87 C
2874 17-09-2008 13:44:02 16.7 C 34 % 0.78 C
2875 17-09-2008 13:49:02 16.7 C 35 % 1.18 C
Sensor: Nr:Datum:Temp:Feuchte:Taupunkt:
Aussen-T/F 2876 17-09-2008 13:54:02 16.9 C 35 % 1.36 C
2877 17-09-2008 13:59:03 17 C 33 % 0.63 C
2878 17-09-2008 14:04:01 17.1 C 33 % 0.72 C
2879 17-09-2008 14:09:01 17.6 C 34 % 1.57 C
2880 17-09-2008 14:14:01 17.9 C 33 % 1.42 C
2881 17-09-2008 14:19:02 17.7 C 32 % 0.82 C
2882 17-09-2008 14:24:02 17.7 C 33 % 1.24 C
2883 17-09-2008 14:29:02 17.6 C 32 % 0.73 C
2884 17-09-2008 14:34:01 17.7 C 33 % 1.24 C
2885 17-09-2008 14:39:01 17.8 C 32 % 0.9 C
2886 17-09-2008 14:44:01 17.9 C 32 % 0.99 C
2887 17-09-2008 14:49:01 18 C 32 % 1.08 C
2888 17-09-2008 14:54:01 18.2 C 30 % 0.36 C
2889 17-09-2008 14:59:01 18.2 C 30 % 0.36 C
2890 17-09-2008 15:04:02 18.4 C 30 % 0.53 C
2891 17-09-2008 15:09:03 18.6 C 30 % 0.71 C
2892 17-09-2008 15:14:03 19 C 29 % 0.58 C
2893 17-09-2008 15:19:01 18.8 C 28 % -0.07 C
2894 17-09-2008 15:24:01 18.9 C 28 % 0.01 C
2895 17-09-2008 15:29:01 19.2 C 28 % 0.27 C
2896 17-09-2008 15:34:02 19.3 C 28 % 0.36 C
2897 17-09-2008 15:39:02 19.5 C 28 % 0.53 C
2898 17-09-2008 15:44:02 19.4 C 26 % -0.57 C
2899 17-09-2008 15:49:02 19.4 C 27 % -0.06 C
2900 17-09-2008 15:54:02 19.5 C 26 % -0.49 C
Sensor: Nr:Datum:Temp:Feuchte:Taupunkt:
Aussen-T/F 2901 17-09-2008 15:59:03 19.5 C 26 % -0.49 C
2902 17-09-2008 16:04:02 19.3 C 26 % -0.66 C
2903 17-09-2008 16:09:02 18.9 C 27 % -0.48 C
2904 17-09-2008 16:14:02 19 C 27 % -0.4 C
2905 17-09-2008 16:19:02 19 C 27 % -0.4 C
2906 17-09-2008 16:24:02 19.1 C 28 % 0.19 C
2907 17-09-2008 16:29:02 19.2 C 28 % 0.27 C
2908 17-09-2008 16:34:02 19.4 C 28 % 0.44 C
2909 17-09-2008 16:39:02 19.4 C 27 % -0.06 C
2910 17-09-2008 16:44:02 19.4 C 27 % -0.06 C
2911 17-09-2008 16:49:02 19.1 C 27 % -0.31 C
2912 17-09-2008 16:54:02 18.7 C 27 % -0.66 C
2913 17-09-2008 16:59:02 18.4 C 27 % -0.91 C
2914 17-09-2008 17:04:02 18.3 C 27 % -1 C
2915 17-09-2008 17:09:02 18.2 C 29 % -0.11 C
2916 17-09-2008 17:14:03 18.5 C 30 % 0.62 C
2917 17-09-2008 17:19:02 18.6 C 29 % 0.24 C
2918 17-09-2008 17:24:02 18.4 C 29 % 0.07 C
2919 17-09-2008 17:29:02 18.2 C 29 % -0.11 C
2920 17-09-2008 17:34:03 18.2 C 30 % 0.36 C
2921 17-09-2008 17:39:03 18.1 C 29 % -0.19 C
2922 17-09-2008 17:44:03 18.1 C 29 % -0.19 C
2923 17-09-2008 17:49:02 17.6 C 30 % -0.16 C
2924 17-09-2008 17:54:02 17.6 C 30 % -0.16 C
2925 17-09-2008 17:59:02 17.5 C 30 % -0.25 C
Sensor: Nr:Datum:Temp:Feuchte:Taupunkt:
Aussen-T/F 2926 17-09-2008 18:04:02 17.2 C 31 % -0.06 C
2927 17-09-2008 18:09:02 17.1 C 31 % -0.14 C
2928 17-09-2008 18:14:02 16.8 C 31 % -0.4 C
2929 17-09-2008 18:19:02 16.3 C 31 % -0.84 C
2930 17-09-2008 18:24:02 16.2 C 32 % -0.49 C
2931 17-09-2008 18:29:02 16 C 33 % -0.24 C
2932 17-09-2008 18:34:02 15.7 C 35 % 0.3 C
2933 17-09-2008 18:39:02 15.6 C 35 % 0.21 C
2934 17-09-2008 18:44:02 15.4 C 35 % 0.04 C
2935 17-09-2008 18:49:02 15.1 C 37 % 0.54 C
2936 17-09-2008 18:54:02 14.9 C 39 % 1.09 C
2937 17-09-2008 18:59:02 14.8 C 40 % 1.35 C
2938 17-09-2008 19:04:03 14.5 C 40 % 1.08 C
2939 17-09-2008 19:09:03 14 C 42 % 1.31 C
2940 17-09-2008 19:14:03 13.7 C 44 % 1.68 C
2941 17-09-2008 19:19:02 13.3 C 45 % 1.63 C
2942 17-09-2008 19:24:02 12.8 C 45 % 1.18 C
2943 17-09-2008 19:29:02 12.7 C 46 % 1.39 C
2944 17-09-2008 19:34:02 12.4 C 47 % 1.42 C
2945 17-09-2008 19:39:02 12.1 C 47 % 1.14 C
2946 17-09-2008 19:44:02 11.9 C 48 % 1.25 C
2947 17-09-2008 19:49:01 11.6 C 49 % 1.26 C
2948 17-09-2008 19:54:01 11.3 C 50 % 1.27 C
2949 17-09-2008 19:59:01 11.1 C 51 % 1.36 C
2950 17-09-2008 20:04:02 11 C 51 % 1.27 C
Sensor: Nr:Datum:Temp:Feuchte:Taupunkt:
Aussen-T/F 2951 17-09-2008 20:09:02 10.8 C 53 % 1.62 C
2952 17-09-2008 20:14:02 10.6 C 53 % 1.43 C
2953 17-09-2008 20:19:02 10.5 C 53 % 1.34 C
2954 17-09-2008 20:24:02 10.4 C 54 % 1.51 C
2955 17-09-2008 20:29:03 10.2 C 55 % 1.58 C
2956 17-09-2008 20:34:01 10.1 C 55 % 1.48 C
2957 17-09-2008 20:39:01 9.9 C 57 % 1.79 C
2958 17-09-2008 20:44:01 9.8 C 57 % 1.7 C
2959 17-09-2008 20:49:02 9.7 C 57 % 1.61 C
2960 17-09-2008 20:54:02 9.7 C 57 % 1.61 C
2961 17-09-2008 20:59:02 9.7 C 57 % 1.61 C
2962 17-09-2008 21:04:01 9.8 C 58 % 1.94 C
2963 17-09-2008 21:09:01 9.8 C 58 % 1.94 C
2964 17-09-2008 21:14:01 9.6 C 58 % 1.75 C
2965 17-09-2008 21:19:01 9.5 C 58 % 1.66 C
2966 17-09-2008 21:24:01 9.5 C 58 % 1.66 C
2967 17-09-2008 21:29:01 9.4 C 57 % 1.33 C
2968 17-09-2008 21:34:02 9.4 C 58 % 1.57 C
2969 17-09-2008 21:39:03 9.4 C 58 % 1.57 C
2970 17-09-2008 21:44:03 9.3 C 57 % 1.23 C
2971 17-09-2008 21:49:02 9.4 C 57 % 1.33 C
2972 17-09-2008 21:54:02 9.3 C 57 % 1.23 C
2973 17-09-2008 21:59:02 9.2 C 57 % 1.14 C
2974 17-09-2008 22:04:02 9.1 C 57 % 1.04 C
2975 17-09-2008 22:09:02 9.1 C 57 % 1.04 C
Sensor: Nr:Datum:Temp:Feuchte:Taupunkt:
Aussen-T/F 2976 17-09-2008 22:14:02 9.1 C 57 % 1.04 C
2977 17-09-2008 22:19:02 8.9 C 58 % 1.1 C
2978 17-09-2008 22:24:02 8.7 C 59 % 1.15 C
2979 17-09-2008 22:29:03 8.6 C 59 % 1.05 C
2980 17-09-2008 22:35:03 8.6 C 59 % 1.05 C
2981 17-09-2008 22:40:03 8.5 C 60 % 1.19 C
2982 17-09-2008 22:45:03 8.4 C 60 % 1.1 C
2983 17-09-2008 22:50:03 8.4 C 60 % 1.1 C
2984 17-09-2008 22:55:04 8.3 C 61 % 1.23 C
2985 17-09-2008 23:00:04 8.1 C 61 % 1.05 C
2986 17-09-2008 23:05:04 8.1 C 61 % 1.05 C
2987 17-09-2008 23:10:04 8 C 61 % 0.95 C
2988 17-09-2008 23:15:04 8 C 62 % 1.18 C
2989 17-09-2008 23:20:04 7.9 C 62 % 1.08 C
2990 17-09-2008 23:25:04 7.9 C 62 % 1.08 C
2991 17-09-2008 23:30:04 7.8 C 63 % 1.21 C
2992 17-09-2008 23:35:04 7.8 C 63 % 1.21 C
2993 17-09-2008 23:40:04 7.7 C 63 % 1.11 C
2994 17-09-2008 23:45:04 7.7 C 63 % 1.11 C
2995 17-09-2008 23:50:04 7.5 C 63 % 0.92 C
2996 17-09-2008 23:55:04 7.5 C 63 % 0.92 C
2997 18-09-2008 00:00:04 7.4 C 64 % 1.05 C
2998 18-09-2008 00:05:04 7.4 C 64 % 1.05 C
2999 18-09-2008 00:10:04 7.4 C 64 % 1.05 C
3000 18-09-2008 00:15:04 7.3 C 64 % 0.95 C
Sensor: Nr:Datum:Temp:Feuchte:Taupunkt:
Aussen-T/F 3001 18-09-2008 00:20:04 7.2 C 65 % 1.07 C
3002 18-09-2008 00:25:04 7.1 C 66 % 1.19 C
3003 18-09-2008 00:30:05 7 C 66 % 1.09 C
3004 18-09-2008 00:35:05 7 C 66 % 1.09 C
3005 18-09-2008 00:40:05 6.9 C 67 % 1.21 C
3006 18-09-2008 00:45:05 6.7 C 67 % 1.02 C
3007 18-09-2008 00:50:05 6.6 C 69 % 1.33 C
3008 18-09-2008 00:55:05 6.6 C 69 % 1.33 C
3009 18-09-2008 01:00:05 6.6 C 70 % 1.53 C
3010 18-09-2008 01:05:05 6.5 C 70 % 1.43 C
3011 18-09-2008 01:10:05 6.4 C 70 % 1.34 C
3012 18-09-2008 01:15:05 6.3 C 70 % 1.24 C
3013 18-09-2008 01:20:05 6.3 C 71 % 1.44 C
3014 18-09-2008 01:25:05 6.2 C 71 % 1.34 C
3015 18-09-2008 01:30:05 6.2 C 71 % 1.34 C
3016 18-09-2008 01:35:05 6.1 C 71 % 1.25 C
3017 18-09-2008 01:40:05 6 C 72 % 1.35 C
3018 18-09-2008 01:45:05 5.9 C 73 % 1.44 C
3019 18-09-2008 01:50:05 5.9 C 73 % 1.44 C
3020 18-09-2008 01:55:05 5.9 C 73 % 1.44 C
3021 18-09-2008 02:00:05 5.9 C 73 % 1.44 C
3022 18-09-2008 02:05:06 5.8 C 74 % 1.53 C
3023 18-09-2008 02:10:06 5.8 C 74 % 1.53 C
3024 18-09-2008 02:15:06 5.7 C 74 % 1.44 C
3025 18-09-2008 02:20:06 5.7 C 74 % 1.44 C
Sensor: Nr:Datum:Temp:Feuchte:Taupunkt:
Aussen-T/F 3026 18-09-2008 02:25:06 5.7 C 75 % 1.62 C
3027 18-09-2008 02:30:06 5.7 C 75 % 1.62 C
3028 18-09-2008 02:35:06 5.6 C 75 % 1.53 C
3029 18-09-2008 02:40:06 5.6 C 75 % 1.53 C
3030 18-09-2008 02:45:06 5.5 C 76 % 1.62 C
3031 18-09-2008 02:50:06 5.4 C 76 % 1.52 C
3032 18-09-2008 02:55:06 5.4 C 76 % 1.52 C
3033 18-09-2008 03:00:06 5.3 C 76 % 1.42 C
3034 18-09-2008 03:05:06 5.3 C 76 % 1.42 C
3035 18-09-2008 03:10:06 5.3 C 76 % 1.42 C
3036 18-09-2008 03:15:06 5.3 C 76 % 1.42 C
3037 18-09-2008 03:20:06 5.3 C 76 % 1.42 C
3038 18-09-2008 03:25:06 5.3 C 76 % 1.42 C
3039 18-09-2008 03:30:06 5.3 C 76 % 1.42 C
3040 18-09-2008 03:35:06 5.3 C 77 % 1.6 C
3041 18-09-2008 03:40:07 5.3 C 77 % 1.6 C
3042 18-09-2008 03:45:07 5.2 C 78 % 1.69 C
3043 18-09-2008 03:50:07 5.2 C 78 % 1.69 C
3044 18-09-2008 03:55:07 5.2 C 78 % 1.69 C
3045 18-09-2008 04:00:07 5.2 C 78 % 1.69 C
3046 18-09-2008 04:05:07 5.2 C 79 % 1.86 C
3047 18-09-2008 04:10:07 5.2 C 79 % 1.86 C
3048 18-09-2008 04:15:07 5.2 C 79 % 1.86 C
3049 18-09-2008 04:20:07 5.2 C 80 % 2.04 C
3050 18-09-2008 04:25:07 5.2 C 80 % 2.04 C
Sensor: Nr:Datum:Temp:Feuchte:Taupunkt:
Aussen-T/F 3051 18-09-2008 04:30:07 5.2 C 79 % 1.86 C
3052 18-09-2008 04:35:07 5.2 C 79 % 1.86 C
3053 18-09-2008 04:40:07 5.1 C 79 % 1.77 C
3054 18-09-2008 04:45:07 5.1 C 79 % 1.77 C
3055 18-09-2008 04:50:07 5.2 C 79 % 1.86 C
3056 18-09-2008 04:55:07 5.2 C 79 % 1.86 C
3057 18-09-2008 05:00:07 5 C 78 % 1.49 C
3058 18-09-2008 05:05:07 5 C 78 % 1.49 C
3059 18-09-2008 05:10:07 5 C 78 % 1.49 C
3060 18-09-2008 05:15:07 5.2 C 78 % 1.69 C
3061 18-09-2008 05:20:08 5.1 C 78 % 1.59 C
3062 18-09-2008 05:25:08 5.2 C 78 % 1.69 C
3063 18-09-2008 05:30:08 5.2 C 78 % 1.69 C
3064 18-09-2008 05:35:08 5.2 C 77 % 1.51 C
3065 18-09-2008 05:40:08 5.1 C 77 % 1.41 C
3066 18-09-2008 05:45:08 5.2 C 77 % 1.51 C
3067 18-09-2008 05:50:08 5.2 C 77 % 1.51 C
3068 18-09-2008 05:55:08 5.2 C 77 % 1.51 C
3069 18-09-2008 06:00:08 5.2 C 78 % 1.69 C
3070 18-09-2008 06:05:08 5.3 C 78 % 1.78 C
3071 18-09-2008 06:10:08 5.3 C 78 % 1.78 C
3072 18-09-2008 06:15:08 5.3 C 78 % 1.78 C
3073 18-09-2008 06:20:08 5.3 C 78 % 1.78 C
3074 18-09-2008 06:25:08 5.3 C 78 % 1.78 C
3075 18-09-2008 06:30:08 5.3 C 78 % 1.78 C
Sensor: Nr:Datum:Temp:Feuchte:Taupunkt:
Aussen-T/F 3076 18-09-2008 06:35:08 5.3 C 78 % 1.78 C
3077 18-09-2008 06:40:08 5.3 C 79 % 1.96 C
3078 18-09-2008 06:45:08 5.2 C 79 % 1.86 C
3079 18-09-2008 06:50:08 5.2 C 79 % 1.86 C
3080 18-09-2008 06:55:09 5.1 C 79 % 1.77 C
3081 18-09-2008 07:00:09 5.1 C 79 % 1.77 C
3082 18-09-2008 07:05:03 5.1 C 79 % 1.77 C
3083 18-09-2008 07:10:03 5.2 C 79 % 1.86 C
3084 18-09-2008 07:15:02 5 C 78 % 1.49 C
3085 18-09-2008 07:20:02 5 C 78 % 1.49 C
3086 18-09-2008 07:25:02 5.2 C 78 % 1.69 C
3087 18-09-2008 07:30:02 5.2 C 78 % 1.69 C
3088 18-09-2008 07:35:03 5.2 C 78 % 1.69 C
3089 18-09-2008 07:40:03 5.1 C 78 % 1.59 C
3090 18-09-2008 07:45:02 5.2 C 78 % 1.69 C
3091 18-09-2008 07:50:02 5.3 C 78 % 1.78 C
3092 18-09-2008 07:55:02 5.4 C 78 % 1.88 C
3093 18-09-2008 08:00:02 5.6 C 78 % 2.07 C
3094 18-09-2008 08:05:01 5.7 C 78 % 2.17 C
3095 18-09-2008 08:10:01 5.8 C 78 % 2.27 C
3096 18-09-2008 08:15:02 6 C 77 % 2.28 C
3097 18-09-2008 08:20:02 6.2 C 77 % 2.48 C
3098 18-09-2008 08:25:02 6.2 C 77 % 2.48 C
3099 18-09-2008 08:30:02 6.3 C 77 % 2.57 C
3100 18-09-2008 08:35:01 6.4 C 76 % 2.49 C
Sensor: Nr:Datum:Temp:Feuchte:Taupunkt:
Aussen-T/F 3101 18-09-2008 08:40:01 6.6 C 76 % 2.68 C
3102 18-09-2008 08:45:01 6.7 C 76 % 2.78 C
3103 18-09-2008 08:50:01 6.8 C 75 % 2.69 C
3104 18-09-2008 08:55:01 7 C 73 % 2.5 C
3105 18-09-2008 09:00:01 7.1 C 73 % 2.6 C
3106 18-09-2008 09:05:02 7.2 C 70 % 2.11 C
3107 18-09-2008 09:10:02 7.3 C 67 % 1.59 C
3108 18-09-2008 09:15:01 7.3 C 67 % 1.59 C
3109 18-09-2008 09:20:01 7.5 C 66 % 1.57 C
3110 18-09-2008 09:25:01 7.5 C 65 % 1.36 C
3111 18-09-2008 09:30:01 7.6 C 65 % 1.45 C
3112 18-09-2008 09:35:02 7.8 C 65 % 1.64 C
3113 18-09-2008 09:40:02 8.1 C 64 % 1.71 C
3114 18-09-2008 09:45:02 8.3 C 62 % 1.46 C
3115 18-09-2008 09:50:02 8.4 C 62 % 1.55 C
3116 18-09-2008 09:55:02 8.7 C 61 % 1.61 C
3117 18-09-2008 10:00:02 8.9 C 59 % 1.34 C
3118 18-09-2008 10:05:02 9 C 58 % 1.19 C
3119 18-09-2008 10:10:02 9.2 C 55 % 0.64 C
3120 18-09-2008 10:15:03 9.5 C 53 % 0.41 C
3121 18-09-2008 10:20:03 9.6 C 51 % -0.03 C
3122 18-09-2008 10:25:03 10 C 50 % 0.07 C
3123 18-09-2008 10:30:03 10.3 C 47 % -0.5 C
3124 18-09-2008 10:35:02 10.5 C 48 % -0.03 C
3125 18-09-2008 10:40:02 10.6 C 47 % -0.23 C
Sensor: Nr:Datum:Temp:Feuchte:Taupunkt:
Aussen-T/F 3126 18-09-2008 10:45:01 10.8 C 45 % -0.64 C
3127 18-09-2008 10:50:01 10.9 C 46 % -0.25 C
3128 18-09-2008 10:55:01 11 C 45 % -0.46 C
3129 18-09-2008 11:00:01 11.1 C 44 % -0.68 C
3130 18-09-2008 11:05:02 11.2 C 44 % -0.58 C
3131 18-09-2008 11:10:02 11.2 C 44 % -0.58 C
3132 18-09-2008 11:15:01 11.3 C 43 % -0.81 C
3133 18-09-2008 11:20:01 11.3 C 43 % -0.81 C
3134 18-09-2008 11:25:01 11.5 C 44 % -0.31 C
3135 18-09-2008 11:30:01 11.7 C 43 % -0.45 C
3136 18-09-2008 11:35:01 11.9 C 42 % -0.59 C
3137 18-09-2008 11:40:01 12.2 C 42 % -0.32 C
3138 18-09-2008 11:45:02 12.3 C 42 % -0.23 C
3139 18-09-2008 11:50:02 12.5 C 41 % -0.38 C
3140 18-09-2008 11:55:02 12.7 C 41 % -0.2 C
3141 18-09-2008 12:00:02 12.9 C 41 % -0.02 C
3142 18-09-2008 12:05:02 13.1 C 40 % -0.18 C
3143 18-09-2008 12:10:02 13.3 C 38 % -0.7 C
3144 18-09-2008 12:15:03 13.4 C 39 % -0.25 C
3145 18-09-2008 12:20:03 13.6 C 38 % -0.43 C
3146 18-09-2008 12:25:03 13.8 C 36 % -0.99 C
3147 18-09-2008 12:30:03 14 C 35 % -1.2 C
3148 18-09-2008 12:35:02 14 C 34 % -1.59 C
3149 18-09-2008 12:40:03 14.1 C 32 % -2.32 C
3150 18-09-2008 12:45:01 14.2 C 32 % -2.24 C
Sensor: Nr:Datum:Temp:Feuchte:Taupunkt:
Aussen-T/F 3151 18-09-2008 12:50:01 14.2 C 31 % -2.66 C
3152 18-09-2008 12:55:01 14.2 C 31 % -2.66 C
3153 18-09-2008 13:00:01 14.2 C 31 % -2.66 C
3154 18-09-2008 13:05:01 14.2 C 31 % -2.66 C
3155 18-09-2008 13:10:01 14.2 C 31 % -2.66 C
3156 18-09-2008 13:15:02 14.1 C 30 % -3.19 C
3157 18-09-2008 13:20:02 14.1 C 30 % -3.19 C
3158 18-09-2008 13:25:03 14.4 C 30 % -2.93 C
3159 18-09-2008 13:30:03 14.6 C 30 % -2.76 C
3160 18-09-2008 13:35:01 14.7 C 30 % -2.67 C
3161 18-09-2008 13:40:01 14.8 C 30 % -2.58 C
3162 18-09-2008 13:45:01 14.9 C 30 % -2.5 C
3163 18-09-2008 13:50:01 15.3 C 30 % -2.15 C
3164 18-09-2008 13:55:01 15.4 C 28 % -2.99 C
3165 18-09-2008 14:00:01 15.6 C 28 % -2.82 C
3166 18-09-2008 14:05:02 15.7 C 28 % -2.73 C
3167 18-09-2008 14:10:03 16.1 C 27 % -2.88 C
3168 18-09-2008 14:15:01 16.2 C 26 % -3.3 C
3169 18-09-2008 14:20:01 16.4 C 26 % -3.13 C
3170 18-09-2008 14:25:01 16.6 C 27 % -2.45 C
3171 18-09-2008 14:30:01 16.9 C 27 % -2.19 C
3172 18-09-2008 14:35:02 17.1 C 25 % -3.06 C
3173 18-09-2008 14:40:02 17.4 C 26 % -2.28 C
3174 18-09-2008 14:45:02 17.5 C 25 % -2.72 C
3175 18-09-2008 14:50:03 17.6 C 26 % -2.11 C
Sensor: Nr:Datum:Temp:Feuchte:Taupunkt:
Aussen-T/F 3176 18-09-2008 14:55:03 17.7 C 25 % -2.55 C
3177 18-09-2008 15:00:03 17.6 C 24 % -3.18 C
3178 18-09-2008 15:05:02 17.7 C 26 % -2.02 C
3179 18-09-2008 15:10:02 18 C 25 % -2.3 C
3180 18-09-2008 15:15:02 18.1 C 25 % -2.21 C
3181 18-09-2008 15:20:02 18.2 C 24 % -2.68 C
3182 18-09-2008 15:25:02 18.4 C 25 % -1.96 C
3183 18-09-2008 15:30:02 18.6 C 25 % -1.79 C
3184 18-09-2008 15:35:02 18.7 C 25 % -1.7 C
3185 18-09-2008 15:40:02 19.1 C 23 % -2.49 C
3186 18-09-2008 15:45:02 19.4 C 21 % -3.46 C
3187 18-09-2008 15:50:02 19.5 C 21 % -3.38 C
3188 18-09-2008 15:55:02 19.1 C 21 % -3.71 C
3189 18-09-2008 16:00:02 19.1 C 22 % -3.09 C
3190 18-09-2008 16:05:02 19.3 C 23 % -2.32 C
3191 18-09-2008 16:10:02 19.5 C 23 % -2.16 C
3192 18-09-2008 16:15:02 19.7 C 21 % -3.21 C
3193 18-09-2008 16:20:02 19.6 C 21 % -3.29 C
3194 18-09-2008 16:25:02 20 C 21 % -2.96 C
3195 18-09-2008 16:30:02 20 C 20 % -3.61 C
3196 18-09-2008 16:35:02 20.1 C 20 % -3.53 C
3197 18-09-2008 16:40:02 20.3 C 21 % -2.71 C
3198 18-09-2008 16:45:02 20.2 C 20 % -3.45 C
3199 18-09-2008 16:50:02 20.4 C 20 % -3.28 C
3200 18-09-2008 16:55:02 20.3 C 20 % -3.37 C
Sensor: Nr:Datum:Temp:Feuchte:Taupunkt:
Aussen-T/F 3201 18-09-2008 17:00:02 20.3 C 20 % -3.37 C
3202 18-09-2008 17:05:02 20.5 C 21 % -2.55 C
3203 18-09-2008 17:10:02 20.6 C 20 % -3.12 C
3204 18-09-2008 17:15:02 20.3 C 20 % -3.37 C
3205 18-09-2008 17:20:02 20.2 C 20 % -3.45 C
3206 18-09-2008 17:25:02 20.2 C 20 % -3.45 C
3207 18-09-2008 17:30:02 20.2 C 20 % -3.45 C
3208 18-09-2008 17:35:02 20.1 C 20 % -3.53 C
3209 18-09-2008 17:40:02 20.1 C 20 % -3.53 C
3210 18-09-2008 17:45:02 19.8 C 20 % -3.78 C
3211 18-09-2008 17:50:02 19.8 C 20 % -3.78 C
3212 18-09-2008 17:55:02 19.8 C 20 % -3.78 C
3213 18-09-2008 18:00:02 19.8 C 20 % -3.78 C
3214 18-09-2008 18:05:02 19.7 C 20 % -3.86 C
3215 18-09-2008 18:10:02 19.8 C 22 % -2.5 C
3216 18-09-2008 18:15:02 19.7 C 23 % -1.99 C
3217 18-09-2008 18:20:02 19.8 C 22 % -2.5 C
3218 18-09-2008 18:25:02 19.4 C 25 % -1.11 C
3219 18-09-2008 18:30:02 19 C 26 % -0.92 C
3220 18-09-2008 18:35:01 18.9 C 27 % -0.48 C
3221 18-09-2008 18:40:01 18.5 C 28 % -0.33 C
3222 18-09-2008 18:45:02 18.1 C 30 % 0.27 C
3223 18-09-2008 18:50:02 17.8 C 30 % 0.01 C
3224 18-09-2008 18:55:02 17.5 C 31 % 0.2 C
3225 18-09-2008 19:00:02 17.1 C 33 % 0.72 C
Sensor: Nr:Datum:Temp:Feuchte:Taupunkt:
Aussen-T/F 3226 18-09-2008 19:05:02 16.7 C 33 % 0.37 C
3227 18-09-2008 19:10:02 16.2 C 34 % 0.34 C
3228 18-09-2008 19:15:02 15.6 C 35 % 0.21 C
3229 18-09-2008 19:20:02 15.3 C 35 % -0.05 C
3230 18-09-2008 19:25:02 14.6 C 37 % 0.09 C
3231 18-09-2008 19:30:02 14.1 C 38 % 0.01 C
3232 18-09-2008 19:35:02 13.5 C 39 % -0.17 C
3233 18-09-2008 19:40:02 13.2 C 40 % -0.09 C
3234 18-09-2008 19:45:02 12.7 C 42 % 0.13 C
3235 18-09-2008 19:50:02 12.3 C 43 % 0.1 C
3236 18-09-2008 19:55:02 12.2 C 45 % 0.63 C
3237 18-09-2008 20:00:02 11.9 C 46 % 0.66 C
3238 18-09-2008 20:05:02 11.6 C 47 % 0.69 C
3239 18-09-2008 20:10:02 11.5 C 48 % 0.89 C
3240 18-09-2008 20:15:02 11.2 C 50 % 1.18 C
3241 18-09-2008 20:20:02 10.9 C 52 % 1.44 C
3242 18-09-2008 20:25:02 10.8 C 53 % 1.62 C
3243 18-09-2008 20:30:03 10.8 C 53 % 1.62 C
3244 18-09-2008 20:35:02 10.7 C 53 % 1.52 C
3245 18-09-2008 20:40:02 10.6 C 53 % 1.43 C
3246 18-09-2008 20:45:02 10.6 C 53 % 1.43 C
3247 18-09-2008 20:50:02 10.6 C 54 % 1.69 C
3248 18-09-2008 20:55:02 10.5 C 55 % 1.85 C
3249 18-09-2008 21:00:02 10.4 C 55 % 1.76 C
3250 18-09-2008 21:05:02 10.2 C 55 % 1.58 C
Sensor: Nr:Datum:Temp:Feuchte:Taupunkt:
Aussen-T/F 3251 18-09-2008 21:10:02 10.2 C 56 % 1.83 C
3252 18-09-2008 21:15:01 10.2 C 56 % 1.83 C
3253 18-09-2008 21:20:01 10 C 57 % 1.89 C
3254 18-09-2008 21:25:01 9.9 C 58 % 2.04 C
3255 18-09-2008 21:30:01 9.8 C 59 % 2.18 C
3256 18-09-2008 21:35:02 9.8 C 59 % 2.18 C
3257 18-09-2008 21:40:03 9.7 C 59 % 2.09 C
3258 18-09-2008 21:46:03 9.5 C 60 % 2.13 C
3259 18-09-2008 21:51:03 9.5 C 60 % 2.13 C
3260 18-09-2008 21:56:03 9.3 C 60 % 1.95 C
3261 18-09-2008 22:01:03 9.2 C 62 % 2.31 C
3262 18-09-2008 22:06:03 9.2 C 62 % 2.31 C
3263 18-09-2008 22:11:03 9.1 C 63 % 2.44 C
3264 18-09-2008 22:16:03 8.9 C 63 % 2.25 C
3265 18-09-2008 22:21:03 8.9 C 63 % 2.25 C
3266 18-09-2008 22:26:03 8.8 C 64 % 2.38 C
3267 18-09-2008 22:31:03 8.7 C 65 % 2.5 C
3268 18-09-2008 22:36:03 8.6 C 65 % 2.4 C
3269 18-09-2008 22:41:03 8.6 C 65 % 2.4 C
3270 18-09-2008 22:46:03 8.5 C 66 % 2.52 C
3271 18-09-2008 22:51:03 8.5 C 66 % 2.52 C
3272 18-09-2008 22:56:03 8.3 C 67 % 2.54 C
3273 18-09-2008 23:01:03 8.2 C 67 % 2.45 C
3274 18-09-2008 23:06:03 8.2 C 68 % 2.66 C
3275 18-09-2008 23:11:03 8.1 C 67 % 2.35 C
Sensor: Nr:Datum:Temp:Feuchte:Taupunkt:
Aussen-T/F 3276 18-09-2008 23:16:04 8 C 67 % 2.26 C
3277 18-09-2008 23:21:04 7.9 C 69 % 2.57 C
3278 18-09-2008 23:26:04 7.8 C 69 % 2.48 C
3279 18-09-2008 23:31:04 7.8 C 69 % 2.48 C
3280 18-09-2008 23:36:04 7.7 C 70 % 2.58 C
3281 18-09-2008 23:41:04 7.5 C 70 % 2.39 C
3282 18-09-2008 23:46:04 7.5 C 70 % 2.39 C
3283 18-09-2008 23:51:04 7.5 C 71 % 2.59 C
3284 18-09-2008 23:56:04 7.5 C 72 % 2.79 C
3285 19-09-2008 00:01:04 7.4 C 72 % 2.69 C
3286 19-09-2008 00:06:04 7.5 C 72 % 2.79 C
3287 19-09-2008 00:11:04 7.3 C 73 % 2.79 C
3288 19-09-2008 00:16:04 7.2 C 73 % 2.69 C
3289 19-09-2008 00:21:04 7.1 C 74 % 2.79 C
3290 19-09-2008 00:26:04 7.1 C 75 % 2.98 C
3291 19-09-2008 00:31:04 7.1 C 75 % 2.98 C
3292 19-09-2008 00:36:04 7 C 76 % 3.07 C
3293 19-09-2008 00:41:04 7 C 76 % 3.07 C
3294 19-09-2008 00:46:04 6.9 C 77 % 3.16 C
3295 19-09-2008 00:51:04 6.9 C 77 % 3.16 C
3296 19-09-2008 00:56:05 6.8 C 77 % 3.06 C
3297 19-09-2008 01:01:05 6.7 C 77 % 2.96 C
3298 19-09-2008 01:06:05 6.6 C 78 % 3.05 C
3299 19-09-2008 01:11:05 6.6 C 78 % 3.05 C
3300 19-09-2008 01:16:05 6.5 C 78 % 2.95 C
Sensor: Nr:Datum:Temp:Feuchte:Taupunkt:
Aussen-T/F 3301 19-09-2008 01:21:05 6.4 C 78 % 2.85 C
3302 19-09-2008 01:26:05 6.4 C 78 % 2.85 C
3303 19-09-2008 01:31:05 6.4 C 78 % 2.85 C
3304 19-09-2008 01:36:05 6.3 C 79 % 2.93 C
3305 19-09-2008 01:41:05 6.2 C 79 % 2.84 C
3306 19-09-2008 01:46:05 6.1 C 80 % 2.92 C
3307 19-09-2008 01:51:05 6 C 80 % 2.82 C
3308 19-09-2008 01:56:05 6 C 80 % 2.82 C
3309 19-09-2008 02:01:05 6 C 80 % 2.82 C
3310 19-09-2008 02:06:05 6 C 80 % 2.82 C
3311 19-09-2008 02:11:05 5.9 C 81 % 2.9 C
3312 19-09-2008 02:16:05 5.8 C 81 % 2.8 C
3313 19-09-2008 02:21:05 5.8 C 81 % 2.8 C
3314 19-09-2008 02:26:05 5.7 C 81 % 2.7 C
3315 19-09-2008 02:31:06 5.7 C 81 % 2.7 C
3316 19-09-2008 02:36:06 5.7 C 82 % 2.87 C
3317 19-09-2008 02:41:06 5.7 C 83 % 3.04 C
3318 19-09-2008 02:46:06 5.6 C 83 % 2.95 C
3319 19-09-2008 02:51:06 5.6 C 83 % 2.95 C
3320 19-09-2008 02:56:06 5.5 C 83 % 2.85 C
3321 19-09-2008 03:01:06 5.5 C 83 % 2.85 C
3322 19-09-2008 03:06:06 5.4 C 83 % 2.75 C
3323 19-09-2008 03:11:06 5.3 C 83 % 2.65 C
3324 19-09-2008 03:16:06 5.3 C 83 % 2.65 C
3325 19-09-2008 03:21:06 5.2 C 83 % 2.56 C
Sensor: Nr:Datum:Temp:Feuchte:Taupunkt:
Aussen-T/F 3326 19-09-2008 03:26:06 5.2 C 83 % 2.56 C
3327 19-09-2008 03:31:06 5.2 C 83 % 2.56 C
3328 19-09-2008 03:36:06 5.1 C 83 % 2.46 C
3329 19-09-2008 03:41:06 5.1 C 83 % 2.46 C
3330 19-09-2008 03:46:06 5.1 C 83 % 2.46 C
3331 19-09-2008 03:51:06 5.1 C 83 % 2.46 C
3332 19-09-2008 03:56:06 5.2 C 83 % 2.56 C
3333 19-09-2008 04:01:06 4.9 C 84 % 2.43 C
3334 19-09-2008 04:06:07 4.9 C 84 % 2.43 C
3335 19-09-2008 04:11:07 4.9 C 84 % 2.43 C
3336 19-09-2008 04:16:07 4.9 C 85 % 2.6 C
3337 19-09-2008 04:21:07 4.8 C 85 % 2.5 C
3338 19-09-2008 04:26:07 4.7 C 85 % 2.4 C
3339 19-09-2008 04:31:07 4.7 C 85 % 2.4 C
3340 19-09-2008 04:36:07 4.7 C 85 % 2.4 C
3341 19-09-2008 04:41:07 4.6 C 85 % 2.3 C
3342 19-09-2008 04:46:07 4.5 C 85 % 2.2 C
3343 19-09-2008 04:51:07 4.5 C 85 % 2.2 C
3344 19-09-2008 04:56:07 4.4 C 85 % 2.11 C
3345 19-09-2008 05:01:07 4.4 C 85 % 2.11 C
3346 19-09-2008 05:06:07 4.4 C 85 % 2.11 C
3347 19-09-2008 05:11:07 4.4 C 85 % 2.11 C
3348 19-09-2008 05:16:07 4.4 C 85 % 2.11 C
3349 19-09-2008 05:21:07 4.3 C 86 % 2.17 C
3350 19-09-2008 05:26:07 4.3 C 86 % 2.17 C
Sensor: Nr:Datum:Temp:Feuchte:Taupunkt:
Aussen-T/F 3351 19-09-2008 05:31:07 4.2 C 86 % 2.07 C
3352 19-09-2008 05:36:07 4.2 C 86 % 2.07 C
3353 19-09-2008 05:41:07 4.2 C 86 % 2.07 C
3354 19-09-2008 05:46:08 4.1 C 86 % 1.97 C
3355 19-09-2008 05:51:08 4.1 C 86 % 1.97 C
3356 19-09-2008 05:56:08 4 C 86 % 1.88 C
3357 19-09-2008 06:01:08 3.9 C 87 % 1.94 C
3358 19-09-2008 06:06:08 3.9 C 87 % 1.94 C
3359 19-09-2008 06:11:08 3.9 C 87 % 1.94 C
3360 19-09-2008 06:16:08 3.9 C 88 % 2.1 C
3361 19-09-2008 06:21:08 3.8 C 88 % 2 C
3362 19-09-2008 06:26:08 3.8 C 88 % 2 C
3363 19-09-2008 06:31:08 3.8 C 88 % 2 C
3364 19-09-2008 06:36:08 3.8 C 88 % 2 C
3365 19-09-2008 06:41:08 3.8 C 88 % 2 C
3366 19-09-2008 06:46:08 3.7 C 88 % 1.9 C
3367 19-09-2008 06:51:08 3.7 C 88 % 1.9 C
3368 19-09-2008 06:56:08 3.7 C 88 % 1.9 C
3369 19-09-2008 07:01:03 3.6 C 88 % 1.8 C
3370 19-09-2008 07:06:03 3.5 C 88 % 1.7 C
3371 19-09-2008 07:11:03 3.4 C 88 % 1.61 C
3372 19-09-2008 07:16:03 3.4 C 88 % 1.61 C
3373 19-09-2008 07:21:03 3.4 C 88 % 1.61 C
3374 19-09-2008 07:26:03 3.5 C 89 % 1.86 C
3375 19-09-2008 07:31:03 3.5 C 89 % 1.86 C
Sensor: Nr:Datum:Temp:Feuchte:Taupunkt:
Aussen-T/F 3376 19-09-2008 07:36:03 3.5 C 90 % 2.02 C
3377 19-09-2008 07:41:03 3.4 C 90 % 1.92 C
3378 19-09-2008 07:46:02 3.4 C 90 % 1.92 C
3379 19-09-2008 07:51:02 3.4 C 90 % 1.92 C
3380 19-09-2008 07:56:02 3.4 C 90 % 1.92 C
3381 19-09-2008 08:01:01 3.5 C 91 % 2.17 C
3382 19-09-2008 08:06:01 3.4 C 91 % 2.07 C
3383 19-09-2008 08:11:01 3.5 C 91 % 2.17 C
3384 19-09-2008 08:16:02 3.6 C 91 % 2.27 C
3385 19-09-2008 08:21:02 3.6 C 91 % 2.27 C
3386 19-09-2008 08:26:02 3.6 C 91 % 2.27 C
3387 19-09-2008 08:31:01 3.7 C 91 % 2.37 C
3388 19-09-2008 08:36:01 3.7 C 91 % 2.37 C
3389 19-09-2008 08:41:01 3.7 C 91 % 2.37 C
3390 19-09-2008 08:46:01 3.9 C 92 % 2.72 C
3391 19-09-2008 08:51:01 3.9 C 92 % 2.72 C
3392 19-09-2008 08:56:01 4 C 91 % 2.67 C
3393 19-09-2008 09:01:02 4 C 91 % 2.67 C
3394 19-09-2008 09:06:02 4.1 C 91 % 2.77 C
3395 19-09-2008 09:11:02 4.1 C 91 % 2.77 C
3396 19-09-2008 09:16:01 4.2 C 91 % 2.87 C
3397 19-09-2008 09:21:01 4.3 C 91 % 2.96 C
3398 19-09-2008 09:26:01 4.4 C 91 % 3.06 C
3399 19-09-2008 09:31:02 4.5 C 91 % 3.16 C
3400 19-09-2008 09:36:02 4.7 C 92 % 3.51 C
Sensor: Nr:Datum:Temp:Feuchte:Taupunkt:
Aussen-T/F 3401 19-09-2008 09:41:02 4.7 C 92 % 3.51 C
3402 19-09-2008 09:46:02 5 C 91 % 3.66 C
3403 19-09-2008 09:51:02 5.3 C 92 % 4.11 C
3404 19-09-2008 09:56:02 5.4 C 92 % 4.21 C
3405 19-09-2008 10:01:02 5.7 C 92 % 4.5 C
3406 19-09-2008 10:06:02 6.1 C 92 % 4.9 C
3407 19-09-2008 10:11:02 6.3 C 92 % 5.1 C
3408 19-09-2008 10:16:03 6.7 C 92 % 5.49 C
3409 19-09-2008 10:21:03 6.9 C 92 % 5.69 C
3410 19-09-2008 10:26:03 7.3 C 91 % 5.93 C
3411 19-09-2008 10:31:02 7.4 C 91 % 6.03 C
3412 19-09-2008 10:36:02 7.8 C 91 % 6.43 C
3413 19-09-2008 10:41:02 8.1 C 89 % 6.4 C
3414 19-09-2008 10:46:01 8.2 C 89 % 6.5 C
3415 19-09-2008 10:51:01 8.5 C 88 % 6.63 C
3416 19-09-2008 10:56:01 8.9 C 86 % 6.69 C
3417 19-09-2008 11:01:02 9 C 84 % 6.45 C
3418 19-09-2008 11:06:02 9.3 C 82 % 6.39 C
3419 19-09-2008 11:11:02 9.7 C 78 % 6.06 C
3420 19-09-2008 11:16:02 10 C 73 % 5.39 C
3421 19-09-2008 11:21:03 10.3 C 72 % 5.48 C
3422 19-09-2008 11:26:03 10.6 C 70 % 5.36 C
3423 19-09-2008 11:31:01 11 C 68 % 5.33 C
3424 19-09-2008 11:36:01 11.1 C 67 % 5.21 C
3425 19-09-2008 11:41:01 11.5 C 65 % 5.16 C
Sensor: Nr:Datum:Temp:Feuchte:Taupunkt:
Aussen-T/F 3426 19-09-2008 11:46:01 11.8 C 64 % 5.22 C
3427 19-09-2008 11:51:01 12 C 63 % 5.18 C
3428 19-09-2008 11:56:01 12.4 C 62 % 5.33 C
3429 19-09-2008 12:01:01 12.5 C 62 % 5.43 C
3430 19-09-2008 12:06:02 12.7 C 62 % 5.62 C
3431 19-09-2008 12:11:02 12.8 C 60 % 5.24 C
3432 19-09-2008 12:16:01 13.1 C 59 % 5.28 C
3433 19-09-2008 12:21:01 13.2 C 58 % 5.13 C
3434 19-09-2008 12:26:01 13.4 C 54 % 4.29 C
3435 19-09-2008 12:31:02 13.7 C 52 % 4.03 C
3436 19-09-2008 12:36:02 14.2 C 51 % 4.22 C
3437 19-09-2008 12:41:02 14.3 C 52 % 4.59 C
3438 19-09-2008 12:46:02 14.4 C 48 % 3.54 C
3439 19-09-2008 12:51:02 15 C 45 % 3.18 C
3440 19-09-2008 12:56:02 15.1 C 46 % 3.58 C
3441 19-09-2008 13:01:02 15.1 C 45 % 3.27 C
3442 19-09-2008 13:06:02 15.2 C 44 % 3.04 C
3443 19-09-2008 13:11:02 15.8 C 39 % 1.89 C
3444 19-09-2008 13:16:02 16 C 38 % 1.71 C
3445 19-09-2008 13:21:02 16.2 C 37 % 1.51 C
3446 19-09-2008 13:26:02 16.4 C 37 % 1.69 C
3447 19-09-2008 13:31:02 16.6 C 36 % 1.49 C
3448 19-09-2008 13:36:02 16.8 C 36 % 1.66 C
3449 19-09-2008 13:41:02 16.9 C 36 % 1.75 C
3450 19-09-2008 13:46:02 16.8 C 35 % 1.27 C
Sensor: Nr:Datum:Temp:Feuchte:Taupunkt:
Aussen-T/F 3451 19-09-2008 13:51:02 17 C 35 % 1.45 C
3452 19-09-2008 13:56:02 17.3 C 34 % 1.31 C
3453 19-09-2008 14:01:02 17.6 C 33 % 1.16 C
3454 19-09-2008 14:06:02 18.1 C 32 % 1.17 C
3455 19-09-2008 14:11:02 18.1 C 31 % 0.73 C
3456 19-09-2008 14:16:02 18.2 C 30 % 0.36 C
3457 19-09-2008 14:21:02 18.4 C 31 % 0.99 C
3458 19-09-2008 14:26:02 18.6 C 30 % 0.71 C
3459 19-09-2008 14:31:02 19.1 C 28 % 0.19 C
3460 19-09-2008 14:36:02 19.3 C 27 % -0.14 C
3461 19-09-2008 14:41:02 19.3 C 26 % -0.66 C
3462 19-09-2008 14:46:02 19.7 C 26 % -0.32 C
3463 19-09-2008 14:51:02 19.7 C 26 % -0.32 C
3464 19-09-2008 14:56:02 19.7 C 25 % -0.86 C
3465 19-09-2008 15:01:01 19.3 C 26 % -0.66 C
3466 19-09-2008 15:06:01 19.4 C 27 % -0.06 C
3467 19-09-2008 15:11:01 20 C 26 % -0.06 C
3468 19-09-2008 15:16:02 20.6 C 26 % 0.45 C
3469 19-09-2008 15:21:02 20.3 C 23 % -1.49 C
3470 19-09-2008 15:26:02 20 C 25 % -0.6 C
3471 19-09-2008 15:31:01 19.8 C 26 % -0.23 C
3472 19-09-2008 15:36:01 19.6 C 28 % 0.61 C
3473 19-09-2008 15:41:01 19.5 C 28 % 0.53 C
3474 19-09-2008 15:46:01 19.8 C 27 % 0.28 C
3475 19-09-2008 15:51:01 20.2 C 26 % 0.11 C
Sensor: Nr:Datum:Temp:Feuchte:Taupunkt:
Aussen-T/F 3476 19-09-2008 15:56:01 20.5 C 25 % -0.18 C
3477 19-09-2008 16:01:02 21.1 C 25 % 0.33 C
3478 19-09-2008 16:06:02 20.8 C 21 % -2.3 C
3479 19-09-2008 16:11:02 21 C 21 % -2.13 C
3480 19-09-2008 16:16:01 21.2 C 20 % -2.62 C
3481 19-09-2008 16:21:01 21 C 20 % -2.79 C
3482 19-09-2008 16:26:01 20.9 C 21 % -2.22 C
3483 19-09-2008 16:31:02 21 C 21 % -2.13 C
3484 19-09-2008 16:36:02 21.4 C 22 % -1.17 C
3485 19-09-2008 16:41:02 21.7 C 21 % -1.55 C
3486 19-09-2008 16:46:02 22 C 20 % -1.97 C
3487 19-09-2008 16:51:02 22.1 C 20 % -1.88 C
3488 19-09-2008 16:56:02 21.9 C 20 % -2.05 C
3489 19-09-2008 17:01:02 21.7 C 20 % -2.21 C
3490 19-09-2008 17:06:02 21 C 22 % -1.5 C
3491 19-09-2008 17:11:02 20.4 C 25 % -0.26 C
3492 19-09-2008 17:16:02 19.9 C 27 % 0.37 C
3493 19-09-2008 17:21:02 19.6 C 26 % -0.4 C
3494 19-09-2008 17:26:02 19.2 C 28 % 0.27 C
3495 19-09-2008 17:31:02 18.9 C 30 % 0.97 C
3496 19-09-2008 17:36:02 18.8 C 30 % 0.88 C
3497 19-09-2008 17:41:02 18.5 C 31 % 1.07 C
3498 19-09-2008 17:46:02 18.2 C 34 % 2.1 C
3499 19-09-2008 17:51:02 18.2 C 34 % 2.1 C
3500 19-09-2008 17:56:02 17.9 C 35 % 2.24 C
Sensor: Nr:Datum:Temp:Feuchte:Taupunkt:
Aussen-T/F 3501 19-09-2008 18:01:02 17.7 C 35 % 2.06 C
3502 19-09-2008 18:06:02 17.3 C 36 % 2.1 C
3503 19-09-2008 18:11:02 17.2 C 38 % 2.77 C
3504 19-09-2008 18:16:02 16.8 C 38 % 2.42 C
3505 19-09-2008 18:21:02 16.8 C 38 % 2.42 C
3506 19-09-2008 18:26:02 16.8 C 38 % 2.42 C
3507 19-09-2008 18:31:02 16.7 C 38 % 2.33 C
3508 19-09-2008 18:36:02 16.5 C 37 % 1.78 C
3509 19-09-2008 18:41:02 16.5 C 37 % 1.78 C
3510 19-09-2008 18:46:02 16.3 C 38 % 1.97 C
3511 19-09-2008 18:51:03 16.1 C 39 % 2.16 C
3512 19-09-2008 18:56:03 16 C 39 % 2.07 C
3513 19-09-2008 19:01:01 15.7 C 41 % 2.5 C
3514 19-09-2008 19:06:01 15.4 C 42 % 2.57 C
3515 19-09-2008 19:11:01 15.2 C 43 % 2.72 C
3516 19-09-2008 19:16:02 15 C 43 % 2.54 C
3517 19-09-2008 19:21:02 14.8 C 45 % 3 C
3518 19-09-2008 19:26:02 14.5 C 45 % 2.72 C
3519 19-09-2008 19:31:01 14.2 C 44 % 2.14 C
3520 19-09-2008 19:36:01 14 C 44 % 1.95 C
3521 19-09-2008 19:41:01 14 C 45 % 2.27 C
3522 19-09-2008 19:46:01 14 C 47 % 2.88 C
3523 19-09-2008 19:51:01 13.8 C 48 % 2.99 C
3524 19-09-2008 19:56:01 13.7 C 48 % 2.9 C
3525 19-09-2008 20:01:02 13.7 C 49 % 3.19 C
Sensor: Nr:Datum:Temp:Feuchte:Taupunkt:
Aussen-T/F 3526 19-09-2008 20:06:02 13.5 C 47 % 2.42 C
3527 19-09-2008 20:11:02 13.4 C 47 % 2.33 C
3528 19-09-2008 20:16:02 13.4 C 48 % 2.63 C
3529 19-09-2008 20:21:02 13.3 C 48 % 2.54 C
3530 19-09-2008 20:26:02 13.2 C 48 % 2.44 C
3531 19-09-2008 20:31:02 13.1 C 49 % 2.64 C
3532 19-09-2008 20:36:02 13 C 49 % 2.55 C
3533 19-09-2008 20:41:02 12.9 C 51 % 3.02 C
3534 19-09-2008 20:46:02 12.7 C 50 % 2.56 C
3535 19-09-2008 20:51:02 12.5 C 50 % 2.37 C
3536 19-09-2008 20:56:02 12.3 C 49 % 1.91 C
3537 19-09-2008 21:01:01 12.2 C 50 % 2.1 C
3538 19-09-2008 21:06:01 11.9 C 51 % 2.1 C
3539 19-09-2008 21:11:01 11.9 C 52 % 2.37 C
3540 19-09-2008 21:16:02 11.7 C 52 % 2.18 C
3541 19-09-2008 21:21:02 11.5 C 53 % 2.27 C
3542 19-09-2008 21:26:02 11.5 C 54 % 2.53 C
3543 19-09-2008 21:31:01 11.4 C 54 % 2.44 C
3544 19-09-2008 21:36:01 11.3 C 56 % 2.85 C
3545 19-09-2008 21:41:01 11.2 C 56 % 2.76 C
3546 19-09-2008 21:46:01 11.1 C 56 % 2.67 C
3547 19-09-2008 21:51:01 11 C 57 % 2.82 C
3548 19-09-2008 21:56:01 10.9 C 58 % 2.97 C
3549 19-09-2008 22:01:02 10.8 C 60 % 3.36 C
3550 19-09-2008 22:06:02 10.7 C 60 % 3.26 C
Sensor: Nr:Datum:Temp:Feuchte:Taupunkt:
Aussen-T/F 3551 19-09-2008 22:11:02 10.6 C 61 % 3.4 C
3552 19-09-2008 22:16:01 10.5 C 62 % 3.54 C
3553 19-09-2008 22:21:01 10.4 C 63 % 3.67 C
3554 19-09-2008 22:26:01 10.3 C 64 % 3.8 C
3555 19-09-2008 22:31:02 10.2 C 64 % 3.7 C
3556 19-09-2008 22:36:02 10.1 C 64 % 3.61 C
3557 19-09-2008 22:41:02 10 C 64 % 3.51 C
3558 19-09-2008 22:46:02 10 C 65 % 3.73 C
3559 19-09-2008 22:51:02 9.8 C 66 % 3.76 C
3560 19-09-2008 22:56:02 9.6 C 66 % 3.57 C
3561 19-09-2008 23:02:02 9.5 C 67 % 3.69 C
3562 19-09-2008 23:07:02 9.4 C 67 % 3.59 C
3563 19-09-2008 23:12:02 9.3 C 68 % 3.71 C
3564 19-09-2008 23:17:02 9.3 C 68 % 3.71 C
3565 19-09-2008 23:22:02 9.2 C 68 % 3.61 C
3566 19-09-2008 23:27:02 9.1 C 69 % 3.72 C
3567 19-09-2008 23:32:02 9.1 C 69 % 3.72 C
3568 19-09-2008 23:37:02 9.1 C 69 % 3.72 C
3569 19-09-2008 23:42:02 9 C 69 % 3.63 C
3570 19-09-2008 23:47:02 9 C 70 % 3.83 C
3571 19-09-2008 23:52:02 8.9 C 71 % 3.94 C
3572 19-09-2008 23:57:02 8.8 C 72 % 4.04 C
3573 20-09-2008 00:02:02 8.7 C 73 % 4.14 C
3574 20-09-2008 00:07:02 8.6 C 73 % 4.04 C
3575 20-09-2008 00:12:02 8.6 C 73 % 4.04 C
Sensor: Nr:Datum:Temp:Feuchte:Taupunkt:
Aussen-T/F 3576 20-09-2008 00:17:03 8.5 C 74 % 4.14 C
3577 20-09-2008 00:22:03 8.3 C 75 % 4.14 C
3578 20-09-2008 00:27:03 8.2 C 75 % 4.04 C
3579 20-09-2008 00:32:03 8.2 C 75 % 4.04 C
3580 20-09-2008 00:37:03 8 C 76 % 4.04 C
3581 20-09-2008 00:42:03 8 C 77 % 4.22 C
3582 20-09-2008 00:47:03 7.9 C 78 % 4.31 C
3583 20-09-2008 00:52:03 7.9 C 78 % 4.31 C
3584 20-09-2008 00:57:03 7.9 C 79 % 4.49 C
3585 20-09-2008 01:02:03 7.9 C 79 % 4.49 C
3586 20-09-2008 01:07:03 7.8 C 79 % 4.39 C
3587 20-09-2008 01:12:03 7.7 C 79 % 4.3 C
3588 20-09-2008 01:17:03 7.7 C 78 % 4.11 C
3589 20-09-2008 01:22:03 7.7 C 78 % 4.11 C
3590 20-09-2008 01:27:03 7.6 C 78 % 4.02 C
3591 20-09-2008 01:32:03 7.6 C 78 % 4.02 C
3592 20-09-2008 01:37:03 7.5 C 78 % 3.92 C
3593 20-09-2008 01:42:03 7.4 C 79 % 4 C
3594 20-09-2008 01:47:03 7.4 C 79 % 4 C
3595 20-09-2008 01:52:03 7.4 C 79 % 4 C
3596 20-09-2008 01:57:04 7.4 C 79 % 4 C
3597 20-09-2008 02:02:04 7.4 C 80 % 4.18 C
3598 20-09-2008 02:07:04 7.3 C 80 % 4.09 C
3599 20-09-2008 02:12:04 7.2 C 81 % 4.16 C
3600 20-09-2008 02:17:04 7.1 C 81 % 4.07 C
Sensor: Nr:Datum:Temp:Feuchte:Taupunkt:
Aussen-T/F 3601 20-09-2008 02:22:04 7.1 C 81 % 4.07 C
3602 20-09-2008 02:27:04 7 C 81 % 3.97 C
3603 20-09-2008 02:32:04 7 C 81 % 3.97 C
3604 20-09-2008 02:37:04 6.9 C 82 % 4.05 C
3605 20-09-2008 02:42:04 6.9 C 83 % 4.22 C
3606 20-09-2008 02:47:04 6.8 C 83 % 4.12 C
3607 20-09-2008 02:52:04 6.8 C 83 % 4.12 C
3608 20-09-2008 02:57:04 6.7 C 84 % 4.19 C
3609 20-09-2008 03:02:04 6.7 C 84 % 4.19 C
3610 20-09-2008 03:07:04 6.5 C 84 % 4 C
3611 20-09-2008 03:12:04 6.5 C 84 % 4 C
3612 20-09-2008 03:17:04 6.4 C 84 % 3.9 C
3613 20-09-2008 03:22:04 6.4 C 84 % 3.9 C
3614 20-09-2008 03:27:04 6.4 C 84 % 3.9 C
3615 20-09-2008 03:32:04 6.3 C 84 % 3.8 C
3616 20-09-2008 03:37:04 6.3 C 84 % 3.8 C
3617 20-09-2008 03:42:05 6.3 C 84 % 3.8 C
3618 20-09-2008 03:47:05 6.3 C 84 % 3.8 C
3619 20-09-2008 03:52:05 6.3 C 85 % 3.97 C
3620 20-09-2008 03:57:05 6.3 C 85 % 3.97 C
3621 20-09-2008 04:02:05 6.3 C 85 % 3.97 C
3622 20-09-2008 04:07:05 6.3 C 85 % 3.97 C
3623 20-09-2008 04:12:05 6.3 C 84 % 3.8 C
3624 20-09-2008 04:17:05 6.2 C 84 % 3.7 C
3625 20-09-2008 04:22:05 6.2 C 84 % 3.7 C
Sensor: Nr:Datum:Temp:Feuchte:Taupunkt:
Aussen-T/F 3626 20-09-2008 04:27:05 6.1 C 84 % 3.61 C
3627 20-09-2008 04:32:05 5.9 C 85 % 3.58 C
3628 20-09-2008 04:37:05 5.9 C 85 % 3.58 C
3629 20-09-2008 04:42:05 5.8 C 86 % 3.64 C
3630 20-09-2008 04:47:05 5.8 C 86 % 3.64 C
3631 20-09-2008 04:52:05 5.8 C 86 % 3.64 C
3632 20-09-2008 04:57:05 5.7 C 86 % 3.55 C
3633 20-09-2008 05:02:05 5.7 C 87 % 3.71 C
3634 20-09-2008 05:07:05 5.7 C 88 % 3.87 C
3635 20-09-2008 05:12:05 5.6 C 88 % 3.77 C
3636 20-09-2008 05:17:05 5.6 C 88 % 3.77 C
3637 20-09-2008 05:22:06 5.5 C 88 % 3.67 C
3638 20-09-2008 05:27:06 5.5 C 88 % 3.67 C
3639 20-09-2008 05:32:06 5.5 C 88 % 3.67 C
3640 20-09-2008 05:37:06 5.4 C 88 % 3.58 C
3641 20-09-2008 05:42:06 5.4 C 88 % 3.58 C
3642 20-09-2008 05:47:06 5.3 C 88 % 3.48 C
3643 20-09-2008 05:52:06 5.3 C 88 % 3.48 C
3644 20-09-2008 05:57:06 5.2 C 88 % 3.38 C
3645 20-09-2008 06:02:06 5.2 C 88 % 3.38 C
3646 20-09-2008 06:07:06 5.1 C 88 % 3.28 C
3647 20-09-2008 06:12:06 5.1 C 88 % 3.28 C
3648 20-09-2008 06:17:06 5.1 C 88 % 3.28 C
3649 20-09-2008 06:22:06 5 C 88 % 3.18 C
3650 20-09-2008 06:27:06 5.1 C 88 % 3.28 C
Sensor: Nr:Datum:Temp:Feuchte:Taupunkt:
Aussen-T/F 3651 20-09-2008 06:32:06 5.1 C 88 % 3.28 C
3652 20-09-2008 06:37:06 4.9 C 89 % 3.24 C
3653 20-09-2008 06:42:06 4.8 C 89 % 3.14 C
3654 20-09-2008 06:47:06 4.8 C 89 % 3.14 C
3655 20-09-2008 06:52:06 4.8 C 89 % 3.14 C
3656 20-09-2008 06:57:06 4.6 C 89 % 2.95 C
3657 20-09-2008 07:02:06 4.6 C 89 % 2.95 C
3658 20-09-2008 07:07:07 4.5 C 89 % 2.85 C
3659 20-09-2008 07:12:07 4.6 C 89 % 2.95 C
3660 20-09-2008 07:17:07 4.5 C 89 % 2.85 C
3661 20-09-2008 07:22:07 4.5 C 89 % 2.85 C
3662 20-09-2008 07:27:07 4.5 C 89 % 2.85 C
3663 20-09-2008 07:32:07 4.5 C 89 % 2.85 C
3664 20-09-2008 07:37:07 4.5 C 89 % 2.85 C
3665 20-09-2008 07:42:07 4.6 C 89 % 2.95 C
3666 20-09-2008 07:47:07 4.6 C 90 % 3.1 C
3667 20-09-2008 07:52:07 4.6 C 90 % 3.1 C
3668 20-09-2008 07:57:07 4.6 C 90 % 3.1 C
3669 20-09-2008 08:02:02 4.6 C 90 % 3.1 C
3670 20-09-2008 08:07:02 4.6 C 90 % 3.1 C
3671 20-09-2008 08:12:02 4.7 C 90 % 3.2 C
3672 20-09-2008 08:17:02 4.7 C 90 % 3.2 C
3673 20-09-2008 08:22:02 4.7 C 90 % 3.2 C
3674 20-09-2008 08:27:02 4.7 C 90 % 3.2 C
3675 20-09-2008 08:32:02 4.8 C 90 % 3.3 C
Sensor: Nr:Datum:Temp:Feuchte:Taupunkt:
Aussen-T/F 3676 20-09-2008 08:37:02 4.8 C 90 % 3.3 C
3677 20-09-2008 08:42:02 4.8 C 90 % 3.3 C
3678 20-09-2008 08:47:02 4.9 C 90 % 3.4 C
3679 20-09-2008 08:52:02 4.9 C 91 % 3.56 C
3680 20-09-2008 08:57:02 5 C 90 % 3.5 C
3681 20-09-2008 09:02:03 5.1 C 90 % 3.6 C
3682 20-09-2008 09:07:03 5.2 C 90 % 3.7 C
3683 20-09-2008 09:12:03 5.2 C 91 % 3.85 C
3684 20-09-2008 09:17:02 5.3 C 91 % 3.95 C
3685 20-09-2008 09:22:02 5.4 C 91 % 4.05 C
3686 20-09-2008 09:27:03 5.4 C 91 % 4.05 C
3687 20-09-2008 09:32:02 5.5 C 92 % 4.31 C
3688 20-09-2008 09:37:02 5.6 C 92 % 4.41 C
3689 20-09-2008 09:42:02 5.8 C 92 % 4.6 C
3690 20-09-2008 09:47:03 5.9 C 92 % 4.7 C
3691 20-09-2008 09:52:03 6.2 C 91 % 4.84 C
3692 20-09-2008 09:57:03 6.5 C 92 % 5.3 C
3693 20-09-2008 10:02:02 6.8 C 92 % 5.59 C
3694 20-09-2008 10:07:02 6.9 C 92 % 5.69 C
3695 20-09-2008 10:12:02 7.3 C 92 % 6.09 C
3696 20-09-2008 10:17:02 7.6 C 92 % 6.39 C
3697 20-09-2008 10:22:02 7.9 C 92 % 6.68 C
3698 20-09-2008 10:27:02 8.3 C 91 % 6.92 C
3699 20-09-2008 10:32:02 8.7 C 89 % 6.99 C
3700 20-09-2008 10:37:03 8.8 C 88 % 6.93 C
Sensor: Nr:Datum:Temp:Feuchte:Taupunkt:
Aussen-T/F 3701 20-09-2008 10:42:03 9 C 85 % 6.62 C
3702 20-09-2008 10:47:02 9 C 82 % 6.1 C
3703 20-09-2008 10:52:02 9.2 C 81 % 6.11 C
3704 20-09-2008 10:57:02 9.3 C 80 % 6.03 C
3705 20-09-2008 11:02:02 9.8 C 79 % 6.34 C
3706 20-09-2008 11:07:02 10 C 76 % 5.97 C
3707 20-09-2008 11:12:02 10 C 76 % 5.97 C
3708 20-09-2008 11:17:02 10.5 C 74 % 6.07 C
3709 20-09-2008 11:22:02 11 C 72 % 6.15 C
3710 20-09-2008 11:27:03 11.2 C 72 % 6.35 C
3711 20-09-2008 11:32:01 11.5 C 71 % 6.43 C
3712 20-09-2008 11:37:01 12.8 C 70 % 7.47 C
3713 20-09-2008 11:42:01 12.5 C 69 % 6.97 C
3714 20-09-2008 11:47:02 13.1 C 66 % 6.9 C
3715 20-09-2008 11:52:02 13.5 C 63 % 6.6 C
3716 20-09-2008 11:57:02 14 C 59 % 6.12 C
3717 20-09-2008 12:02:02 14.2 C 58 % 6.06 C
3718 20-09-2008 12:07:02 14.6 C 56 % 5.93 C
3719 20-09-2008 12:12:02 14.8 C 54 % 5.59 C
3720 20-09-2008 12:17:01 14.9 C 53 % 5.42 C
3721 20-09-2008 12:22:01 14.8 C 52 % 5.05 C
3722 20-09-2008 12:27:01 15.1 C 51 % 5.05 C
3723 20-09-2008 12:32:02 15.2 C 51 % 5.14 C
3724 20-09-2008 12:37:03 15.4 C 51 % 5.33 C
3725 20-09-2008 12:42:03 15.6 C 50 % 5.23 C
Sensor: Nr:Datum:Temp:Feuchte:Taupunkt:
Aussen-T/F 3726 20-09-2008 12:47:02 15.8 C 50 % 5.41 C
3727 20-09-2008 12:52:02 16 C 45 % 4.09 C
3728 20-09-2008 12:57:02 16.1 C 42 % 3.2 C
3729 20-09-2008 13:02:03 16.5 C 43 % 3.89 C
3730 20-09-2008 13:07:03 16.7 C 41 % 3.4 C
3731 20-09-2008 13:12:03 17 C 36 % 1.84 C
3732 20-09-2008 13:17:02 17.4 C 33 % 0.98 C
3733 20-09-2008 13:22:02 17.6 C 33 % 1.16 C
3734 20-09-2008 13:27:03 17.9 C 31 % 0.55 C
3735 20-09-2008 13:32:02 18 C 29 % -0.28 C
3736 20-09-2008 13:37:02 18 C 30 % 0.19 C
3737 20-09-2008 13:42:02 17.7 C 30 % -0.07 C
3738 20-09-2008 13:47:02 17.6 C 30 % -0.16 C
3739 20-09-2008 13:52:02 17.6 C 28 % -1.1 C
3740 20-09-2008 13:57:02 17.7 C 29 % -0.54 C
3741 20-09-2008 14:02:02 17.9 C 29 % -0.36 C
3742 20-09-2008 14:07:02 18.3 C 28 % -0.5 C
3743 20-09-2008 14:12:02 18.1 C 27 % -1.17 C
3744 20-09-2008 14:17:02 17.9 C 28 % -0.84 C
3745 20-09-2008 14:22:02 17.5 C 30 % -0.25 C
3746 20-09-2008 14:27:03 17.2 C 30 % -0.51 C
3747 20-09-2008 14:32:02 17 C 31 % -0.23 C
3748 20-09-2008 14:37:02 17 C 31 % -0.23 C
3749 20-09-2008 14:42:02 17 C 31 % -0.23 C
3750 20-09-2008 14:47:02 17.5 C 31 % 0.2 C
Sensor: Nr:Datum:Temp:Feuchte:Taupunkt:
Aussen-T/F 3751 20-09-2008 14:52:02 17.4 C 31 % 0.12 C
3752 20-09-2008 14:57:02 17.3 C 31 % 0.03 C
3753 20-09-2008 15:02:03 17.3 C 31 % 0.03 C
3754 20-09-2008 15:07:03 17.5 C 29 % -0.71 C
3755 20-09-2008 15:12:03 17.7 C 30 % -0.07 C
3756 20-09-2008 15:17:03 17.8 C 30 % 0.01 C
3757 20-09-2008 15:22:03 18.1 C 28 % -0.67 C
3758 20-09-2008 15:27:03 18.8 C 27 % -0.57 C
3759 20-09-2008 15:32:02 18.7 C 27 % -0.66 C
3760 20-09-2008 15:37:02 18.1 C 26 % -1.68 C
3761 20-09-2008 15:42:02 18 C 26 % -1.77 C
3762 20-09-2008 15:47:02 18.2 C 26 % -1.6 C
3763 20-09-2008 15:52:03 18.1 C 27 % -1.17 C
3764 20-09-2008 15:57:03 17.9 C 29 % -0.36 C
3765 20-09-2008 16:02:01 17.7 C 28 % -1.02 C
3766 20-09-2008 16:07:01 17.6 C 28 % -1.1 C
3767 20-09-2008 16:12:01 17 C 30 % -0.68 C
3768 20-09-2008 16:17:02 17.3 C 31 % 0.03 C
3769 20-09-2008 16:22:02 17.8 C 31 % 0.47 C
3770 20-09-2008 16:27:02 18.8 C 29 % 0.41 C
3771 20-09-2008 16:32:01 19.3 C 26 % -0.66 C
3772 20-09-2008 16:37:01 19.2 C 27 % -0.23 C
3773 20-09-2008 16:42:01 19 C 28 % 0.1 C
3774 20-09-2008 16:47:02 18.5 C 29 % 0.15 C
3775 20-09-2008 16:52:02 17.9 C 30 % 0.1 C
Sensor: Nr:Datum:Temp:Feuchte:Taupunkt:
Aussen-T/F 3776 20-09-2008 16:57:02 17.6 C 30 % -0.16 C
3777 20-09-2008 17:02:02 17.2 C 32 % 0.38 C
3778 20-09-2008 17:07:02 17.1 C 32 % 0.29 C
3779 20-09-2008 17:12:02 17.3 C 32 % 0.47 C
3780 20-09-2008 17:17:02 18.1 C 31 % 0.73 C
3781 20-09-2008 17:22:02 18.7 C 31 % 1.25 C
3782 20-09-2008 17:27:03 19.1 C 29 % 0.67 C
3783 20-09-2008 17:32:01 19.6 C 26 % -0.4 C
3784 20-09-2008 17:37:01 19.8 C 27 % 0.28 C
3785 20-09-2008 17:42:01 19.8 C 26 % -0.23 C
3786 20-09-2008 17:47:01 19.2 C 27 % -0.23 C
3787 20-09-2008 17:52:01 18.9 C 27 % -0.48 C
3788 20-09-2008 17:57:01 19.1 C 27 % -0.31 C
3789 20-09-2008 18:02:02 19 C 27 % -0.4 C
3790 20-09-2008 18:07:02 19 C 28 % 0.1 C
3791 20-09-2008 18:12:02 18.9 C 28 % 0.01 C
3792 20-09-2008 18:17:02 18.9 C 27 % -0.48 C
3793 20-09-2008 18:22:02 18.8 C 31 % 1.33 C
3794 20-09-2008 18:27:02 18.7 C 30 % 0.79 C
3795 20-09-2008 18:32:02 18.6 C 29 % 0.24 C
3796 20-09-2008 18:37:02 18.4 C 29 % 0.07 C
3797 20-09-2008 18:42:02 18.3 C 32 % 1.34 C
3798 20-09-2008 18:47:02 18.1 C 31 % 0.73 C
3799 20-09-2008 18:52:02 17.9 C 32 % 0.99 C
3800 20-09-2008 18:57:02 17.4 C 34 % 1.4 C
Sensor: Nr:Datum:Temp:Feuchte:Taupunkt:
Aussen-T/F 3801 20-09-2008 19:02:01 17 C 35 % 1.45 C
3802 20-09-2008 19:07:01 16.6 C 35 % 1.09 C
3803 20-09-2008 19:12:01 16.1 C 35 % 0.65 C
3804 20-09-2008 19:17:02 15.4 C 37 % 0.8 C
3805 20-09-2008 19:22:02 15 C 39 % 1.18 C
3806 20-09-2008 19:27:02 14.7 C 40 % 1.26 C
3807 20-09-2008 19:32:01 14 C 41 % 0.97 C
3808 20-09-2008 19:37:01 13.7 C 42 % 1.04 C
3809 20-09-2008 19:42:01 13.5 C 43 % 1.18 C
3810 20-09-2008 19:47:01 13.2 C 44 % 1.23 C
3811 20-09-2008 19:52:01 13.1 C 45 % 1.45 C
3812 20-09-2008 19:57:01 13.1 C 46 % 1.76 C
3813 20-09-2008 20:02:02 13.1 C 46 % 1.76 C
3814 20-09-2008 20:07:02 13 C 44 % 1.05 C
3815 20-09-2008 20:12:02 13 C 44 % 1.05 C
3816 20-09-2008 20:17:01 13 C 46 % 1.67 C
3817 20-09-2008 20:22:01 12.7 C 48 % 1.99 C
3818 20-09-2008 20:27:01 12.6 C 49 % 2.18 C
3819 20-09-2008 20:32:02 12.5 C 49 % 2.09 C
3820 20-09-2008 20:37:02 12.5 C 50 % 2.37 C
3821 20-09-2008 20:42:02 12.2 C 49 % 1.82 C
3822 20-09-2008 20:47:03 12.1 C 49 % 1.72 C
3823 20-09-2008 20:52:03 11.9 C 51 % 2.1 C
3824 20-09-2008 20:57:03 11.7 C 51 % 1.91 C
3825 20-09-2008 21:02:02 11.7 C 51 % 1.91 C
Sensor: Nr:Datum:Temp:Feuchte:Taupunkt:
Aussen-T/F 3826 20-09-2008 21:07:02 11.6 C 52 % 2.09 C
3827 20-09-2008 21:12:02 11.5 C 52 % 2 C
3828 20-09-2008 21:17:03 11.3 C 52 % 1.81 C
3829 20-09-2008 21:22:03 11.2 C 52 % 1.72 C
3830 20-09-2008 21:27:03 11.1 C 53 % 1.9 C
3831 20-09-2008 21:32:02 11 C 53 % 1.8 C
3832 20-09-2008 21:37:02 11 C 54 % 2.06 C
3833 20-09-2008 21:42:02 10.8 C 55 % 2.13 C
3834 20-09-2008 21:47:01 10.8 C 55 % 2.13 C
3835 20-09-2008 21:52:01 10.8 C 56 % 2.39 C
3836 20-09-2008 21:57:01 10.7 C 56 % 2.29 C
3837 20-09-2008 22:03:02 10.8 C 58 % 2.88 C
3838 20-09-2008 22:08:02 10.8 C 58 % 2.88 C
3839 20-09-2008 22:13:02 10.7 C 58 % 2.79 C
3840 20-09-2008 22:18:02 10.8 C 58 % 2.88 C
3841 20-09-2008 22:23:02 10.9 C 57 % 2.73 C
3842 20-09-2008 22:28:02 11 C 56 % 2.57 C
3843 20-09-2008 22:33:02 11 C 56 % 2.57 C
3844 20-09-2008 22:38:02 11 C 57 % 2.82 C
3845 20-09-2008 22:43:02 11 C 57 % 2.82 C
3846 20-09-2008 22:48:02 11 C 58 % 3.07 C
3847 20-09-2008 22:53:02 11 C 58 % 3.07 C
3848 20-09-2008 22:58:03 11.1 C 59 % 3.4 C
3849 20-09-2008 23:03:03 11.1 C 58 % 3.16 C
3850 20-09-2008 23:08:03 11 C 59 % 3.31 C
Sensor: Nr:Datum:Temp:Feuchte:Taupunkt:
Aussen-T/F 3851 20-09-2008 23:13:03 11 C 59 % 3.31 C
3852 20-09-2008 23:18:03 11 C 60 % 3.55 C
3853 20-09-2008 23:23:03 11 C 60 % 3.55 C
3854 20-09-2008 23:28:03 11 C 60 % 3.55 C
3855 20-09-2008 23:33:03 10.9 C 61 % 3.69 C
3856 20-09-2008 23:38:03 10.9 C 61 % 3.69 C
3857 20-09-2008 23:43:03 10.9 C 62 % 3.92 C
3858 20-09-2008 23:48:03 10.9 C 62 % 3.92 C
3859 20-09-2008 23:53:03 10.8 C 62 % 3.82 C
3860 20-09-2008 23:58:03 10.7 C 62 % 3.73 C
3861 21-09-2008 00:03:03 10.7 C 62 % 3.73 C
3862 21-09-2008 00:08:03 10.6 C 62 % 3.63 C
3863 21-09-2008 00:13:03 10.5 C 63 % 3.77 C
3864 21-09-2008 00:18:03 10.5 C 64 % 3.99 C
3865 21-09-2008 00:23:03 10.3 C 64 % 3.8 C
3866 21-09-2008 00:28:03 10.2 C 65 % 3.92 C
3867 21-09-2008 00:33:04 10.1 C 65 % 3.83 C
3868 21-09-2008 00:38:04 9.9 C 66 % 3.86 C
3869 21-09-2008 00:43:04 9.8 C 66 % 3.76 C
3870 21-09-2008 00:48:04 9.8 C 67 % 3.97 C
3871 21-09-2008 00:53:04 9.8 C 67 % 3.97 C
3872 21-09-2008 00:58:04 9.6 C 67 % 3.78 C
3873 21-09-2008 01:03:04 9.8 C 67 % 3.97 C
3874 21-09-2008 01:08:04 9.8 C 67 % 3.97 C
3875 21-09-2008 01:13:04 9.7 C 67 % 3.88 C
Sensor: Nr:Datum:Temp:Feuchte:Taupunkt:
Aussen-T/F 3876 21-09-2008 01:18:04 9.7 C 67 % 3.88 C
3877 21-09-2008 01:23:04 9.7 C 67 % 3.88 C
3878 21-09-2008 01:28:04 9.8 C 67 % 3.97 C
3879 21-09-2008 01:33:04 9.7 C 68 % 4.09 C
3880 21-09-2008 01:38:04 9.8 C 68 % 4.18 C
3881 21-09-2008 01:43:04 9.8 C 68 % 4.18 C
3882 21-09-2008 01:48:04 9.6 C 69 % 4.2 C
3883 21-09-2008 01:53:04 9.5 C 70 % 4.31 C
3884 21-09-2008 01:58:04 9.4 C 70 % 4.21 C
3885 21-09-2008 02:03:04 9.2 C 71 % 4.22 C
3886 21-09-2008 02:08:04 9.1 C 71 % 4.13 C
3887 21-09-2008 02:13:04 8.9 C 73 % 4.33 C
3888 21-09-2008 02:18:05 8.7 C 73 % 4.14 C
3889 21-09-2008 02:23:05 8.6 C